Time,TemperatureF,DewpointF,PressureIn,WindDirection,WindDirectionDegrees,WindSpeedMPH,WindSpeedGustMPH,Humidity,HourlyPrecipIn,Conditions,Clouds,dailyrainin,SoftwareType,DateUTC
2013-04-15 00:00:00,70.0,35.4,29.97,NNW,338,2.0,5.8,28,0.00,,,0.00,VWS V14.01,2013-04-15 04:00:00,
2013-04-15 00:01:00,68.0,40.8,30.03,WSW,248,9.8,9.8,37,0.00,,,0.00,VWS V14.01,2013-04-15 04:01:00,
2013-04-15 00:02:00,68.0,40.8,30.03,NNW,338,5.8,9.8,37,0.00,,,0.00,VWS V14.01,2013-04-15 04:02:00,
2013-04-15 00:03:00,68.0,40.8,30.03,WNW,292,10.5,10.5,37,0.00,,,0.00,VWS V14.01,2013-04-15 04:03:00,
2013-04-15 00:04:00,68.0,40.8,30.03,NNW,338,6.0,10.5,37,0.00,,,0.00,VWS V14.01,2013-04-15 04:04:00,
2013-04-15 00:05:00,69.8,36.1,29.97,NNW,338,3.1,3.1,29,0.00,,,0.00,VWS V14.01,2013-04-15 04:05:00,
2013-04-15 00:06:00,68.2,40.2,30.03,West,270,4.3,5.6,36,0.00,,,0.00,VWS V14.01,2013-04-15 04:06:00,
2013-04-15 00:07:00,68.2,40.2,30.03,WNW,292,3.8,5.6,36,0.00,,,0.00,VWS V14.01,2013-04-15 04:07:00,
2013-04-15 00:08:00,68.2,40.2,30.03,NNW,338,3.8,5.4,36,0.00,,,0.00,VWS V14.01,2013-04-15 04:08:00,
2013-04-15 00:09:00,68.4,40.4,30.03,WSW,248,3.6,5.6,36,0.00,,,0.00,VWS V14.01,2013-04-15 04:09:00,
2013-04-15 00:10:00,69.6,36.8,29.94,NNE,22,1.3,1.3,30,0.00,,,0.00,VWS V14.01,2013-04-15 04:10:00,
2013-04-15 00:11:00,68.4,39.7,30.03,NW,315,7.4,7.4,35,0.00,,,0.00,VWS V14.01,2013-04-15 04:11:00,
2013-04-15 00:12:00,68.4,39.7,30.03,West,270,4.3,7.4,35,0.00,,,0.00,VWS V14.01,2013-04-15 04:12:00,
2013-04-15 00:13:00,68.5,39.1,30.03,WNW,292,9.6,9.6,34,0.00,,,0.00,VWS V14.01,2013-04-15 04:13:00,
2013-04-15 00:14:00,68.5,39.1,30.06,West,270,8.5,9.6,34,0.00,,,0.00,VWS V14.01,2013-04-15 04:14:00,
2013-04-15 00:15:00,69.4,36.7,29.94,NNW,338,2.5,2.5,30,0.00,,,0.00,VWS V14.01,2013-04-15 04:15:00,
2013-04-15 00:16:00,68.7,39.2,30.06,WNW,292,5.4,7.2,34,0.00,,,0.00,VWS V14.01,2013-04-15 04:16:00,
2013-04-15 00:17:00,68.7,39.2,30.06,West,270,6.5,6.5,34,0.00,,,0.00,VWS V14.01,2013-04-15 04:17:00,
2013-04-15 00:18:00,68.7,39.2,30.06,West,270,6.5,6.5,34,0.00,,,0.00,VWS V14.01,2013-04-15 04:18:00,
2013-04-15 00:19:00,68.7,38.5,30.06,WNW,292,4.9,9.2,33,0.00,,,0.00,VWS V14.01,2013-04-15 04:19:00,
2013-04-15 00:20:00,69.4,38.3,29.94,North,0,2.7,2.7,32,0.00,,,0.00,VWS V14.01,2013-04-15 04:20:00,
2013-04-15 00:21:00,68.9,38.6,30.06,NNW,338,5.4,5.4,33,0.00,,,0.00,VWS V14.01,2013-04-15 04:21:00,
2013-04-15 00:22:00,68.9,38.6,30.06,NNE,22,3.6,5.8,33,0.00,,,0.00,VWS V14.01,2013-04-15 04:22:00,
2013-04-15 00:23:00,68.9,38.6,30.06,NNW,338,4.0,4.3,33,0.00,,,0.00,VWS V14.01,2013-04-15 04:23:00,
2013-04-15 00:24:00,68.9,38.6,30.06,West,270,2.7,4.9,33,0.00,,,0.00,VWS V14.01,2013-04-15 04:24:00,
2013-04-15 00:25:00,69.4,38.3,29.94,West,270,2.0,2.0,32,0.00,,,0.00,VWS V14.01,2013-04-15 04:25:00,
2013-04-15 00:26:00,68.9,38.6,30.06,WSW,248,8.1,8.1,33,0.00,,,0.00,VWS V14.01,2013-04-15 04:26:00,
2013-04-15 00:27:00,68.9,38.6,30.06,WSW,248,8.1,8.1,33,0.00,,,0.00,VWS V14.01,2013-04-15 04:27:00,
2013-04-15 00:28:00,68.9,38.6,30.03,WNW,292,4.3,8.1,33,0.00,,,0.00,VWS V14.01,2013-04-15 04:28:00,
2013-04-15 00:29:00,68.9,38.6,30.03,WSW,248,3.4,4.3,33,0.00,,,0.00,VWS V14.01,2013-04-15 04:29:00,
2013-04-15 00:30:00,69.3,38.2,29.97,WNW,292,2.7,2.7,32,0.00,,,0.00,VWS V14.01,2013-04-15 04:30:00,
2013-04-15 00:31:00,68.9,38.6,30.03,West,270,2.9,3.4,33,0.00,,,0.00,VWS V14.01,2013-04-15 04:31:00,
2013-04-15 00:32:00,68.9,38.6,30.03,West,270,3.8,3.8,33,0.00,,,0.00,VWS V14.01,2013-04-15 04:32:00,
2013-04-15 00:33:00,68.9,38.6,30.03,West,270,2.0,3.8,33,0.00,,,0.00,VWS V14.01,2013-04-15 04:33:00,
2013-04-15 00:34:00,68.9,38.6,30.03,WSW,248,4.3,4.3,33,0.00,,,0.00,VWS V14.01,2013-04-15 04:34:00,
2013-04-15 00:35:00,69.3,38.2,29.97,NW,315,3.1,3.1,32,0.00,,,0.00,VWS V14.01,2013-04-15 04:35:00,
2013-04-15 00:36:00,68.9,39.4,30.03,West,270,3.6,4.3,34,0.00,,,0.00,VWS V14.01,2013-04-15 04:36:00,
2013-04-15 00:37:00,68.9,38.6,30.03,NNW,338,7.8,7.8,33,0.00,,,0.00,VWS V14.01,2013-04-15 04:37:00,
2013-04-15 00:38:00,68.9,38.6,30.03,WNW,292,5.4,7.8,33,0.00,,,0.00,VWS V14.01,2013-04-15 04:38:00,
2013-04-15 00:39:00,68.9,38.6,30.03,WNW,292,4.3,6.5,33,0.00,,,0.00,VWS V14.01,2013-04-15 04:39:00,
2013-04-15 00:40:00,69.1,38.0,29.94,NNE,22,2.0,2.0,32,0.00,,,0.00,VWS V14.01,2013-04-15 04:40:00,
2013-04-15 00:41:00,68.9,38.6,30.03,WSW,248,2.5,2.9,33,0.00,,,0.00,VWS V14.01,2013-04-15 04:41:00,
2013-04-15 00:42:00,68.9,38.6,30.03,North,0,3.1,3.1,33,0.00,,,0.00,VWS V14.01,2013-04-15 04:42:00,
2013-04-15 00:43:00,68.9,38.6,30.00,WSW,248,4.0,4.0,33,0.00,,,0.00,VWS V14.01,2013-04-15 04:43:00,
2013-04-15 00:44:00,68.9,38.6,30.00,WNW,292,3.6,4.0,33,0.00,,,0.00,VWS V14.01,2013-04-15 04:44:00,
2013-04-15 00:45:00,69.1,38.0,29.94,North,0,2.0,2.0,32,0.00,,,0.00,VWS V14.01,2013-04-15 04:45:00,
2013-04-15 00:46:00,68.9,38.6,30.00,West,270,3.4,3.4,33,0.00,,,0.00,VWS V14.01,2013-04-15 04:46:00,
2013-04-15 00:47:00,68.9,38.6,30.00,NNW,338,3.1,5.6,33,0.00,,,0.00,VWS V14.01,2013-04-15 04:47:00,
2013-04-15 00:48:00,68.9,38.6,30.00,NNE,22,4.9,4.9,33,0.00,,,0.00,VWS V14.01,2013-04-15 04:48:00,
2013-04-15 00:49:00,68.9,38.6,30.00,West,270,2.0,4.9,33,0.00,,,0.00,VWS V14.01,2013-04-15 04:49:00,
2013-04-15 00:50:00,69.1,38.0,29.94,North,0,3.6,3.6,32,0.00,,,0.00,VWS V14.01,2013-04-15 04:50:00,
2013-04-15 00:51:00,68.9,38.6,30.00,ESE,112,7.6,7.6,33,0.00,,,0.00,VWS V14.01,2013-04-15 04:51:00,
2013-04-15 00:53:00,68.9,38.6,30.00,NNE,22,5.6,7.6,33,0.00,,,0.00,VWS V14.01,2013-04-15 04:53:00,
2013-04-15 00:54:00,69.1,38.8,30.00,North,0,3.6,5.6,33,0.00,,,0.00,VWS V14.01,2013-04-15 04:54:00,
2013-04-15 00:55:00,68.9,37.8,29.97,NNW,338,4.3,4.3,32,0.00,,,0.00,VWS V14.01,2013-04-15 04:55:00,
2013-04-15 00:56:00,69.1,38.0,30.00,North,0,4.3,4.3,32,0.00,,,0.00,VWS V14.01,2013-04-15 04:56:00,
2013-04-15 00:57:00,69.1,38.0,30.00,North,0,4.3,4.3,32,0.00,,,0.00,VWS V14.01,2013-04-15 04:57:00,
2013-04-15 00:58:00,69.3,38.2,30.00,WNW,292,2.7,4.3,32,0.00,,,0.00,VWS V14.01,2013-04-15 04:58:00,
2013-04-15 00:59:00,69.3,38.2,30.00,North,0,2.0,5.6,32,0.00,,,0.00,VWS V14.01,2013-04-15 04:59:00,
2013-04-15 01:00:00,68.7,37.7,29.97,WNW,292,1.6,3.1,32,0.00,,,0.00,VWS V14.01,2013-04-15 05:00:00,
2013-04-15 01:01:00,69.3,38.2,30.00,North,0,2.5,4.9,32,0.00,,,0.00,VWS V14.01,2013-04-15 05:01:00,
2013-04-15 01:02:00,69.3,38.2,30.00,WSW,248,2.0,4.7,32,0.00,,,0.00,VWS V14.01,2013-04-15 05:02:00,
2013-04-15 01:03:00,69.3,38.2,30.00,SW,225,3.6,3.6,32,0.00,,,0.00,VWS V14.01,2013-04-15 05:03:00,
2013-04-15 01:04:00,69.3,38.2,30.00,NNE,22,2.7,3.6,32,0.00,,,0.00,VWS V14.01,2013-04-15 05:04:00,
2013-04-15 01:05:00,68.7,37.7,29.97,NNE,22,0.0,0.0,32,0.00,,,0.00,VWS V14.01,2013-04-15 05:05:00,
2013-04-15 01:06:00,69.3,39.0,30.00,West,270,3.1,3.1,33,0.00,,,0.00,VWS V14.01,2013-04-15 05:06:00,
2013-04-15 01:07:00,69.3,38.2,30.00,WNW,292,4.0,7.2,32,0.00,,,0.00,VWS V14.01,2013-04-15 05:07:00,
2013-04-15 01:08:00,69.3,38.2,30.00,North,0,2.9,6.3,32,0.00,,,0.00,VWS V14.01,2013-04-15 05:08:00,
2013-04-15 01:09:00,69.3,38.2,30.00,North,0,2.9,2.9,32,0.00,,,0.00,VWS V14.01,2013-04-15 05:09:00,
2013-04-15 01:10:00,68.5,37.5,29.94,SW,225,1.6,1.6,32,0.00,,,0.00,VWS V14.01,2013-04-15 05:10:00,
2013-04-15 01:11:00,69.3,38.2,30.00,SE,135,4.0,4.0,32,0.00,,,0.00,VWS V14.01,2013-04-15 05:11:00,
2013-04-15 01:12:00,69.4,39.1,30.00,South,180,1.6,4.0,33,0.00,,,0.00,VWS V14.01,2013-04-15 05:12:00,
2013-04-15 01:13:00,69.4,38.3,30.00,SSE,158,3.6,3.6,32,0.00,,,0.00,VWS V14.01,2013-04-15 05:13:00,
2013-04-15 01:14:00,69.4,38.3,30.00,NE,45,2.7,4.0,32,0.00,,,0.00,VWS V14.01,2013-04-15 05:14:00,
2013-04-15 01:15:00,68.5,37.5,29.94,SW,225,0.0,0.0,32,0.00,,,0.00,VWS V14.01,2013-04-15 05:15:00,
2013-04-15 01:16:00,69.4,38.3,30.00,ENE,68,1.1,1.1,32,0.00,,,0.00,VWS V14.01,2013-04-15 05:16:00,
2013-04-15 01:17:00,69.4,38.3,30.00,North,0,3.4,3.4,32,0.00,,,0.00,VWS V14.01,2013-04-15 05:17:00,
2013-04-15 01:18:00,69.6,38.5,30.00,WNW,292,3.8,3.8,32,0.00,,,0.00,VWS V14.01,2013-04-15 05:18:00,
2013-04-15 01:19:00,69.6,38.5,30.00,WNW,292,1.6,3.8,32,0.00,,,0.00,VWS V14.01,2013-04-15 05:19:00,
2013-04-15 01:20:00,68.4,38.2,29.94,NNE,22,1.1,1.1,33,0.00,,,0.00,VWS V14.01,2013-04-15 05:20:00,
2013-04-15 01:21:00,69.6,38.5,30.00,WNW,292,3.1,3.1,32,0.00,,,0.00,VWS V14.01,2013-04-15 05:21:00,
2013-04-15 01:22:00,69.6,38.5,30.00,West,270,2.0,3.1,32,0.00,,,0.00,VWS V14.01,2013-04-15 05:22:00,
2013-04-15 01:23:00,69.6,38.5,30.00,West,270,3.6,3.6,32,0.00,,,0.00,VWS V14.01,2013-04-15 05:23:00,
2013-04-15 01:24:00,69.6,37.7,30.00,NW,315,3.6,6.0,31,0.00,,,0.00,VWS V14.01,2013-04-15 05:24:00,
2013-04-15 01:25:00,68.2,38.0,29.97,SSE,158,1.6,2.0,33,0.00,,,0.00,VWS V14.01,2013-04-15 05:25:00,
2013-04-15 01:26:00,69.8,36.1,30.00,NNW,338,4.5,6.3,29,0.00,,,0.00,VWS V14.01,2013-04-15 05:26:00,
2013-04-15 01:27:00,69.8,35.3,30.00,NNW,338,3.1,7.4,28,0.00,,,0.00,VWS V14.01,2013-04-15 05:27:00,
2013-04-15 01:28:00,69.8,35.3,29.97,North,0,4.3,4.3,28,0.00,,,0.00,VWS V14.01,2013-04-15 05:28:00,
2013-04-15 01:29:00,70.0,35.4,29.97,West,270,3.1,4.3,28,0.00,,,0.00,VWS V14.01,2013-04-15 05:29:00,
2013-04-15 01:30:00,68.2,38.0,29.97,SSE,158,1.1,1.1,33,0.00,,,0.00,VWS V14.01,2013-04-15 05:30:00,
2013-04-15 01:31:00,70.0,35.4,29.97,WNW,292,4.3,4.3,28,0.00,,,0.00,VWS V14.01,2013-04-15 05:31:00,
2013-04-15 01:32:00,70.0,35.4,29.97,NNW,338,4.3,4.3,28,0.00,,,0.00,VWS V14.01,2013-04-15 05:32:00,
2013-04-15 01:33:00,70.0,35.4,29.97,NNW,338,2.0,5.8,28,0.00,,,0.00,VWS V14.01,2013-04-15 05:33:00,
2013-04-15 01:34:00,70.0,35.4,29.97,NNW,338,3.6,3.6,28,0.00,,,0.00,VWS V14.01,2013-04-15 05:34:00,
2013-04-15 01:35:00,68.0,37.8,29.97,ENE,68,0.0,0.0,33,0.00,,,0.00,VWS V14.01,2013-04-15 05:35:00,
2013-04-15 01:36:00,70.0,36.3,29.97,NNW,338,3.4,3.6,29,0.00,,,0.00,VWS V14.01,2013-04-15 05:36:00,
2013-04-15 01:37:00,69.8,36.1,29.97,NNE,22,2.9,3.4,29,0.00,,,0.00,VWS V14.01,2013-04-15 05:37:00,
2013-04-15 01:38:00,69.8,36.1,29.97,NNW,338,2.0,4.3,29,0.00,,,0.00,VWS V14.01,2013-04-15 05:38:00,
2013-04-15 01:39:00,69.8,36.1,29.97,NNW,338,3.1,3.1,29,0.00,,,0.00,VWS V14.01,2013-04-15 05:39:00,
2013-04-15 01:40:00,68.0,37.8,29.97,ENE,68,0.0,0.0,33,0.00,,,0.00,VWS V14.01,2013-04-15 05:40:00,
2013-04-15 01:41:00,69.8,36.1,29.97,WNW,292,3.6,4.0,29,0.00,,,0.00,VWS V14.01,2013-04-15 05:41:00,
2013-04-15 01:42:00,69.6,36.0,29.97,North,0,2.5,3.6,29,0.00,,,0.00,VWS V14.01,2013-04-15 05:42:00,
2013-04-15 01:43:00,69.6,36.8,29.94,NNE,22,1.3,2.5,30,0.00,,,0.00,VWS V14.01,2013-04-15 05:43:00,
2013-04-15 01:44:00,69.6,36.8,29.94,NNW,338,2.0,2.2,30,0.00,,,0.00,VWS V14.01,2013-04-15 05:44:00,
2013-04-15 01:45:00,68.2,38.0,29.97,ENE,68,0.0,0.0,33,0.00,,,0.00,VWS V14.01,2013-04-15 05:45:00,
2013-04-15 01:46:00,69.6,36.8,29.94,NNE,22,1.3,3.1,30,0.00,,,0.00,VWS V14.01,2013-04-15 05:46:00,
2013-04-15 01:47:00,69.4,36.7,29.94,North,0,2.0,3.6,30,0.00,,,0.00,VWS V14.01,2013-04-15 05:47:00,
2013-04-15 01:48:00,69.4,36.7,29.94,NNW,338,2.0,2.7,30,0.00,,,0.00,VWS V14.01,2013-04-15 05:48:00,
2013-04-15 01:50:00,68.0,38.6,29.97,ENE,68,0.0,0.0,34,0.00,,,0.00,VWS V14.01,2013-04-15 05:50:00,
2013-04-15 01:51:00,69.4,37.5,29.94,NNW,338,2.0,3.8,31,0.00,,,0.00,VWS V14.01,2013-04-15 05:51:00,
2013-04-15 01:52:00,69.4,37.5,29.94,West,270,3.1,3.1,31,0.00,,,0.00,VWS V14.01,2013-04-15 05:52:00,
2013-04-15 01:53:00,69.4,38.3,29.94,NNW,338,2.0,3.1,32,0.00,,,0.00,VWS V14.01,2013-04-15 05:53:00,
2013-04-15 01:54:00,69.4,38.3,29.94,WNW,292,2.5,3.6,32,0.00,,,0.00,VWS V14.01,2013-04-15 05:54:00,
2013-04-15 01:55:00,68.0,38.6,29.97,ENE,68,0.0,0.0,34,0.00,,,0.00,VWS V14.01,2013-04-15 05:55:00,
2013-04-15 01:56:00,69.4,38.3,29.94,NNW,338,2.5,3.4,32,0.00,,,0.00,VWS V14.01,2013-04-15 05:56:00,
2013-04-15 01:57:00,69.4,38.3,29.94,NNE,22,2.0,802.0,32,0.00,,,0.00,VWS V14.01,2013-04-15 05:57:00,
2013-04-15 01:58:00,69.4,38.3,29.94,West,270,2.0,2.0,32,0.00,,,0.00,VWS V14.01,2013-04-15 05:58:00,
2013-04-15 01:59:00,69.4,38.3,29.94,NNW,338,2.9,2.9,32,0.00,,,0.00,VWS V14.01,2013-04-15 05:59:00,
2013-04-15 02:00:00,68.0,38.6,29.97,ENE,68,0.0,0.0,34,0.00,,,0.00,VWS V14.01,2013-04-15 06:00:00,
2013-04-15 02:02:00,69.4,38.3,29.97,WNW,292,2.5,3.6,32,0.00,,,0.00,VWS V14.01,2013-04-15 06:02:00,
2013-04-15 02:03:00,69.3,38.2,29.97,WNW,292,2.7,2.7,32,0.00,,,0.00,VWS V14.01,2013-04-15 06:03:00,
2013-04-15 02:04:00,69.3,38.2,29.97,WNW,292,2.7,2.7,32,0.00,,,0.00,VWS V14.01,2013-04-15 06:04:00,
2013-04-15 02:05:00,68.0,38.6,29.97,ENE,68,0.0,0.0,34,0.00,,,0.00,VWS V14.01,2013-04-15 06:05:00,
2013-04-15 02:06:00,69.3,38.2,29.97,NNW,338,2.0,3.8,32,0.00,,,0.00,VWS V14.01,2013-04-15 06:06:00,
2013-04-15 02:07:00,69.3,38.2,29.97,NNW,338,2.2,2.7,32,0.00,,,0.00,VWS V14.01,2013-04-15 06:07:00,
2013-04-15 02:08:00,69.3,38.2,29.97,NW,315,2.0,2.9,32,0.00,,,0.00,VWS V14.01,2013-04-15 06:08:00,
2013-04-15 02:09:00,69.3,38.2,29.97,NW,315,3.6,3.6,32,0.00,,,0.00,VWS V14.01,2013-04-15 06:09:00,
2013-04-15 02:10:00,68.0,38.6,29.97,ESE,112,2.2,2.5,34,0.00,,,0.00,VWS V14.01,2013-04-15 06:10:00,
2013-04-15 02:11:00,69.1,38.0,29.97,NNW,338,2.7,2.7,32,0.00,,,0.00,VWS V14.01,2013-04-15 06:11:00,
2013-04-15 02:12:00,69.1,38.0,29.97,North,0,2.0,2.7,32,0.00,,,0.00,VWS V14.01,2013-04-15 06:12:00,
2013-04-15 02:13:00,69.1,38.0,29.97,NNW,338,1.6,3.1,32,0.00,,,0.00,VWS V14.01,2013-04-15 06:13:00,
2013-04-15 02:14:00,69.1,38.0,29.94,NNE,22,1.1,2.0,32,0.00,,,0.00,VWS V14.01,2013-04-15 06:14:00,
2013-04-15 02:15:00,68.0,38.6,29.97,ESE,112,1.6,2.2,34,0.00,,,0.00,VWS V14.01,2013-04-15 06:15:00,
2013-04-15 02:16:00,69.1,38.0,29.94,NNE,22,2.2,2.2,32,0.00,,,0.00,VWS V14.01,2013-04-15 06:16:00,
2013-04-15 02:17:00,69.1,38.0,29.94,North,0,2.5,2.5,32,0.00,,,0.00,VWS V14.01,2013-04-15 06:17:00,
2013-04-15 02:18:00,69.1,38.0,29.94,NNW,338,1.3,3.4,32,0.00,,,0.00,VWS V14.01,2013-04-15 06:18:00,
2013-04-15 02:19:00,69.1,38.0,29.94,NW,315,2.7,2.7,32,0.00,,,0.00,VWS V14.01,2013-04-15 06:19:00,
2013-04-15 02:20:00,68.2,38.8,29.97,ESE,112,2.0,2.0,34,0.00,,,0.00,VWS V14.01,2013-04-15 06:20:00,
2013-04-15 02:21:00,69.1,38.0,29.94,NNE,22,2.7,3.4,32,0.00,,,0.00,VWS V14.01,2013-04-15 06:21:00,
2013-04-15 02:22:00,69.1,38.0,29.94,North,0,2.5,3.4,32,0.00,,,0.00,VWS V14.01,2013-04-15 06:22:00,
2013-04-15 02:23:00,69.1,38.0,29.94,North,0,3.1,3.1,32,0.00,,,0.00,VWS V14.01,2013-04-15 06:23:00,
2013-04-15 02:24:00,68.9,37.8,29.94,NNW,338,2.9,3.6,32,0.00,,,0.00,VWS V14.01,2013-04-15 06:24:00,
2013-04-15 02:25:00,68.4,38.9,29.94,ESE,112,2.9,2.9,34,0.00,,,0.00,VWS V14.01,2013-04-15 06:25:00,
2013-04-15 02:26:00,68.9,37.8,29.94,NW,315,3.4,3.4,32,0.00,,,0.00,VWS V14.01,2013-04-15 06:26:00,
2013-04-15 02:27:00,68.9,37.8,29.94,North,0,3.1,3.4,32,0.00,,,0.00,VWS V14.01,2013-04-15 06:27:00,
2013-04-15 02:28:00,68.9,37.8,29.94,North,0,2.2,3.1,32,0.00,,,0.00,VWS V14.01,2013-04-15 06:28:00,
2013-04-15 02:29:00,68.9,37.8,29.97,NNE,22,2.0,4.3,32,0.00,,,0.00,VWS V14.01,2013-04-15 06:29:00,
2013-04-15 02:30:00,68.4,38.9,29.94,ESE,112,2.7,3.1,34,0.00,,,0.00,VWS V14.01,2013-04-15 06:30:00,
2013-04-15 02:31:00,68.7,37.7,29.97,North,0,3.1,3.8,32,0.00,,,0.00,VWS V14.01,2013-04-15 06:31:00,
2013-04-15 02:32:00,68.7,37.7,29.97,North,0,2.5,3.1,32,0.00,,,0.00,VWS V14.01,2013-04-15 06:32:00,
2013-04-15 02:33:00,68.7,37.7,29.97,NNW,338,3.1,3.1,32,0.00,,,0.00,VWS V14.01,2013-04-15 06:33:00,
2013-04-15 02:34:00,68.7,37.7,29.97,North,0,1.1,3.1,32,0.00,,,0.00,VWS V14.01,2013-04-15 06:34:00,
2013-04-15 02:35:00,68.5,39.8,29.94,ENE,68,0.9,2.7,35,0.00,,,0.00,VWS V14.01,2013-04-15 06:35:00,
2013-04-15 02:37:00,68.7,37.7,29.97,NNE,22,0.0,0.0,32,0.00,,,0.00,VWS V14.01,2013-04-15 06:37:00,
2013-04-15 02:38:00,68.7,37.7,29.97,NNE,22,0.0,2.2,32,0.00,,,0.00,VWS V14.01,2013-04-15 06:38:00,
2013-04-15 02:39:00,68.7,37.7,29.97,NNE,22,2.0,2.0,32,0.00,,,0.00,VWS V14.01,2013-04-15 06:39:00,
2013-04-15 02:40:00,68.7,37.7,29.97,NNW,338,2.2,2.2,32,0.00,,,0.00,VWS V14.01,2013-04-15 06:40:00,
2013-04-15 02:41:00,68.5,39.8,29.94,NE,45,0.9,1.1,35,0.00,,,0.00,VWS V14.01,2013-04-15 06:41:00,
2013-04-15 02:42:00,68.5,37.5,29.97,WSW,248,0.0,0.0,32,0.00,,,0.00,VWS V14.01,2013-04-15 06:42:00,
2013-04-15 02:43:00,68.5,37.5,29.94,SW,225,1.1,1.1,32,0.00,,,0.00,VWS V14.01,2013-04-15 06:43:00,
2013-04-15 02:44:00,68.5,37.5,29.94,SW,225,0.0,1.6,32,0.00,,,0.00,VWS V14.01,2013-04-15 06:44:00,
2013-04-15 02:45:00,68.5,37.5,29.94,SW,225,0.0,0.0,32,0.00,,,0.00,VWS V14.01,2013-04-15 06:45:00,
2013-04-15 02:46:00,68.7,40.0,29.94,ESE,112,2.2,2.9,35,0.00,,,0.00,VWS V14.01,2013-04-15 06:46:00,
2013-04-15 02:48:00,68.5,37.5,29.94,SW,225,0.0,0.0,32,0.00,,,0.00,VWS V14.01,2013-04-15 06:48:00,
2013-04-15 02:49:00,68.5,37.5,29.94,SW,225,0.0,0.0,32,0.00,,,0.00,VWS V14.01,2013-04-15 06:49:00,
2013-04-15 02:50:00,68.4,37.4,29.94,SW,225,0.0,0.0,32,0.00,,,0.00,VWS V14.01,2013-04-15 06:50:00,
2013-04-15 02:51:00,68.9,40.2,29.94,SE,135,1.6,2.9,35,0.00,,,0.00,VWS V14.01,2013-04-15 06:51:00,
2013-04-15 02:52:00,68.4,37.4,29.94,NNE,22,1.1,1.1,32,0.00,,,0.00,VWS V14.01,2013-04-15 06:52:00,
2013-04-15 02:53:00,68.4,37.4,29.94,North,0,1.1,1.3,32,0.00,,,0.00,VWS V14.01,2013-04-15 06:53:00,
2013-04-15 02:54:00,68.4,38.2,29.94,NNE,22,2.2,2.2,33,0.00,,,0.00,VWS V14.01,2013-04-15 06:54:00,
2013-04-15 02:55:00,68.2,38.0,29.94,NNE,22,1.6,2.2,33,0.00,,,0.00,VWS V14.01,2013-04-15 06:55:00,
2013-04-15 02:56:00,68.9,40.2,29.97,ESE,112,1.3,1.6,35,0.00,,,0.00,VWS V14.01,2013-04-15 06:56:00,
2013-04-15 02:57:00,68.2,38.0,29.94,ENE,68,2.2,2.2,33,0.00,,,0.00,VWS V14.01,2013-04-15 06:57:00,
2013-04-15 02:58:00,68.2,38.0,29.97,ESE,112,1.3,2.2,33,0.00,,,0.00,VWS V14.01,2013-04-15 06:58:00,
2013-04-15 02:59:00,68.2,38.0,29.97,SSE,158,1.6,2.0,33,0.00,,,0.00,VWS V14.01,2013-04-15 06:59:00,
2013-04-15 03:00:00,68.2,38.0,29.97,SSE,158,1.3,1.6,33,0.00,,,0.00,VWS V14.01,2013-04-15 07:00:00,
2013-04-15 03:01:00,68.9,40.2,29.97,ESE,112,0.0,0.0,35,0.00,,,0.00,VWS V14.01,2013-04-15 07:01:00,
2013-04-15 03:02:00,68.2,38.0,29.97,SE,135,0.0,1.1,33,0.00,,,0.00,VWS V14.01,2013-04-15 07:02:00,
2013-04-15 03:03:00,68.2,38.0,29.97,SSE,158,1.1,1.3,33,0.00,,,0.00,VWS V14.01,2013-04-15 07:03:00,
2013-04-15 03:04:00,68.2,38.0,29.97,SSE,158,1.1,1.1,33,0.00,,,0.00,VWS V14.01,2013-04-15 07:04:00,
2013-04-15 03:05:00,68.2,38.0,29.97,SE,135,0.0,1.1,33,0.00,,,0.00,VWS V14.01,2013-04-15 07:05:00,
2013-04-15 03:06:00,68.9,40.9,29.97,ESE,112,2.5,2.7,36,0.00,,,0.00,VWS V14.01,2013-04-15 07:06:00,
2013-04-15 03:07:00,68.0,37.8,29.97,ENE,68,0.0,0.0,33,0.00,,,0.00,VWS V14.01,2013-04-15 07:07:00,
2013-04-15 03:08:00,68.0,37.8,29.97,ENE,68,0.0,0.0,33,0.00,,,0.00,VWS V14.01,2013-04-15 07:08:00,
2013-04-15 03:09:00,68.0,37.8,29.97,ENE,68,0.0,0.0,33,0.00,,,0.00,VWS V14.01,2013-04-15 07:09:00,
2013-04-15 03:10:00,68.0,37.8,29.97,ENE,68,0.0,0.0,33,0.00,,,0.00,VWS V14.01,2013-04-15 07:10:00,
2013-04-15 03:12:00,68.0,37.8,29.97,ENE,68,0.0,0.0,33,0.00,,,0.00,VWS V14.01,2013-04-15 07:12:00,
2013-04-15 03:13:00,68.0,37.8,29.97,ENE,68,0.0,0.0,33,0.00,,,0.00,VWS V14.01,2013-04-15 07:13:00,
2013-04-15 03:14:00,68.0,37.8,29.97,ENE,68,0.0,0.0,33,0.00,,,0.00,VWS V14.01,2013-04-15 07:14:00,
2013-04-15 03:15:00,68.0,37.8,29.97,ENE,68,0.0,0.0,33,0.00,,,0.00,VWS V14.01,2013-04-15 07:15:00,
2013-04-15 03:17:00,68.0,37.8,29.97,ENE,68,0.0,0.0,33,0.00,,,0.00,VWS V14.01,2013-04-15 07:17:00,
2013-04-15 03:18:00,68.0,37.8,29.97,ENE,68,0.0,0.0,33,0.00,,,0.00,VWS V14.01,2013-04-15 07:18:00,
2013-04-15 03:19:00,68.2,38.0,29.97,ENE,68,0.0,0.0,33,0.00,,,0.00,VWS V14.01,2013-04-15 07:19:00,
2013-04-15 03:20:00,68.2,38.0,29.97,ENE,68,0.0,0.0,33,0.00,,,0.00,VWS V14.01,2013-04-15 07:20:00,
2013-04-15 03:21:00,68.0,38.6,29.97,ENE,68,0.0,0.0,34,0.00,,,0.00,VWS V14.01,2013-04-15 07:21:00,
2013-04-15 03:22:00,68.0,38.6,29.97,ENE,68,0.0,0.0,34,0.00,,,0.00,VWS V14.01,2013-04-15 07:22:00,
2013-04-15 03:23:00,68.0,38.6,29.97,ENE,68,0.0,0.0,34,0.00,,,0.00,VWS V14.01,2013-04-15 07:23:00,
2013-04-15 03:24:00,68.0,38.6,29.97,ENE,68,0.0,0.0,34,0.00,,,0.00,VWS V14.01,2013-04-15 07:24:00,
2013-04-15 03:25:00,68.0,38.6,29.97,ENE,68,0.0,0.0,34,0.00,,,0.00,VWS V14.01,2013-04-15 07:25:00,
2013-04-15 03:26:00,68.0,38.6,29.97,ENE,68,0.0,0.0,34,0.00,,,0.00,VWS V14.01,2013-04-15 07:26:00,
2013-04-15 03:27:00,68.0,38.6,29.97,ENE,68,0.0,0.0,34,0.00,,,0.00,VWS V14.01,2013-04-15 07:27:00,
2013-04-15 03:28:00,68.0,38.6,29.97,ENE,68,0.0,0.0,34,0.00,,,0.00,VWS V14.01,2013-04-15 07:28:00,
2013-04-15 03:29:00,68.0,38.6,29.97,ENE,68,0.0,0.0,34,0.00,,,0.00,VWS V14.01,2013-04-15 07:29:00,
2013-04-15 03:30:00,68.0,38.6,29.97,ENE,68,0.0,0.0,34,0.00,,,0.00,VWS V14.01,2013-04-15 07:30:00,
2013-04-15 03:31:00,68.0,38.6,29.97,ENE,68,0.0,0.0,34,0.00,,,0.00,VWS V14.01,2013-04-15 07:31:00,
2013-04-15 03:32:00,68.0,38.6,29.97,ENE,68,0.0,0.0,34,0.00,,,0.00,VWS V14.01,2013-04-15 07:32:00,
2013-04-15 03:33:00,68.0,38.6,29.97,ENE,68,0.0,0.0,34,0.00,,,0.00,VWS V14.01,2013-04-15 07:33:00,
2013-04-15 03:34:00,68.0,38.6,29.97,ENE,68,0.0,0.0,34,0.00,,,0.00,VWS V14.01,2013-04-15 07:34:00,
2013-04-15 03:35:00,68.0,38.6,29.97,ENE,68,0.0,0.0,34,0.00,,,0.00,VWS V14.01,2013-04-15 07:35:00,
2013-04-15 03:36:00,68.0,38.6,29.97,ENE,68,0.0,0.0,34,0.00,,,0.00,VWS V14.01,2013-04-15 07:36:00,
2013-04-15 03:37:00,68.0,38.6,29.97,ENE,68,0.0,0.0,34,0.00,,,0.00,VWS V14.01,2013-04-15 07:37:00,
2013-04-15 03:38:00,68.0,38.6,29.97,ENE,68,0.0,0.0,34,0.00,,,0.00,VWS V14.01,2013-04-15 07:38:00,
2013-04-15 03:39:00,68.0,38.6,29.97,ENE,68,0.0,0.0,34,0.00,,,0.00,VWS V14.01,2013-04-15 07:39:00,
2013-04-15 03:40:00,68.0,38.6,29.97,ENE,68,0.0,0.0,34,0.00,,,0.00,VWS V14.01,2013-04-15 07:40:00,
2013-04-15 03:41:00,67.8,40.6,29.97,WSW,248,0.0,0.0,37,0.00,,,0.00,VWS V14.01,2013-04-15 07:41:00,
2013-04-15 03:42:00,67.8,40.6,29.97,WSW,248,0.9,1.1,37,0.00,,,0.00,VWS V14.01,2013-04-15 07:42:00,
2013-04-15 03:43:00,68.0,38.6,29.97,ESE,112,2.0,2.5,34,0.00,,,0.00,VWS V14.01,2013-04-15 07:43:00,
2013-04-15 03:44:00,68.0,38.6,29.97,ESE,112,2.5,2.5,34,0.00,,,0.00,VWS V14.01,2013-04-15 07:44:00,
2013-04-15 03:45:00,68.0,38.6,29.97,ESE,112,2.5,2.5,34,0.00,,,0.00,VWS V14.01,2013-04-15 07:45:00,
2013-04-15 03:46:00,68.0,38.6,29.97,ESE,112,2.2,2.7,34,0.00,,,0.00,VWS V14.01,2013-04-15 07:46:00,
2013-04-15 03:47:00,67.8,40.6,29.97,West,270,0.0,0.0,37,0.00,,,0.00,VWS V14.01,2013-04-15 07:47:00,
2013-04-15 03:48:00,67.8,40.6,29.97,SSW,202,0.0,0.0,37,0.00,,,0.00,VWS V14.01,2013-04-15 07:48:00,
2013-04-15 03:49:00,68.0,38.6,29.97,ESE,112,2.0,2.2,34,0.00,,,0.00,VWS V14.01,2013-04-15 07:49:00,
2013-04-15 03:50:00,68.0,38.6,29.97,ESE,112,1.6,2.0,34,0.00,,,0.00,VWS V14.01,2013-04-15 07:50:00,
2013-04-15 03:51:00,68.0,38.6,29.97,ESE,112,2.0,2.0,34,0.00,,,0.00,VWS V14.01,2013-04-15 07:51:00,
2013-04-15 03:52:00,68.2,38.8,29.97,ESE,112,1.3,2.2,34,0.00,,,0.00,VWS V14.01,2013-04-15 07:52:00,
2013-04-15 03:53:00,67.8,41.3,29.97,SW,225,0.0,0.0,38,0.00,,,0.00,VWS V14.01,2013-04-15 07:53:00,
2013-04-15 03:54:00,68.2,38.8,29.97,ESE,112,2.5,2.5,34,0.00,,,0.00,VWS V14.01,2013-04-15 07:54:00,
2013-04-15 03:55:00,68.2,38.8,29.97,ESE,112,2.2,2.7,34,0.00,,,0.00,VWS V14.01,2013-04-15 07:55:00,
2013-04-15 03:56:00,68.4,38.9,29.97,ESE,112,2.5,2.5,34,0.00,,,0.00,VWS V14.01,2013-04-15 07:56:00,
2013-04-15 03:57:00,68.4,38.9,29.97,ESE,112,2.7,2.9,34,0.00,,,0.00,VWS V14.01,2013-04-15 07:57:00,
2013-04-15 03:58:00,67.8,41.3,29.97,SSE,158,0.0,0.0,38,0.00,,,0.00,VWS V14.01,2013-04-15 07:58:00,
2013-04-15 03:59:00,68.4,38.9,29.94,ESE,112,3.1,3.1,34,0.00,,,0.00,VWS V14.01,2013-04-15 07:59:00,
2013-04-15 04:01:00,68.4,38.9,29.94,ESE,112,2.9,3.1,34,0.00,,,0.00,VWS V14.01,2013-04-15 08:01:00,
2013-04-15 04:02:00,68.4,38.9,29.94,ESE,112,3.1,3.1,34,0.00,,,0.00,VWS V14.01,2013-04-15 08:02:00,
2013-04-15 04:03:00,67.6,41.8,29.97,WSW,248,0.0,0.0,39,0.00,,,0.00,VWS V14.01,2013-04-15 08:03:00,
2013-04-15 04:04:00,68.4,38.9,29.94,ESE,112,2.7,3.1,34,0.00,,,0.00,VWS V14.01,2013-04-15 08:04:00,
2013-04-15 04:05:00,68.4,39.7,29.94,ESE,112,3.1,3.4,35,0.00,,,0.00,VWS V14.01,2013-04-15 08:05:00,
2013-04-15 04:06:00,68.5,39.8,29.94,ESE,112,3.4,3.6,35,0.00,,,0.00,VWS V14.01,2013-04-15 08:06:00,
2013-04-15 04:07:00,68.5,39.8,29.94,East,90,2.2,3.4,35,0.00,,,0.00,VWS V14.01,2013-04-15 08:07:00,
2013-04-15 04:08:00,67.6,41.8,29.97,WSW,248,0.0,0.0,39,0.00,,,0.00,VWS V14.01,2013-04-15 08:08:00,
2013-04-15 04:09:00,68.5,39.8,29.94,ENE,68,0.9,0.9,35,0.00,,,0.00,VWS V14.01,2013-04-15 08:09:00,
2013-04-15 04:10:00,68.5,39.8,29.94,ENE,68,2.2,2.7,35,0.00,,,0.00,VWS V14.01,2013-04-15 08:10:00,
2013-04-15 04:11:00,68.5,39.8,29.94,NNE,22,1.6,2.5,35,0.00,,,0.00,VWS V14.01,2013-04-15 08:11:00,
2013-04-15 04:12:00,68.5,39.8,29.94,NE,45,1.1,2.0,35,0.00,,,0.00,VWS V14.01,2013-04-15 08:12:00,
2013-04-15 04:13:00,67.6,43.1,29.94,SE,135,6.5,6.5,41,0.00,,,0.00,VWS V14.01,2013-04-15 08:13:00,
2013-04-15 04:14:00,68.5,39.8,29.94,NE,45,0.9,1.1,35,0.00,,,0.00,VWS V14.01,2013-04-15 08:14:00,
2013-04-15 04:15:00,68.7,40.0,29.94,ENE,68,1.6,2.0,35,0.00,,,0.00,VWS V14.01,2013-04-15 08:15:00,
2013-04-15 04:16:00,68.7,40.0,29.94,ESE,112,2.2,2.2,35,0.00,,,0.00,VWS V14.01,2013-04-15 08:16:00,
2013-04-15 04:17:00,68.7,40.0,29.94,ESE,112,2.5,2.5,35,0.00,,,0.00,VWS V14.01,2013-04-15 08:17:00,
2013-04-15 04:18:00,68.0,42.8,29.94,South,180,0.9,0.9,40,0.00,,,0.00,VWS V14.01,2013-04-15 08:18:00,
2013-04-15 04:19:00,68.7,40.0,29.94,ESE,112,2.5,2.9,35,0.00,,,0.00,VWS V14.01,2013-04-15 08:19:00,
2013-04-15 04:20:00,68.9,40.9,29.94,East,90,2.7,2.9,36,0.00,,,0.00,VWS V14.01,2013-04-15 08:20:00,
2013-04-15 04:22:00,68.9,40.2,29.94,ESE,112,2.2,2.7,35,0.00,,,0.00,VWS V14.01,2013-04-15 08:22:00,
2013-04-15 04:23:00,68.0,42.1,29.94,SW,225,0.0,0.0,39,0.00,,,0.00,VWS V14.01,2013-04-15 08:23:00,
2013-04-15 04:24:00,68.9,40.2,29.94,SE,135,1.6,2.9,35,0.00,,,0.00,VWS V14.01,2013-04-15 08:24:00,
2013-04-15 04:25:00,68.9,40.2,29.94,SE,135,1.3,1.6,35,0.00,,,0.00,VWS V14.01,2013-04-15 08:25:00,
2013-04-15 04:26:00,68.9,40.2,29.94,SE,135,1.3,1.3,35,0.00,,,0.00,VWS V14.01,2013-04-15 08:26:00,
2013-04-15 04:27:00,68.9,40.2,29.94,ESE,112,1.1,1.6,35,0.00,,,0.00,VWS V14.01,2013-04-15 08:27:00,
2013-04-15 04:28:00,68.9,40.2,29.97,ESE,112,1.6,1.6,35,0.00,,,0.00,VWS V14.01,2013-04-15 08:28:00,
2013-04-15 04:29:00,68.0,42.1,29.97,WSW,248,1.1,1.1,39,0.00,,,0.00,VWS V14.01,2013-04-15 08:29:00,
2013-04-15 04:30:00,68.9,40.2,29.97,ESE,112,0.9,1.3,35,0.00,,,0.00,VWS V14.01,2013-04-15 08:30:00,
2013-04-15 04:31:00,68.9,40.2,29.97,ESE,112,0.0,0.9,35,0.00,,,0.00,VWS V14.01,2013-04-15 08:31:00,
2013-04-15 04:32:00,68.9,39.4,29.97,ESE,112,0.0,0.0,34,0.00,,,0.00,VWS V14.01,2013-04-15 08:32:00,
2013-04-15 04:33:00,68.9,39.4,29.97,ESE,112,0.0,0.0,34,0.00,,,0.00,VWS V14.01,2013-04-15 08:33:00,
2013-04-15 04:34:00,68.2,42.3,29.97,South,180,0.9,1.3,39,0.00,,,0.00,VWS V14.01,2013-04-15 08:34:00,
2013-04-15 04:35:00,68.2,42.3,29.97,SSW,202,1.6,1.6,39,0.00,,,0.00,VWS V14.01,2013-04-15 08:35:00,
2013-04-15 04:36:00,68.9,40.9,29.97,East,90,2.5,2.5,36,0.00,,,0.00,VWS V14.01,2013-04-15 08:36:00,
2013-04-15 04:37:00,68.9,40.2,29.97,ESE,112,2.5,2.5,35,0.00,,,0.00,VWS V14.01,2013-04-15 08:37:00,
2013-04-15 04:38:00,68.9,40.9,29.97,ESE,112,2.7,3.1,36,0.00,,,0.00,VWS V14.01,2013-04-15 08:38:00,
2013-04-15 04:39:00,68.9,40.9,29.97,ESE,112,2.5,2.7,36,0.00,,,0.00,VWS V14.01,2013-04-15 08:39:00,
2013-04-15 04:40:00,68.2,41.6,29.97,NNW,338,0.0,1.3,38,0.00,,,0.00,VWS V14.01,2013-04-15 08:40:00,
2013-04-15 04:41:00,68.9,40.9,29.97,ESE,112,2.2,2.5,36,0.00,,,0.00,VWS V14.01,2013-04-15 08:41:00,
2013-04-15 04:42:00,68.9,40.9,29.97,ESE,112,1.3,2.2,36,0.00,,,0.00,VWS V14.01,2013-04-15 08:42:00,
2013-04-15 04:43:00,68.9,40.9,29.97,East,90,1.6,2.0,36,0.00,,,0.00,VWS V14.01,2013-04-15 08:43:00,
2013-04-15 04:44:00,68.9,40.9,29.97,East,90,1.3,1.6,36,0.00,,,0.00,VWS V14.01,2013-04-15 08:44:00,
2013-04-15 04:45:00,68.4,41.8,29.97,SSE,158,0.0,0.0,38,0.00,,,0.00,VWS V14.01,2013-04-15 08:45:00,
2013-04-15 04:46:00,68.9,40.9,29.97,ENE,68,0.0,1.6,36,0.00,,,0.00,VWS V14.01,2013-04-15 08:46:00,
2013-04-15 04:47:00,68.9,40.9,29.97,ENE,68,0.0,0.0,36,0.00,,,0.00,VWS V14.01,2013-04-15 08:47:00,
2013-04-15 04:48:00,68.7,40.7,29.97,ENE,68,0.0,1.6,36,0.00,,,0.00,VWS V14.01,2013-04-15 08:48:00,
2013-04-15 04:49:00,68.7,40.7,29.97,ENE,68,0.0,0.0,36,0.00,,,0.00,VWS V14.01,2013-04-15 08:49:00,
2013-04-15 04:50:00,68.7,40.7,29.97,ENE,68,0.9,0.9,36,0.00,,,0.00,VWS V14.01,2013-04-15 08:50:00,
2013-04-15 04:51:00,68.2,40.9,29.97,SE,135,1.1,1.3,37,0.00,,,0.00,VWS V14.01,2013-04-15 08:51:00,
2013-04-15 04:52:00,68.7,40.7,29.97,ESE,112,2.2,2.2,36,0.00,,,0.00,VWS V14.01,2013-04-15 08:52:00,
2013-04-15 04:53:00,68.7,40.7,29.97,ESE,112,2.0,2.2,36,0.00,,,0.00,VWS V14.01,2013-04-15 08:53:00,
2013-04-15 04:54:00,68.7,40.7,29.97,ESE,112,1.6,2.0,36,0.00,,,0.00,VWS V14.01,2013-04-15 08:54:00,
2013-04-15 04:55:00,68.7,40.7,29.97,ESE,112,0.0,1.6,36,0.00,,,0.00,VWS V14.01,2013-04-15 08:55:00,
2013-04-15 04:56:00,68.5,40.5,29.97,ESE,112,2.5,2.9,36,0.00,,,0.00,VWS V14.01,2013-04-15 08:56:00,
2013-04-15 04:57:00,68.5,40.6,29.97,ESE,112,0.0,0.0,36,0.00,,,0.00,VWS V14.01,2013-04-15 08:57:00,
2013-04-15 04:58:00,68.5,40.6,29.97,ESE,112,0.0,0.0,36,0.00,,,0.00,VWS V14.01,2013-04-15 08:58:00,
2013-04-15 04:59:00,68.4,40.4,29.97,ESE,112,0.0,0.0,36,0.00,,,0.00,VWS V14.01,2013-04-15 08:59:00,
2013-04-15 05:01:00,68.7,40.7,29.97,South,180,1.6,1.6,36,0.00,,,0.00,VWS V14.01,2013-04-15 09:01:00,
2013-04-15 05:02:00,68.2,40.2,29.97,ESE,112,0.0,0.0,36,0.00,,,0.00,VWS V14.01,2013-04-15 09:02:00,
2013-04-15 05:03:00,68.2,40.2,29.97,ESE,112,0.0,0.0,36,0.00,,,0.00,VWS V14.01,2013-04-15 09:03:00,
2013-04-15 05:04:00,68.2,40.2,29.97,ESE,112,0.0,0.0,36,0.00,,,0.00,VWS V14.01,2013-04-15 09:04:00,
2013-04-15 05:05:00,68.2,40.2,29.97,SE,135,0.0,0.0,36,0.00,,,0.00,VWS V14.01,2013-04-15 09:05:00,
2013-04-15 05:06:00,68.5,39.8,29.97,ESE,112,2.5,2.5,35,0.00,,,0.00,VWS V14.01,2013-04-15 09:06:00,
2013-04-15 05:07:00,68.0,40.1,29.97,South,180,0.0,0.0,36,0.00,,,0.00,VWS V14.01,2013-04-15 09:07:00,
2013-04-15 05:08:00,68.0,40.1,29.97,South,180,0.0,0.0,36,0.00,,,0.00,VWS V14.01,2013-04-15 09:08:00,
2013-04-15 05:09:00,68.0,40.1,29.97,South,180,0.0,0.0,36,0.00,,,0.00,VWS V14.01,2013-04-15 09:09:00,
2013-04-15 05:10:00,67.8,40.6,29.97,South,180,0.0,0.0,37,0.00,,,0.00,VWS V14.01,2013-04-15 09:10:00,
2013-04-15 05:11:00,68.5,39.8,29.97,ESE,112,0.9,2.0,35,0.00,,,0.00,VWS V14.01,2013-04-15 09:11:00,
2013-04-15 05:12:00,67.8,40.6,29.97,South,180,0.0,0.0,37,0.00,,,0.00,VWS V14.01,2013-04-15 09:12:00,
2013-04-15 05:14:00,67.8,40.6,29.97,SSW,202,0.0,0.0,37,0.00,,,0.00,VWS V14.01,2013-04-15 09:14:00,
2013-04-15 05:15:00,67.8,40.6,29.97,WSW,248,0.9,1.1,37,0.00,,,0.00,VWS V14.01,2013-04-15 09:15:00,
2013-04-15 05:16:00,68.4,40.4,29.97,East,90,2.2,2.2,36,0.00,,,0.00,VWS V14.01,2013-04-15 09:16:00,
2013-04-15 05:18:00,67.8,40.6,29.97,WSW,248,0.0,0.9,37,0.00,,,0.00,VWS V14.01,2013-04-15 09:18:00,
2013-04-15 05:19:00,67.8,40.6,29.97,West,270,0.0,0.0,37,0.00,,,0.00,VWS V14.01,2013-04-15 09:19:00,
2013-04-15 05:20:00,67.8,40.6,29.97,SSW,202,0.0,0.0,37,0.00,,,0.00,VWS V14.01,2013-04-15 09:20:00,
2013-04-15 05:21:00,68.2,40.2,29.97,ESE,112,0.0,0.0,36,0.00,,,0.00,VWS V14.01,2013-04-15 09:21:00,
2013-04-15 05:22:00,67.8,41.3,29.97,SSW,202,0.0,0.0,38,0.00,,,0.00,VWS V14.01,2013-04-15 09:22:00,
2013-04-15 05:23:00,67.8,41.3,29.97,SW,225,1.3,1.3,38,0.00,,,0.00,VWS V14.01,2013-04-15 09:23:00,
2013-04-15 05:24:00,67.8,41.3,29.97,SW,225,0.9,2.0,38,0.00,,,0.00,VWS V14.01,2013-04-15 09:24:00,
2013-04-15 05:25:00,67.8,41.3,29.97,SW,225,0.0,0.9,38,0.00,,,0.00,VWS V14.01,2013-04-15 09:25:00,
2013-04-15 05:26:00,68.2,40.2,29.97,ESE,112,3.1,3.4,36,0.00,,,0.00,VWS V14.01,2013-04-15 09:26:00,
2013-04-15 05:27:00,67.8,41.3,29.97,SW,225,0.0,0.0,38,0.00,,,0.00,VWS V14.01,2013-04-15 09:27:00,
2013-04-15 05:28:00,67.8,41.3,29.97,SW,225,0.9,1.1,38,0.00,,,0.00,VWS V14.01,2013-04-15 09:28:00,
2013-04-15 05:29:00,67.8,41.3,29.97,SE,135,0.0,0.9,38,0.00,,,0.00,VWS V14.01,2013-04-15 09:29:00,
2013-04-15 05:30:00,67.8,41.3,29.97,SE,135,0.0,1.1,38,0.00,,,0.00,VWS V14.01,2013-04-15 09:30:00,
2013-04-15 05:31:00,68.5,41.3,29.97,SSE,158,3.1,3.6,37,0.00,,,0.00,VWS V14.01,2013-04-15 09:31:00,
2013-04-15 05:32:00,67.8,41.3,29.97,SSE,158,0.0,0.0,38,0.00,,,0.00,VWS V14.01,2013-04-15 09:32:00,
2013-04-15 05:33:00,67.8,41.3,29.97,SSE,158,0.0,0.0,38,0.00,,,0.00,VWS V14.01,2013-04-15 09:33:00,
2013-04-15 05:34:00,67.8,41.3,29.97,SSW,202,0.0,0.0,38,0.00,,,0.00,VWS V14.01,2013-04-15 09:34:00,
2013-04-15 05:35:00,67.6,41.8,29.97,WSW,248,0.0,0.0,39,0.00,,,0.00,VWS V14.01,2013-04-15 09:35:00,
2013-04-15 05:36:00,68.9,41.6,29.97,SSE,158,4.3,4.3,37,0.00,,,0.00,VWS V14.01,2013-04-15 09:36:00,
2013-04-15 05:37:00,67.6,41.8,29.97,WSW,248,0.0,0.0,39,0.00,,,0.00,VWS V14.01,2013-04-15 09:37:00,
2013-04-15 05:38:00,67.6,41.8,29.97,SSW,202,0.0,0.0,39,0.00,,,0.00,VWS V14.01,2013-04-15 09:38:00,
2013-04-15 05:39:00,67.6,41.8,29.97,SW,225,0.0,0.0,39,0.00,,,0.00,VWS V14.01,2013-04-15 09:39:00,
2013-04-15 05:40:00,67.6,41.8,29.97,SW,225,0.0,0.0,39,0.00,,,0.00,VWS V14.01,2013-04-15 09:40:00,
2013-04-15 05:41:00,69.3,41.2,29.94,SE,135,3.6,3.6,36,0.00,,,0.00,VWS V14.01,2013-04-15 09:41:00,
2013-04-15 05:42:00,67.6,41.8,29.97,WSW,248,0.0,0.0,39,0.00,,,0.00,VWS V14.01,2013-04-15 09:42:00,
2013-04-15 05:43:00,67.6,41.8,29.94,WSW,248,0.0,0.0,39,0.00,,,0.00,VWS V14.01,2013-04-15 09:43:00,
2013-04-15 05:44:00,67.6,41.8,29.94,South,180,0.0,0.0,39,0.00,,,0.00,VWS V14.01,2013-04-15 09:44:00,
2013-04-15 05:45:00,67.6,42.5,29.94,SSE,158,2.0,2.0,40,0.00,,,0.00,VWS V14.01,2013-04-15 09:45:00,
2013-04-15 05:46:00,69.4,42.1,29.94,South,180,2.5,3.1,37,0.00,,,0.00,VWS V14.01,2013-04-15 09:46:00,
2013-04-15 05:47:00,67.6,42.5,29.94,SSE,158,4.3,6.5,40,0.00,,,0.00,VWS V14.01,2013-04-15 09:47:00,
2013-04-15 05:48:00,67.8,42.6,29.94,SSW,202,2.0,4.3,40,0.00,,,0.00,VWS V14.01,2013-04-15 09:48:00,
2013-04-15 05:49:00,67.8,42.6,29.94,West,270,2.9,2.9,40,0.00,,,0.00,VWS V14.01,2013-04-15 09:49:00,
2013-04-15 05:50:00,68.0,42.8,29.94,NNW,338,1.1,2.9,40,0.00,,,0.00,VWS V14.01,2013-04-15 09:50:00,
2013-04-15 05:51:00,69.6,42.2,29.94,SSE,158,3.6,5.6,37,0.00,,,0.00,VWS V14.01,2013-04-15 09:51:00,
2013-04-15 05:52:00,68.0,42.8,29.94,South,180,0.9,0.9,40,0.00,,,0.00,VWS V14.01,2013-04-15 09:52:00,
2013-04-15 05:53:00,68.0,42.2,29.94,South,180,0.0,0.9,39,0.00,,,0.00,VWS V14.01,2013-04-15 09:53:00,
2013-04-15 05:54:00,68.0,42.2,29.94,South,180,0.0,0.0,39,0.00,,,0.00,VWS V14.01,2013-04-15 09:54:00,
2013-04-15 05:55:00,68.0,42.2,29.94,SSW,202,0.0,1.1,39,0.00,,,0.00,VWS V14.01,2013-04-15 09:55:00,
2013-04-15 05:56:00,70.0,42.5,29.94,South,180,4.3,5.6,37,0.00,,,0.00,VWS V14.01,2013-04-15 09:56:00,
2013-04-15 05:57:00,68.0,42.2,29.94,SSW,202,0.0,0.0,39,0.00,,,0.00,VWS V14.01,2013-04-15 09:57:00,
2013-04-15 05:58:00,68.0,42.2,29.94,SSE,158,0.0,0.0,39,0.00,,,0.00,VWS V14.01,2013-04-15 09:58:00,
2013-04-15 05:59:00,68.0,42.2,29.94,SSE,158,0.0,0.0,39,0.00,,,0.00,VWS V14.01,2013-04-15 09:59:00,
2013-04-15 06:00:00,68.0,42.2,29.94,SSE,158,1.6,1.6,39,0.00,,,0.00,VWS V14.01,2013-04-15 10:00:00,
2013-04-15 06:01:00,70.0,42.5,29.94,ESE,112,6.5,6.5,37,0.00,,,0.00,VWS V14.01,2013-04-15 10:01:00,
2013-04-15 06:02:00,68.0,42.2,29.97,West,270,2.0,2.0,39,0.00,,,0.00,VWS V14.01,2013-04-15 10:02:00,
2013-04-15 06:03:00,68.0,42.2,29.97,SSW,202,1.6,2.0,39,0.00,,,0.00,VWS V14.01,2013-04-15 10:03:00,
2013-04-15 06:04:00,68.0,42.2,29.97,NW,315,0.9,2.0,39,0.00,,,0.00,VWS V14.01,2013-04-15 10:04:00,
2013-04-15 06:05:00,68.2,42.3,29.97,SSW,202,1.1,2.5,39,0.00,,,0.00,VWS V14.01,2013-04-15 10:05:00,
2013-04-15 06:06:00,70.2,42.0,29.94,SSE,158,4.9,5.4,36,0.00,,,0.00,VWS V14.01,2013-04-15 10:06:00,
2013-04-15 06:07:00,68.2,42.3,29.97,SSE,158,1.3,2.0,39,0.00,,,0.00,VWS V14.01,2013-04-15 10:07:00,
2013-04-15 06:08:00,68.2,42.3,29.97,SSW,202,1.6,1.6,39,0.00,,,0.00,VWS V14.01,2013-04-15 10:08:00,
2013-04-15 06:09:00,68.2,41.6,29.97,South,180,2.9,2.9,38,0.00,,,0.00,VWS V14.01,2013-04-15 10:09:00,
2013-04-15 06:10:00,68.2,41.6,29.97,SSW,202,0.0,2.9,38,0.00,,,0.00,VWS V14.01,2013-04-15 10:10:00,
2013-04-15 06:11:00,70.3,41.4,29.94,SSE,158,8.7,9.2,35,0.00,,,0.00,VWS V14.01,2013-04-15 10:11:00,
2013-04-15 06:12:00,68.2,41.6,29.97,WNW,292,1.1,1.6,38,0.00,,,0.00,VWS V14.01,2013-04-15 10:12:00,
2013-04-15 06:13:00,68.2,41.6,29.97,WSW,248,2.0,2.0,38,0.00,,,0.00,VWS V14.01,2013-04-15 10:13:00,
2013-04-15 06:14:00,68.2,41.6,29.97,WSW,248,1.3,2.0,38,0.00,,,0.00,VWS V14.01,2013-04-15 10:14:00,
2013-04-15 06:15:00,68.2,41.6,29.97,West,270,1.1,2.5,38,0.00,,,0.00,VWS V14.01,2013-04-15 10:15:00,
2013-04-15 06:16:00,70.3,40.7,29.94,SE,135,6.9,7.6,34,0.00,,,0.00,VWS V14.01,2013-04-15 10:16:00,
2013-04-15 06:17:00,68.4,41.8,29.97,West,270,1.6,3.1,38,0.00,,,0.00,VWS V14.01,2013-04-15 10:17:00,
2013-04-15 06:18:00,68.4,41.8,29.97,WSW,248,0.0,2.0,38,0.00,,,0.00,VWS V14.01,2013-04-15 10:18:00,
2013-04-15 06:19:00,68.4,41.8,29.97,SSE,158,0.0,0.0,38,0.00,,,0.00,VWS V14.01,2013-04-15 10:19:00,
2013-04-15 06:21:00,70.5,40.8,29.94,SE,135,6.5,8.5,34,0.00,,,0.00,VWS V14.01,2013-04-15 10:21:00,
2013-04-15 06:22:00,68.2,40.9,29.97,SSE,158,1.6,1.6,37,0.00,,,0.00,VWS V14.01,2013-04-15 10:22:00,
2013-04-15 06:23:00,68.2,40.9,29.97,SE,135,1.3,2.5,37,0.00,,,0.00,VWS V14.01,2013-04-15 10:23:00,
2013-04-15 06:24:00,68.2,40.9,29.97,SE,135,1.1,1.3,37,0.00,,,0.00,VWS V14.01,2013-04-15 10:24:00,
2013-04-15 06:25:00,68.2,40.9,29.97,West,270,1.1,1.1,37,0.00,,,0.00,VWS V14.01,2013-04-15 10:25:00,
2013-04-15 06:26:00,70.5,40.8,29.94,SSE,158,6.5,6.5,34,0.00,,,0.00,VWS V14.01,2013-04-15 10:26:00,
2013-04-15 06:27:00,68.2,40.9,29.97,SE,135,2.2,2.2,37,0.00,,,0.00,VWS V14.01,2013-04-15 10:27:00,
2013-04-15 06:28:00,68.4,41.1,29.97,SE,135,2.9,2.9,37,0.00,,,0.00,VWS V14.01,2013-04-15 10:28:00,
2013-04-15 06:30:00,68.7,40.7,29.97,SSE,158,2.5,2.9,36,0.00,,,0.00,VWS V14.01,2013-04-15 10:30:00,
2013-04-15 06:31:00,70.9,40.4,29.94,ESE,112,9.6,10.5,33,0.00,,,0.00,VWS V14.01,2013-04-15 10:31:00,
2013-04-15 06:32:00,68.9,40.9,29.97,South,180,0.0,1.1,36,0.00,,,0.00,VWS V14.01,2013-04-15 10:32:00,
2013-04-15 06:34:00,68.7,40.7,29.97,South,180,1.6,1.6,36,0.00,,,0.00,VWS V14.01,2013-04-15 10:34:00,
2013-04-15 06:35:00,68.7,40.7,29.97,South,180,0.0,1.6,36,0.00,,,0.00,VWS V14.01,2013-04-15 10:35:00,
2013-04-15 06:36:00,71.1,40.5,29.94,SSE,158,13.2,13.2,33,0.00,,,0.00,VWS V14.01,2013-04-15 10:36:00,
2013-04-15 06:37:00,68.7,40.7,29.97,SSW,202,0.0,0.0,36,0.00,,,0.00,VWS V14.01,2013-04-15 10:37:00,
2013-04-15 06:38:00,68.5,39.8,29.97,SE,135,1.6,2.0,35,0.00,,,0.00,VWS V14.01,2013-04-15 10:38:00,
2013-04-15 06:39:00,68.5,39.8,29.97,ESE,112,2.5,2.5,35,0.00,,,0.00,VWS V14.01,2013-04-15 10:39:00,
2013-04-15 06:40:00,68.5,39.8,29.97,SE,135,2.5,2.5,35,0.00,,,0.00,VWS V14.01,2013-04-15 10:40:00,
2013-04-15 06:41:00,71.2,39.9,29.94,South,180,8.7,10.5,32,0.00,,,0.00,VWS V14.01,2013-04-15 10:41:00,
2013-04-15 06:42:00,68.5,39.8,29.97,ESE,112,2.0,2.7,35,0.00,,,0.00,VWS V14.01,2013-04-15 10:42:00,
2013-04-15 06:43:00,68.5,39.8,29.97,ESE,112,2.0,2.7,35,0.00,,,0.00,VWS V14.01,2013-04-15 10:43:00,
2013-04-15 06:44:00,68.5,39.8,29.97,ESE,112,0.9,2.0,35,0.00,,,0.00,VWS V14.01,2013-04-15 10:44:00,
2013-04-15 06:45:00,68.4,39.7,29.97,SE,135,1.3,1.6,35,0.00,,,0.00,VWS V14.01,2013-04-15 10:45:00,
2013-04-15 06:46:00,71.2,39.9,29.94,SE,135,7.6,10.7,32,0.00,,,0.00,VWS V14.01,2013-04-15 10:46:00,
2013-04-15 06:47:00,68.4,40.4,29.97,ESE,112,1.6,2.5,36,0.00,,,0.00,VWS V14.01,2013-04-15 10:47:00,
2013-04-15 06:48:00,68.4,40.4,29.97,East,90,1.6,2.0,36,0.00,,,0.00,VWS V14.01,2013-04-15 10:48:00,
2013-04-15 06:49:00,68.4,40.4,29.97,East,90,2.2,2.2,36,0.00,,,0.00,VWS V14.01,2013-04-15 10:49:00,
2013-04-15 06:50:00,68.4,40.4,29.97,ENE,68,2.0,2.2,36,0.00,,,0.00,VWS V14.01,2013-04-15 10:50:00,
2013-04-15 06:51:00,71.4,40.0,29.94,ESE,112,8.1,8.1,32,0.00,,,0.00,VWS V14.01,2013-04-15 10:51:00,
2013-04-15 06:52:00,68.4,40.4,29.97,East,90,0.0,1.1,36,0.00,,,0.00,VWS V14.01,2013-04-15 10:52:00,
2013-04-15 06:53:00,68.2,40.2,29.97,East,90,0.0,0.0,36,0.00,,,0.00,VWS V14.01,2013-04-15 10:53:00,
2013-04-15 06:54:00,68.2,40.2,29.97,ESE,112,0.0,0.0,36,0.00,,,0.00,VWS V14.01,2013-04-15 10:54:00,
2013-04-15 06:55:00,68.2,40.2,29.97,SE,135,0.0,0.0,36,0.00,,,0.00,VWS V14.01,2013-04-15 10:55:00,
2013-04-15 06:56:00,68.2,40.2,29.97,SSE,158,0.0,0.0,36,0.00,,,0.00,VWS V14.01,2013-04-15 10:56:00,
2013-04-15 06:57:00,71.4,40.0,29.97,SSE,158,4.9,7.6,32,0.00,,,0.00,VWS V14.01,2013-04-15 10:57:00,
2013-04-15 06:58:00,68.2,40.2,29.97,SSE,158,1.6,2.5,36,0.00,,,0.00,VWS V14.01,2013-04-15 10:58:00,
2013-04-15 06:59:00,68.2,40.2,29.97,ESE,112,3.1,3.4,36,0.00,,,0.00,VWS V14.01,2013-04-15 10:59:00,
2013-04-15 07:00:00,68.4,41.1,29.97,ESE,112,4.3,4.3,37,0.00,,,0.00,VWS V14.01,2013-04-15 11:00:00,
2013-04-15 07:01:00,71.6,40.2,29.97,SE,135,8.1,10.5,32,0.00,,,0.00,VWS V14.01,2013-04-15 11:01:00,
2013-04-15 07:02:00,68.4,41.1,29.97,SSE,158,4.3,4.3,37,0.00,,,0.00,VWS V14.01,2013-04-15 11:02:00,
2013-04-15 07:03:00,68.4,41.1,29.97,South,180,3.1,4.3,37,0.00,,,0.00,VWS V14.01,2013-04-15 11:03:00,
2013-04-15 07:05:00,68.5,41.3,29.97,SSE,158,4.3,4.3,37,0.00,,,0.00,VWS V14.01,2013-04-15 11:05:00,
2013-04-15 07:06:00,68.5,41.3,29.97,SSE,158,3.4,4.3,37,0.00,,,0.00,VWS V14.01,2013-04-15 11:06:00,
2013-04-15 07:07:00,71.4,40.0,29.97,SSE,158,5.8,6.5,32,0.00,,,0.00,VWS V14.01,2013-04-15 11:07:00,
2013-04-15 07:08:00,68.7,41.4,29.97,SE,135,3.8,3.8,37,0.00,,,0.00,VWS V14.01,2013-04-15 11:08:00,
2013-04-15 07:09:00,68.9,41.6,29.97,SE,135,2.7,3.8,37,0.00,,,0.00,VWS V14.01,2013-04-15 11:09:00,
2013-04-15 07:10:00,68.9,40.9,29.97,SE,135,5.4,5.4,36,0.00,,,0.00,VWS V14.01,2013-04-15 11:10:00,
2013-04-15 07:11:00,68.9,40.9,29.97,SSE,158,2.7,5.4,36,0.00,,,0.00,VWS V14.01,2013-04-15 11:11:00,
2013-04-15 07:12:00,71.4,40.0,29.97,SE,135,6.3,7.4,32,0.00,,,0.00,VWS V14.01,2013-04-15 11:12:00,
2013-04-15 07:13:00,69.1,41.0,29.94,SSE,158,2.5,2.7,36,0.00,,,0.00,VWS V14.01,2013-04-15 11:13:00,
2013-04-15 07:14:00,69.1,41.0,29.94,ESE,112,2.5,3.6,36,0.00,,,0.00,VWS V14.01,2013-04-15 11:14:00,
2013-04-15 07:15:00,69.3,41.2,29.94,ESE,112,2.7,3.6,36,0.00,,,0.00,VWS V14.01,2013-04-15 11:15:00,
2013-04-15 07:16:00,69.3,41.2,29.94,ESE,112,2.7,3.1,36,0.00,,,0.00,VWS V14.01,2013-04-15 11:16:00,
2013-04-15 07:17:00,71.4,40.0,29.97,SE,135,6.5,6.5,32,0.00,,,0.00,VWS V14.01,2013-04-15 11:17:00,
2013-04-15 07:18:00,69.3,41.2,29.94,SSE,158,3.8,3.8,36,0.00,,,0.00,VWS V14.01,2013-04-15 11:18:00,
2013-04-15 07:19:00,69.3,41.2,29.94,SSE,158,3.1,3.8,36,0.00,,,0.00,VWS V14.01,2013-04-15 11:19:00,
2013-04-15 07:20:00,69.4,42.1,29.94,SSE,158,2.5,3.1,37,0.00,,,0.00,VWS V14.01,2013-04-15 11:20:00,
2013-04-15 07:21:00,69.4,42.1,29.94,South,180,2.7,3.6,37,0.00,,,0.00,VWS V14.01,2013-04-15 11:21:00,
2013-04-15 07:22:00,71.4,40.0,29.97,SE,135,6.7,6.7,32,0.00,,,0.00,VWS V14.01,2013-04-15 11:22:00,
2013-04-15 07:23:00,69.6,42.2,29.94,SSW,202,2.9,2.9,37,0.00,,,0.00,VWS V14.01,2013-04-15 11:23:00,
2013-04-15 07:24:00,69.6,42.2,29.94,South,180,5.6,5.6,37,0.00,,,0.00,VWS V14.01,2013-04-15 11:24:00,
2013-04-15 07:25:00,69.8,42.4,29.94,SSE,158,3.6,5.6,37,0.00,,,0.00,VWS V14.01,2013-04-15 11:25:00,
2013-04-15 07:26:00,69.8,42.4,29.94,SSE,158,2.7,4.3,37,0.00,,,0.00,VWS V14.01,2013-04-15 11:26:00,
2013-04-15 07:27:00,71.6,38.6,29.97,East,90,5.4,6.3,30,0.00,,,0.00,VWS V14.01,2013-04-15 11:27:00,
2013-04-15 07:28:00,69.8,42.4,29.94,SSE,158,5.6,6.5,37,0.00,,,0.00,VWS V14.01,2013-04-15 11:28:00,
2013-04-15 07:29:00,70.0,42.5,29.94,South,180,4.3,5.6,37,0.00,,,0.00,VWS V14.01,2013-04-15 11:29:00,
2013-04-15 07:30:00,70.0,42.5,29.94,SE,135,5.4,5.4,37,0.00,,,0.00,VWS V14.01,2013-04-15 11:30:00,
2013-04-15 07:31:00,70.0,42.5,29.94,ESE,112,4.0,5.6,37,0.00,,,0.00,VWS V14.01,2013-04-15 11:31:00,
2013-04-15 07:32:00,71.6,38.6,29.97,SE,135,6.3,8.5,30,0.00,,,0.00,VWS V14.01,2013-04-15 11:32:00,
2013-04-15 07:33:00,70.0,42.5,29.94,ESE,112,4.0,4.0,37,0.00,,,0.00,VWS V14.01,2013-04-15 11:33:00,
2013-04-15 07:34:00,70.0,42.5,29.94,SSE,158,4.0,4.9,37,0.00,,,0.00,VWS V14.01,2013-04-15 11:34:00,
2013-04-15 07:35:00,70.0,42.5,29.94,SSE,158,6.3,6.5,37,0.00,,,0.00,VWS V14.01,2013-04-15 11:35:00,
2013-04-15 07:36:00,70.2,42.0,29.94,South,180,4.0,7.6,36,0.00,,,0.00,VWS V14.01,2013-04-15 11:36:00,
2013-04-15 07:37:00,71.6,38.6,29.97,South,180,5.6,6.0,30,0.00,,,0.00,VWS V14.01,2013-04-15 11:37:00,
2013-04-15 07:38:00,70.2,42.0,29.94,ESE,112,4.9,6.0,36,0.00,,,0.00,VWS V14.01,2013-04-15 11:38:00,
2013-04-15 07:39:00,70.2,42.0,29.94,SSE,158,5.4,5.4,36,0.00,,,0.00,VWS V14.01,2013-04-15 11:39:00,
2013-04-15 07:40:00,70.3,42.2,29.94,SSE,158,4.7,5.4,36,0.00,,,0.00,VWS V14.01,2013-04-15 11:40:00,
2013-04-15 07:41:00,70.3,42.2,29.94,SE,135,4.3,5.4,36,0.00,,,0.00,VWS V14.01,2013-04-15 11:41:00,
2013-04-15 07:42:00,71.6,40.2,29.94,SSE,158,2.2,4.3,32,0.00,,,0.00,VWS V14.01,2013-04-15 11:42:00,
2013-04-15 07:43:00,70.3,42.2,29.94,SE,135,3.8,7.2,36,0.00,,,0.00,VWS V14.01,2013-04-15 11:43:00,
2013-04-15 07:44:00,70.3,41.4,29.94,South,180,6.5,6.5,35,0.00,,,0.00,VWS V14.01,2013-04-15 11:44:00,
2013-04-15 07:45:00,70.3,41.4,29.94,SE,135,6.0,9.2,35,0.00,,,0.00,VWS V14.01,2013-04-15 11:45:00,
2013-04-15 07:46:00,70.3,41.4,29.94,South,180,4.0,6.5,35,0.00,,,0.00,VWS V14.01,2013-04-15 11:46:00,
2013-04-15 07:47:00,72.0,40.5,29.94,ESE,112,4.0,6.0,32,0.00,,,0.00,VWS V14.01,2013-04-15 11:47:00,
2013-04-15 07:48:00,70.3,41.4,29.94,SSE,158,5.4,7.4,35,0.00,,,0.00,VWS V14.01,2013-04-15 11:48:00,
2013-04-15 07:49:00,70.3,40.7,29.94,ESE,112,5.8,6.0,34,0.00,,,0.00,VWS V14.01,2013-04-15 11:49:00,
2013-04-15 07:50:00,70.3,40.7,29.94,SSE,158,7.6,7.6,34,0.00,,,0.00,VWS V14.01,2013-04-15 11:50:00,
2013-04-15 07:51:00,70.3,39.9,29.94,SSE,158,4.7,8.5,33,0.00,,,0.00,VWS V14.01,2013-04-15 11:51:00,
2013-04-15 07:52:00,72.5,41.0,29.94,SE,135,2.7,4.0,32,0.00,,,0.00,VWS V14.01,2013-04-15 11:52:00,
2013-04-15 07:53:00,70.3,39.9,29.94,SE,135,5.8,6.0,33,0.00,,,0.00,VWS V14.01,2013-04-15 11:53:00,
2013-04-15 07:54:00,70.5,40.8,29.94,ESE,112,6.0,7.6,34,0.00,,,0.00,VWS V14.01,2013-04-15 11:54:00,
2013-04-15 07:55:00,70.5,40.8,29.94,SE,135,6.0,8.5,34,0.00,,,0.00,VWS V14.01,2013-04-15 11:55:00,
2013-04-15 07:56:00,70.5,40.8,29.94,ESE,112,5.4,6.0,34,0.00,,,0.00,VWS V14.01,2013-04-15 11:56:00,
2013-04-15 07:57:00,70.5,40.8,29.94,ESE,112,3.1,6.5,34,0.00,,,0.00,VWS V14.01,2013-04-15 11:57:00,
2013-04-15 07:58:00,72.9,41.3,29.97,East,90,3.6,4.3,32,0.00,,,0.00,VWS V14.01,2013-04-15 11:58:00,
2013-04-15 07:59:00,70.5,40.8,29.94,ESE,112,4.5,7.8,34,0.00,,,0.00,VWS V14.01,2013-04-15 11:59:00,
2013-04-15 08:00:00,70.5,40.8,29.94,SSE,158,6.5,6.5,34,0.00,,,0.00,VWS V14.01,2013-04-15 12:00:00,
2013-04-15 08:01:00,70.5,40.8,29.94,ESE,112,8.1,8.1,34,0.00,,,0.00,VWS V14.01,2013-04-15 12:01:00,
2013-04-15 08:02:00,70.5,40.8,29.94,ESE,112,10.1,14.1,34,0.00,,,0.00,VWS V14.01,2013-04-15 12:02:00,
2013-04-15 08:03:00,73.6,41.1,29.97,ESE,112,3.6,4.9,31,0.00,,,0.00,VWS V14.01,2013-04-15 12:03:00,
2013-04-15 08:04:00,70.7,40.2,29.94,SSE,158,10.5,10.5,33,0.00,,,0.00,VWS V14.01,2013-04-15 12:04:00,
2013-04-15 08:05:00,70.9,40.4,29.94,ESE,112,12.1,12.1,33,0.00,,,0.00,VWS V14.01,2013-04-15 12:05:00,
2013-04-15 08:06:00,70.9,40.4,29.94,SSE,158,6.5,13.2,33,0.00,,,0.00,VWS V14.01,2013-04-15 12:06:00,
2013-04-15 08:07:00,70.9,40.4,29.94,SSE,158,7.8,11.0,33,0.00,,,0.00,VWS V14.01,2013-04-15 12:07:00,
2013-04-15 08:08:00,74.1,41.6,29.97,ESE,112,3.6,4.0,31,0.00,,,0.00,VWS V14.01,2013-04-15 12:08:00,
2013-04-15 08:09:00,71.1,40.5,29.94,SE,135,8.1,9.6,33,0.00,,,0.00,VWS V14.01,2013-04-15 12:09:00,
2013-04-15 08:10:00,71.1,40.5,29.94,ESE,112,12.5,13.2,33,0.00,,,0.00,VWS V14.01,2013-04-15 12:10:00,
2013-04-15 08:11:00,71.1,40.5,29.94,SE,135,10.1,12.5,33,0.00,,,0.00,VWS V14.01,2013-04-15 12:11:00,
2013-04-15 08:12:00,71.1,40.5,29.94,SE,135,10.1,10.1,33,0.00,,,0.00,VWS V14.01,2013-04-15 12:12:00,
2013-04-15 08:13:00,75.0,40.6,29.97,ESE,112,4.0,4.0,29,0.00,,,0.00,VWS V14.01,2013-04-15 12:13:00,
2013-04-15 08:14:00,71.2,39.9,29.94,SE,135,10.5,13.2,32,0.00,,,0.00,VWS V14.01,2013-04-15 12:14:00,
2013-04-15 08:15:00,71.2,39.9,29.94,ESE,112,5.4,10.5,32,0.00,,,0.00,VWS V14.01,2013-04-15 12:15:00,
2013-04-15 08:16:00,71.2,39.9,29.94,SE,135,7.6,7.6,32,0.00,,,0.00,VWS V14.01,2013-04-15 12:16:00,
2013-04-15 08:17:00,71.2,39.9,29.94,SSE,158,7.8,7.8,32,0.00,,,0.00,VWS V14.01,2013-04-15 12:17:00,
2013-04-15 08:18:00,75.7,39.4,29.97,SSE,158,5.4,5.4,27,0.00,,,0.00,VWS V14.01,2013-04-15 12:18:00,
2013-04-15 08:19:00,71.2,39.9,29.94,SSE,158,7.6,7.6,32,0.00,,,0.00,VWS V14.01,2013-04-15 12:19:00,
2013-04-15 08:20:00,71.2,39.9,29.94,ESE,112,11.0,11.0,32,0.00,,,0.00,VWS V14.01,2013-04-15 12:20:00,
2013-04-15 08:21:00,71.2,39.9,29.94,ESE,112,11.0,11.0,32,0.00,,,0.00,VWS V14.01,2013-04-15 12:21:00,
2013-04-15 08:22:00,71.4,40.0,29.94,SE,135,6.0,11.0,32,0.00,,,0.00,VWS V14.01,2013-04-15 12:22:00,
2013-04-15 08:23:00,75.2,38.0,29.97,SE,135,6.3,6.5,26,0.00,,,0.00,VWS V14.01,2013-04-15 12:23:00,
2013-04-15 08:24:00,71.4,40.0,29.94,ESE,112,5.6,10.3,32,0.00,,,0.00,VWS V14.01,2013-04-15 12:24:00,
2013-04-15 08:26:00,71.4,40.0,29.94,ESE,112,8.1,8.1,32,0.00,,,0.00,VWS V14.01,2013-04-15 12:26:00,
2013-04-15 08:27:00,71.4,40.0,29.94,SSE,158,7.8,8.1,32,0.00,,,0.00,VWS V14.01,2013-04-15 12:27:00,
2013-04-15 08:28:00,74.5,39.3,29.97,ESE,112,4.0,6.5,28,0.00,,,0.00,VWS V14.01,2013-04-15 12:28:00,
2013-04-15 08:29:00,71.4,40.0,29.97,SSE,158,7.6,10.3,32,0.00,,,0.00,VWS V14.01,2013-04-15 12:29:00,
2013-04-15 08:30:00,71.4,40.0,29.97,SE,135,5.6,7.6,32,0.00,,,0.00,VWS V14.01,2013-04-15 12:30:00,
2013-04-15 08:31:00,71.4,40.0,29.97,SSE,158,8.1,8.1,32,0.00,,,0.00,VWS V14.01,2013-04-15 12:31:00,
2013-04-15 08:32:00,71.6,40.2,29.97,SE,135,8.1,12.1,32,0.00,,,0.00,VWS V14.01,2013-04-15 12:32:00,
2013-04-15 08:33:00,74.1,39.0,29.97,SSE,158,6.5,7.4,28,0.00,,,0.00,VWS V14.01,2013-04-15 12:33:00,
2013-04-15 08:34:00,71.6,39.4,29.97,South,180,10.5,10.5,31,0.00,,,0.00,VWS V14.01,2013-04-15 12:34:00,
2013-04-15 08:35:00,71.6,40.2,29.97,ESE,112,8.1,10.5,32,0.00,,,0.00,VWS V14.01,2013-04-15 12:35:00,
2013-04-15 08:36:00,71.6,40.2,29.97,ESE,112,8.1,8.1,32,0.00,,,0.00,VWS V14.01,2013-04-15 12:36:00,
2013-04-15 08:37:00,71.6,40.2,29.97,SSE,158,5.8,8.1,32,0.00,,,0.00,VWS V14.01,2013-04-15 12:37:00,
2013-04-15 08:38:00,73.8,41.3,29.97,SE,135,5.6,5.6,31,0.00,,,0.00,VWS V14.01,2013-04-15 12:38:00,
2013-04-15 08:39:00,71.4,40.0,29.97,ESE,112,7.8,7.8,32,0.00,,,0.00,VWS V14.01,2013-04-15 12:39:00,
2013-04-15 08:40:00,71.4,40.0,29.97,SE,135,5.4,7.8,32,0.00,,,0.00,VWS V14.01,2013-04-15 12:40:00,
2013-04-15 08:41:00,71.4,40.0,29.97,ESE,112,5.4,7.4,32,0.00,,,0.00,VWS V14.01,2013-04-15 12:41:00,
2013-04-15 08:43:00,73.8,41.3,29.97,SE,135,4.0,4.5,31,0.00,,,0.00,VWS V14.01,2013-04-15 12:43:00,
2013-04-15 08:44:00,71.4,40.0,29.97,ESE,112,7.8,7.8,32,0.00,,,0.00,VWS V14.01,2013-04-15 12:44:00,
2013-04-15 08:45:00,71.4,40.0,29.97,SE,135,7.4,8.7,32,0.00,,,0.00,VWS V14.01,2013-04-15 12:45:00,
2013-04-15 08:46:00,71.4,40.0,29.97,SE,135,6.3,7.4,32,0.00,,,0.00,VWS V14.01,2013-04-15 12:46:00,
2013-04-15 08:47:00,71.4,40.0,29.97,ESE,112,4.9,6.5,32,0.00,,,0.00,VWS V14.01,2013-04-15 12:47:00,
2013-04-15 08:48:00,73.9,41.4,29.97,ESE,112,3.4,3.4,31,0.00,,,0.00,VWS V14.01,2013-04-15 12:48:00,
2013-04-15 08:49:00,71.4,40.0,29.97,SE,135,6.3,6.5,32,0.00,,,0.00,VWS V14.01,2013-04-15 12:49:00,
2013-04-15 08:50:00,71.4,40.0,29.97,ESE,112,5.6,7.4,32,0.00,,,0.00,VWS V14.01,2013-04-15 12:50:00,
2013-04-15 08:51:00,71.4,40.0,29.97,SSE,158,7.4,7.4,32,0.00,,,0.00,VWS V14.01,2013-04-15 12:51:00,
2013-04-15 08:52:00,71.4,40.0,29.97,SSE,158,7.4,7.4,32,0.00,,,0.00,VWS V14.01,2013-04-15 12:52:00,
2013-04-15 08:53:00,74.3,41.7,29.97,ESE,112,4.3,6.0,31,0.00,,,0.00,VWS V14.01,2013-04-15 12:53:00,
2013-04-15 08:54:00,71.4,40.0,29.97,ESE,112,5.6,7.6,32,0.00,,,0.00,VWS V14.01,2013-04-15 12:54:00,
2013-04-15 08:55:00,71.4,40.0,29.97,SSW,202,4.0,7.4,32,0.00,,,0.00,VWS V14.01,2013-04-15 12:55:00,
2013-04-15 08:56:00,71.4,40.0,29.97,ESE,112,4.7,6.7,32,0.00,,,0.00,VWS V14.01,2013-04-15 12:56:00,
2013-04-15 08:57:00,71.4,40.0,29.97,SE,135,8.7,8.7,32,0.00,,,0.00,VWS V14.01,2013-04-15 12:57:00,
2013-04-15 08:58:00,74.5,41.9,29.97,SSE,158,5.6,7.8,31,0.00,,,0.00,VWS V14.01,2013-04-15 12:58:00,
2013-04-15 08:59:00,71.4,39.2,29.97,ESE,112,8.5,8.5,31,0.00,,,0.00,VWS V14.01,2013-04-15 12:59:00,
2013-04-15 09:00:00,71.4,39.2,29.97,SSE,158,5.6,8.5,31,0.00,,,0.00,VWS V14.01,2013-04-15 13:00:00,
2013-04-15 09:01:00,71.6,38.6,29.97,SSW,202,7.4,7.4,30,0.00,,,0.00,VWS V14.01,2013-04-15 13:01:00,
2013-04-15 09:02:00,71.6,38.6,29.97,SSE,158,5.4,7.4,30,0.00,,,0.00,VWS V14.01,2013-04-15 13:02:00,
2013-04-15 09:03:00,75.0,41.5,29.97,SSE,158,5.6,5.6,30,0.00,,,0.00,VWS V14.01,2013-04-15 13:03:00,
2013-04-15 09:04:00,71.6,38.6,29.97,SSE,158,8.7,8.7,30,0.00,,,0.00,VWS V14.01,2013-04-15 13:04:00,
2013-04-15 09:05:00,71.6,38.6,29.97,South,180,8.5,9.8,30,0.00,,,0.00,VWS V14.01,2013-04-15 13:05:00,
2013-04-15 09:06:00,71.6,38.6,29.97,ESE,112,5.4,8.5,30,0.00,,,0.00,VWS V14.01,2013-04-15 13:06:00,
2013-04-15 09:07:00,71.6,37.7,29.97,ESE,112,7.4,10.3,29,0.00,,,0.00,VWS V14.01,2013-04-15 13:07:00,
2013-04-15 09:08:00,75.2,40.8,29.97,ESE,112,6.5,8.1,29,0.00,,,0.00,VWS V14.01,2013-04-15 13:08:00,
2013-04-15 09:09:00,71.6,37.7,29.97,ESE,112,7.8,7.8,29,0.00,,,0.00,VWS V14.01,2013-04-15 13:09:00,
2013-04-15 09:10:00,71.6,38.6,29.97,SSE,158,6.0,8.5,30,0.00,,,0.00,VWS V14.01,2013-04-15 13:10:00,
2013-04-15 09:11:00,71.6,38.6,29.97,ESE,112,4.9,6.0,30,0.00,,,0.00,VWS V14.01,2013-04-15 13:11:00,
2013-04-15 09:12:00,71.6,38.6,29.97,ESE,112,2.9,4.9,30,0.00,,,0.00,VWS V14.01,2013-04-15 13:12:00,
2013-04-15 09:13:00,75.6,40.2,29.97,ESE,112,5.8,10.3,28,0.00,,,0.00,VWS V14.01,2013-04-15 13:13:00,
2013-04-15 09:14:00,71.6,39.4,29.94,East,90,5.6,5.6,31,0.00,,,0.00,VWS V14.01,2013-04-15 13:14:00,
2013-04-15 09:15:00,71.6,40.2,29.94,SE,135,3.8,5.6,32,0.00,,,0.00,VWS V14.01,2013-04-15 13:15:00,
2013-04-15 09:16:00,71.6,40.2,29.94,ESE,112,2.9,4.3,32,0.00,,,0.00,VWS V14.01,2013-04-15 13:16:00,
2013-04-15 09:17:00,71.6,40.2,29.94,ESE,112,3.6,3.6,32,0.00,,,0.00,VWS V14.01,2013-04-15 13:17:00,
2013-04-15 09:18:00,76.5,39.1,29.97,SSE,158,3.4,4.3,26,0.00,,,0.00,VWS V14.01,2013-04-15 13:18:00,
2013-04-15 09:19:00,71.8,40.4,29.94,SE,135,5.4,6.5,32,0.00,,,0.00,VWS V14.01,2013-04-15 13:19:00,
2013-04-15 09:20:00,72.0,40.5,29.94,SE,135,4.9,5.4,32,0.00,,,0.00,VWS V14.01,2013-04-15 13:20:00,
2013-04-15 09:21:00,72.0,40.5,29.94,ESE,112,4.0,6.0,32,0.00,,,0.00,VWS V14.01,2013-04-15 13:21:00,
2013-04-15 09:22:00,72.1,40.7,29.94,SSE,158,1.6,4.0,32,0.00,,,0.00,VWS V14.01,2013-04-15 13:22:00,
2013-04-15 09:23:00,76.8,38.4,29.97,ESE,112,6.3,6.3,25,0.00,,,0.00,VWS V14.01,2013-04-15 13:23:00,
2013-04-15 09:24:00,72.1,40.7,29.94,ESE,112,2.9,2.9,32,0.00,,,0.00,VWS V14.01,2013-04-15 13:24:00,
2013-04-15 09:25:00,72.5,41.0,29.94,SE,135,4.0,4.0,32,0.00,,,0.00,VWS V14.01,2013-04-15 13:25:00,
2013-04-15 09:26:00,72.7,41.2,29.94,ESE,112,2.9,4.0,32,0.00,,,0.00,VWS V14.01,2013-04-15 13:26:00,
2013-04-15 09:27:00,72.7,41.2,29.94,ESE,112,4.0,4.0,32,0.00,,,0.00,VWS V14.01,2013-04-15 13:27:00,
2013-04-15 09:28:00,76.6,36.1,30.00,ESE,112,6.0,7.6,23,0.00,,,0.00,VWS V14.01,2013-04-15 13:28:00,
2013-04-15 09:29:00,72.9,41.3,29.97,ESE,112,4.3,4.3,32,0.00,,,0.00,VWS V14.01,2013-04-15 13:29:00,
2013-04-15 09:30:00,72.9,41.3,29.97,SE,135,4.3,4.3,32,0.00,,,0.00,VWS V14.01,2013-04-15 13:30:00,
2013-04-15 09:31:00,72.9,41.3,29.97,East,90,3.6,4.3,32,0.00,,,0.00,VWS V14.01,2013-04-15 13:31:00,
2013-04-15 09:32:00,73.0,41.5,29.97,ESE,112,4.9,4.9,32,0.00,,,0.00,VWS V14.01,2013-04-15 13:32:00,
2013-04-15 09:33:00,76.6,37.2,30.00,ESE,112,6.3,6.3,24,0.00,,,0.00,VWS V14.01,2013-04-15 13:33:00,
2013-04-15 09:34:00,73.2,41.6,29.97,East,90,4.0,5.4,32,0.00,,,0.00,VWS V14.01,2013-04-15 13:34:00,
2013-04-15 09:35:00,73.2,41.6,29.97,East,90,4.0,4.0,32,0.00,,,0.00,VWS V14.01,2013-04-15 13:35:00,
2013-04-15 09:36:00,73.6,41.1,29.97,SE,135,4.0,4.9,31,0.00,,,0.00,VWS V14.01,2013-04-15 13:36:00,
2013-04-15 09:37:00,73.6,41.1,29.97,SE,135,5.8,5.8,31,0.00,,,0.00,VWS V14.01,2013-04-15 13:37:00,
2013-04-15 09:38:00,76.6,37.2,30.00,SE,135,4.9,4.9,24,0.00,,,0.00,VWS V14.01,2013-04-15 13:38:00,
2013-04-15 09:39:00,73.9,41.4,29.97,SSE,158,5.8,6.5,31,0.00,,,0.00,VWS V14.01,2013-04-15 13:39:00,
2013-04-15 09:40:00,74.1,41.6,29.97,ESE,112,4.0,5.8,31,0.00,,,0.00,VWS V14.01,2013-04-15 13:40:00,
2013-04-15 09:41:00,74.1,41.6,29.97,ESE,112,3.6,4.0,31,0.00,,,0.00,VWS V14.01,2013-04-15 13:41:00,
2013-04-15 09:42:00,74.5,41.9,29.97,SE,135,5.4,5.4,31,0.00,,,0.00,VWS V14.01,2013-04-15 13:42:00,
2013-04-15 09:43:00,76.6,38.2,30.00,ESE,112,5.8,5.8,25,0.00,,,0.00,VWS V14.01,2013-04-15 13:43:00,
2013-04-15 09:44:00,74.8,41.4,29.97,ESE,112,4.9,5.8,30,0.00,,,0.00,VWS V14.01,2013-04-15 13:44:00,
2013-04-15 09:45:00,75.0,40.6,29.97,ESE,112,4.0,4.9,29,0.00,,,0.00,VWS V14.01,2013-04-15 13:45:00,
2013-04-15 09:46:00,75.0,40.6,29.97,ESE,112,4.0,4.0,29,0.00,,,0.00,VWS V14.01,2013-04-15 13:46:00,
2013-04-15 09:47:00,75.2,40.8,29.97,ESE,112,3.6,4.0,29,0.00,,,0.00,VWS V14.01,2013-04-15 13:47:00,
2013-04-15 09:48:00,77.4,37.8,30.00,South,180,4.7,6.3,24,0.00,,,0.00,VWS V14.01,2013-04-15 13:48:00,
2013-04-15 09:49:00,75.7,39.4,29.97,ESE,112,6.5,6.5,27,0.00,,,0.00,VWS V14.01,2013-04-15 13:49:00,
2013-04-15 09:50:00,75.7,39.4,29.97,SSE,158,3.8,6.5,27,0.00,,,0.00,VWS V14.01,2013-04-15 13:50:00,
2013-04-15 09:51:00,75.7,39.4,29.97,SSE,158,3.8,3.8,27,0.00,,,0.00,VWS V14.01,2013-04-15 13:51:00,
2013-04-15 09:52:00,75.7,38.5,29.97,SE,135,4.3,5.4,26,0.00,,,0.00,VWS V14.01,2013-04-15 13:52:00,
2013-04-15 09:53:00,75.7,37.5,29.97,ESE,112,5.8,6.5,25,0.00,,,0.00,VWS V14.01,2013-04-15 13:53:00,
2013-04-15 09:54:00,77.9,37.2,30.00,East,90,5.6,6.0,23,0.00,,,0.00,VWS V14.01,2013-04-15 13:54:00,
2013-04-15 09:55:00,75.2,38.0,29.97,SSE,158,5.4,6.0,26,0.00,,,0.00,VWS V14.01,2013-04-15 13:55:00,
2013-04-15 09:56:00,75.2,38.0,29.97,SE,135,6.5,6.5,26,0.00,,,0.00,VWS V14.01,2013-04-15 13:56:00,
2013-04-15 09:58:00,75.2,38.0,29.97,ESE,112,6.3,6.5,26,0.00,,,0.00,VWS V14.01,2013-04-15 13:58:00,
2013-04-15 09:59:00,79.0,36.9,30.00,ESE,112,3.6,6.5,22,0.00,,,0.00,VWS V14.01,2013-04-15 13:59:00,
2013-04-15 10:00:00,74.7,38.5,29.97,SE,135,3.8,4.0,27,0.00,,,0.00,VWS V14.01,2013-04-15 14:00:00,
2013-04-15 10:01:00,74.7,38.5,29.97,ESE,112,6.5,7.6,27,0.00,,,0.00,VWS V14.01,2013-04-15 14:01:00,
2013-04-15 10:02:00,74.5,39.3,29.97,ESE,112,5.6,6.5,28,0.00,,,0.00,VWS V14.01,2013-04-15 14:02:00,
2013-04-15 10:03:00,74.3,39.1,29.97,ESE,112,5.6,5.6,28,0.00,,,0.00,VWS V14.01,2013-04-15 14:03:00,
2013-04-15 10:04:00,80.2,36.8,30.00,East,90,2.5,4.9,21,0.00,,,0.00,VWS V14.01,2013-04-15 14:04:00,
2013-04-15 10:05:00,74.1,39.0,29.97,ESE,112,7.4,7.4,28,0.00,,,0.00,VWS V14.01,2013-04-15 14:05:00,
2013-04-15 10:06:00,73.9,39.7,29.97,ESE,112,6.7,7.4,29,0.00,,,0.00,VWS V14.01,2013-04-15 14:06:00,
2013-04-15 10:07:00,73.9,39.7,29.97,SE,135,2.9,6.7,29,0.00,,,0.00,VWS V14.01,2013-04-15 14:07:00,
2013-04-15 10:08:00,73.9,39.7,29.97,ESE,112,7.4,7.4,29,0.00,,,0.00,VWS V14.01,2013-04-15 14:08:00,
2013-04-15 10:09:00,81.1,36.3,30.00,ENE,68,3.4,3.4,20,0.00,,,0.00,VWS V14.01,2013-04-15 14:09:00,
2013-04-15 10:10:00,73.8,40.4,29.97,SE,135,4.7,4.7,30,0.00,,,0.00,VWS V14.01,2013-04-15 14:10:00,
2013-04-15 10:11:00,73.8,41.3,29.97,ESE,112,4.0,5.8,31,0.00,,,0.00,VWS V14.01,2013-04-15 14:11:00,
2013-04-15 10:12:00,73.8,41.3,29.97,East,90,3.4,5.6,31,0.00,,,0.00,VWS V14.01,2013-04-15 14:12:00,
2013-04-15 10:13:00,73.8,41.3,29.97,ESE,112,3.4,4.3,31,0.00,,,0.00,VWS V14.01,2013-04-15 14:13:00,
2013-04-15 10:14:00,82.8,36.3,30.00,ESE,112,3.8,4.5,19,0.00,,,0.00,VWS V14.01,2013-04-15 14:14:00,
2013-04-15 10:15:00,73.8,41.3,29.97,East,90,4.0,4.0,31,0.00,,,0.00,VWS V14.01,2013-04-15 14:15:00,
2013-04-15 10:16:00,73.8,41.3,29.97,SE,135,4.5,4.5,31,0.00,,,0.00,VWS V14.01,2013-04-15 14:16:00,
2013-04-15 10:17:00,73.8,41.3,29.97,SE,135,4.0,4.5,31,0.00,,,0.00,VWS V14.01,2013-04-15 14:17:00,
2013-04-15 10:18:00,73.8,41.3,29.97,SSE,158,3.8,6.3,31,0.00,,,0.00,VWS V14.01,2013-04-15 14:18:00,
2013-04-15 10:19:00,84.4,36.3,30.00,NNE,22,4.0,4.7,18,0.00,,,0.00,VWS V14.01,2013-04-15 14:19:00,
2013-04-15 10:20:00,73.9,41.4,29.97,SE,135,4.9,4.9,31,0.00,,,0.00,VWS V14.01,2013-04-15 14:20:00,
2013-04-15 10:21:00,73.9,41.4,29.97,ESE,112,3.4,5.8,31,0.00,,,0.00,VWS V14.01,2013-04-15 14:21:00,
2013-04-15 10:22:00,73.9,41.4,29.97,ESE,112,3.6,4.3,31,0.00,,,0.00,VWS V14.01,2013-04-15 14:22:00,
2013-04-15 10:23:00,73.9,41.4,29.97,ESE,112,2.5,4.0,31,0.00,,,0.00,VWS V14.01,2013-04-15 14:23:00,
2013-04-15 10:24:00,85.5,29.1,30.03,East,90,3.8,4.9,13,0.00,,,0.00,VWS V14.01,2013-04-15 14:24:00,
2013-04-15 10:25:00,74.1,41.6,29.97,SSE,158,6.0,6.0,31,0.00,,,0.00,VWS V14.01,2013-04-15 14:25:00,
2013-04-15 10:26:00,74.3,41.7,29.97,SSE,158,6.0,6.0,31,0.00,,,0.00,VWS V14.01,2013-04-15 14:26:00,
2013-04-15 10:27:00,74.3,41.7,29.97,SE,135,6.5,6.5,31,0.00,,,0.00,VWS V14.01,2013-04-15 14:27:00,
2013-04-15 10:28:00,74.3,41.7,29.97,SSE,158,7.4,8.5,31,0.00,,,0.00,VWS V14.01,2013-04-15 14:28:00,
2013-04-15 10:29:00,84.9,28.6,30.03,ESE,112,4.9,4.9,13,0.00,,,0.00,VWS V14.01,2013-04-15 14:29:00,
2013-04-15 10:30:00,74.5,41.9,29.97,ESE,112,4.0,7.2,31,0.00,,,0.00,VWS V14.01,2013-04-15 14:30:00,
2013-04-15 10:31:00,74.5,41.9,29.97,ESE,112,7.8,7.8,31,0.00,,,0.00,VWS V14.01,2013-04-15 14:31:00,
2013-04-15 10:32:00,74.5,41.9,29.97,ESE,112,4.3,7.8,31,0.00,,,0.00,VWS V14.01,2013-04-15 14:32:00,
2013-04-15 10:33:00,74.5,41.9,29.97,ESE,112,3.8,6.3,31,0.00,,,0.00,VWS V14.01,2013-04-15 14:33:00,
2013-04-15 10:34:00,85.6,29.2,30.03,ENE,68,2.5,2.5,13,0.00,,,0.00,VWS V14.01,2013-04-15 14:34:00,
2013-04-15 10:35:00,74.8,42.2,29.97,ESE,112,5.8,6.3,31,0.00,,,0.00,VWS V14.01,2013-04-15 14:35:00,
2013-04-15 10:36:00,74.8,42.2,29.97,SE,135,4.0,6.5,31,0.00,,,0.00,VWS V14.01,2013-04-15 14:36:00,
2013-04-15 10:37:00,75.0,41.5,29.97,SSW,202,5.8,5.8,30,0.00,,,0.00,VWS V14.01,2013-04-15 14:37:00,
2013-04-15 10:38:00,75.0,41.5,29.97,ESE,112,4.3,5.8,30,0.00,,,0.00,VWS V14.01,2013-04-15 14:38:00,
2013-04-15 10:39:00,85.6,29.2,30.03,NNE,22,3.8,4.0,13,0.00,,,0.00,VWS V14.01,2013-04-15 14:39:00,
2013-04-15 10:40:00,75.0,40.6,29.97,SE,135,6.0,8.5,29,0.00,,,0.00,VWS V14.01,2013-04-15 14:40:00,
2013-04-15 10:41:00,75.2,40.8,29.97,SE,135,6.0,6.0,29,0.00,,,0.00,VWS V14.01,2013-04-15 14:41:00,
2013-04-15 10:42:00,75.2,40.8,29.97,East,90,4.9,8.1,29,0.00,,,0.00,VWS V14.01,2013-04-15 14:42:00,
2013-04-15 10:43:00,75.2,40.8,29.97,ESE,112,4.3,5.6,29,0.00,,,0.00,VWS V14.01,2013-04-15 14:43:00,
2013-04-15 10:44:00,86.4,29.8,30.03,ENE,68,2.9,2.9,13,0.00,,,0.00,VWS V14.01,2013-04-15 14:44:00,
2013-04-15 10:45:00,75.4,41.0,29.97,ESE,112,4.3,4.3,29,0.00,,,0.00,VWS V14.01,2013-04-15 14:45:00,
2013-04-15 10:46:00,75.4,41.0,29.97,SE,135,10.3,10.3,29,0.00,,,0.00,VWS V14.01,2013-04-15 14:46:00,
2013-04-15 10:47:00,75.6,40.2,29.97,East,90,5.4,10.3,28,0.00,,,0.00,VWS V14.01,2013-04-15 14:47:00,
2013-04-15 10:48:00,75.7,39.4,29.97,SSE,158,3.6,7.6,27,0.00,,,0.00,VWS V14.01,2013-04-15 14:48:00,
2013-04-15 10:49:00,86.4,25.7,30.03,ESE,112,2.0,2.9,11,0.00,,,0.00,VWS V14.01,2013-04-15 14:49:00,
2013-04-15 10:50:00,75.9,38.6,29.97,ESE,112,5.6,6.5,26,0.00,,,0.00,VWS V14.01,2013-04-15 14:50:00,
2013-04-15 10:51:00,76.1,38.8,29.97,SSE,158,3.8,7.2,26,0.00,,,0.00,VWS V14.01,2013-04-15 14:51:00,
2013-04-15 10:52:00,76.5,39.1,29.97,SSE,158,3.4,4.3,26,0.00,,,0.00,VWS V14.01,2013-04-15 14:52:00,
2013-04-15 10:53:00,76.5,39.1,29.97,SE,135,7.6,7.6,26,0.00,,,0.00,VWS V14.01,2013-04-15 14:53:00,
2013-04-15 10:54:00,86.4,25.7,30.03,NW,315,3.4,3.6,11,0.00,,,0.00,VWS V14.01,2013-04-15 14:54:00,
2013-04-15 10:55:00,76.6,38.2,29.97,SSE,158,4.3,6.7,25,0.00,,,0.00,VWS V14.01,2013-04-15 14:55:00,
2013-04-15 10:56:00,76.8,38.4,29.97,SSE,158,3.6,4.9,25,0.00,,,0.00,VWS V14.01,2013-04-15 14:56:00,
2013-04-15 10:57:00,76.8,38.4,29.97,ESE,112,6.0,6.3,25,0.00,,,0.00,VWS V14.01,2013-04-15 14:57:00,
2013-04-15 10:58:00,76.8,38.4,30.00,SSE,158,6.5,6.5,25,0.00,,,0.00,VWS V14.01,2013-04-15 14:58:00,
2013-04-15 10:59:00,87.3,26.4,30.03,North,0,1.3,1.3,11,0.00,,,0.00,VWS V14.01,2013-04-15 14:59:00,
2013-04-15 11:00:00,76.6,37.2,30.00,ESE,112,4.0,8.7,24,0.00,,,0.00,VWS V14.01,2013-04-15 15:00:00,
2013-04-15 11:02:00,76.6,36.1,30.00,ESE,112,5.8,7.6,23,0.00,,,0.00,VWS V14.01,2013-04-15 15:02:00,
2013-04-15 11:03:00,76.6,37.2,30.00,South,180,6.5,6.5,24,0.00,,,0.00,VWS V14.01,2013-04-15 15:03:00,
2013-04-15 11:04:00,88.7,25.2,30.03,ENE,68,2.5,2.5,10,0.00,,,0.00,VWS V14.01,2013-04-15 15:04:00,
2013-04-15 11:05:00,76.5,36.0,30.00,SE,135,4.9,7.2,23,0.00,,,0.00,VWS V14.01,2013-04-15 15:05:00,
2013-04-15 11:06:00,76.5,37.0,30.00,SSE,158,5.4,6.0,24,0.00,,,0.00,VWS V14.01,2013-04-15 15:06:00,
2013-04-15 11:07:00,76.6,37.2,30.00,SE,135,6.3,6.3,24,0.00,,,0.00,VWS V14.01,2013-04-15 15:07:00,
2013-04-15 11:08:00,76.6,37.2,30.00,SE,135,4.9,6.9,24,0.00,,,0.00,VWS V14.01,2013-04-15 15:08:00,
2013-04-15 11:09:00,88.0,24.7,30.03,East,90,3.4,3.4,10,0.00,,,0.00,VWS V14.01,2013-04-15 15:09:00,
2013-04-15 11:10:00,76.6,37.2,30.00,SE,135,3.8,6.5,24,0.00,,,0.00,VWS V14.01,2013-04-15 15:10:00,
2013-04-15 11:11:00,76.6,37.2,30.00,SE,135,3.8,5.8,24,0.00,,,0.00,VWS V14.01,2013-04-15 15:11:00,
2013-04-15 11:12:00,76.6,37.2,30.00,SE,135,4.9,4.9,24,0.00,,,0.00,VWS V14.01,2013-04-15 15:12:00,
2013-04-15 11:13:00,76.6,37.2,30.00,SSE,158,4.7,4.9,24,0.00,,,0.00,VWS V14.01,2013-04-15 15:13:00,
2013-04-15 11:14:00,87.8,24.5,30.03,NNE,22,3.8,4.0,10,0.00,,,0.00,VWS V14.01,2013-04-15 15:14:00,
2013-04-15 11:15:00,76.6,38.2,30.00,ESE,112,3.8,5.6,25,0.00,,,0.00,VWS V14.01,2013-04-15 15:15:00,
2013-04-15 11:16:00,76.6,38.2,30.00,ESE,112,5.4,5.6,25,0.00,,,0.00,VWS V14.01,2013-04-15 15:16:00,
2013-04-15 11:17:00,76.6,38.2,30.00,East,90,5.4,5.8,25,0.00,,,0.00,VWS V14.01,2013-04-15 15:17:00,
2013-04-15 11:18:00,76.6,38.2,30.00,ESE,112,5.6,5.6,25,0.00,,,0.00,VWS V14.01,2013-04-15 15:18:00,
2013-04-15 11:19:00,88.2,24.8,30.03,ESE,112,1.1,2.0,10,0.00,,,0.00,VWS V14.01,2013-04-15 15:19:00,
2013-04-15 11:20:00,76.8,37.3,30.00,SSE,158,3.8,3.8,24,0.00,,,0.00,VWS V14.01,2013-04-15 15:20:00,
2013-04-15 11:21:00,77.2,37.6,30.00,ESE,112,5.6,6.0,24,0.00,,,0.00,VWS V14.01,2013-04-15 15:21:00,
2013-04-15 11:22:00,77.4,37.8,30.00,South,180,4.7,6.3,24,0.00,,,0.00,VWS V14.01,2013-04-15 15:22:00,
2013-04-15 11:23:00,77.4,37.8,30.00,SE,135,6.3,6.5,24,0.00,,,0.00,VWS V14.01,2013-04-15 15:23:00,
2013-04-15 11:24:00,77.4,37.8,30.00,ENE,68,4.5,6.3,24,0.00,,,0.00,VWS V14.01,2013-04-15 15:24:00,
2013-04-15 11:25:00,89.4,25.8,30.03,NNW,338,1.6,2.0,10,0.00,,,0.00,VWS V14.01,2013-04-15 15:25:00,
2013-04-15 11:26:00,77.9,37.2,30.00,ESE,112,6.0,6.0,23,0.00,,,0.00,VWS V14.01,2013-04-15 15:26:00,
2013-04-15 11:27:00,77.9,37.2,30.00,East,90,3.8,6.0,23,0.00,,,0.00,VWS V14.01,2013-04-15 15:27:00,
2013-04-15 11:28:00,78.3,37.5,30.00,East,90,4.0,4.3,23,0.00,,,0.00,VWS V14.01,2013-04-15 15:28:00,
2013-04-15 11:29:00,78.3,37.5,30.00,East,90,4.0,4.0,23,0.00,,,0.00,VWS V14.01,2013-04-15 15:29:00,
2013-04-15 11:30:00,89.4,25.8,30.03,NW,315,2.7,2.7,10,0.00,,,0.00,VWS V14.01,2013-04-15 15:30:00,
2013-04-15 11:31:00,79.0,36.9,30.00,ESE,112,6.5,8.7,22,0.00,,,0.00,VWS V14.01,2013-04-15 15:31:00,
2013-04-15 11:32:00,79.0,36.9,30.00,ESE,112,3.6,6.5,22,0.00,,,0.00,VWS V14.01,2013-04-15 15:32:00,
2013-04-15 11:33:00,79.0,36.9,30.00,SSE,158,2.7,3.8,22,0.00,,,0.00,VWS V14.01,2013-04-15 15:33:00,
2013-04-15 11:34:00,79.7,36.3,30.00,SE,135,4.3,7.2,21,0.00,,,0.00,VWS V14.01,2013-04-15 15:34:00,
2013-04-15 11:35:00,89.4,25.8,30.03,NNW,338,1.1,2.0,10,0.00,,,0.00,VWS V14.01,2013-04-15 15:35:00,
2013-04-15 11:36:00,80.1,36.7,30.00,SE,135,4.9,6.3,21,0.00,,,0.00,VWS V14.01,2013-04-15 15:36:00,
2013-04-15 11:37:00,80.2,36.8,30.00,East,90,2.5,4.9,21,0.00,,,0.00,VWS V14.01,2013-04-15 15:37:00,
2013-04-15 11:38:00,80.2,36.8,30.00,East,90,4.9,4.9,21,0.00,,,0.00,VWS V14.01,2013-04-15 15:38:00,
2013-04-15 11:39:00,80.6,35.9,30.00,ESE,112,5.6,7.4,20,0.00,,,0.00,VWS V14.01,2013-04-15 15:39:00,
2013-04-15 11:40:00,90.1,26.3,30.03,SE,135,2.0,2.9,10,0.00,,,0.00,VWS V14.01,2013-04-15 15:40:00,
2013-04-15 11:41:00,81.0,36.2,30.00,East,90,2.9,6.0,20,0.00,,,0.00,VWS V14.01,2013-04-15 15:41:00,
2013-04-15 11:42:00,81.1,36.3,30.00,East,90,2.9,4.9,20,0.00,,,0.00,VWS V14.01,2013-04-15 15:42:00,
2013-04-15 11:43:00,81.5,36.6,30.00,ENE,68,5.4,5.8,20,0.00,,,0.00,VWS V14.01,2013-04-15 15:43:00,
2013-04-15 11:44:00,81.9,36.9,30.00,ENE,68,4.9,5.4,20,0.00,,,0.00,VWS V14.01,2013-04-15 15:44:00,
2013-04-15 11:45:00,91.4,24.7,30.03,NNW,338,3.1,3.1,9,0.00,,,0.00,VWS V14.01,2013-04-15 15:45:00,
2013-04-15 11:46:00,82.8,36.3,30.00,ESE,112,2.9,3.4,19,0.00,,,0.00,VWS V14.01,2013-04-15 15:46:00,
2013-04-15 11:47:00,82.8,36.3,30.00,ESE,112,4.7,4.7,19,0.00,,,0.00,VWS V14.01,2013-04-15 15:47:00,
2013-04-15 11:48:00,82.8,36.3,30.00,ESE,112,4.7,4.7,19,0.00,,,0.00,VWS V14.01,2013-04-15 15:48:00,
2013-04-15 11:49:00,83.5,36.9,30.00,East,90,2.2,4.7,19,0.00,,,0.00,VWS V14.01,2013-04-15 15:49:00,
2013-04-15 11:50:00,91.9,25.1,30.03,NNW,338,1.1,2.0,9,0.00,,,0.00,VWS V14.01,2013-04-15 15:50:00,
2013-04-15 11:51:00,84.0,37.4,30.00,ENE,68,3.1,3.1,19,0.00,,,0.00,VWS V14.01,2013-04-15 15:51:00,
2013-04-15 11:52:00,84.4,36.3,30.00,NNE,22,4.7,6.0,18,0.00,,,0.00,VWS V14.01,2013-04-15 15:52:00,
2013-04-15 11:53:00,84.6,36.4,30.00,ENE,68,5.8,5.8,18,0.00,,,0.00,VWS V14.01,2013-04-15 15:53:00,
2013-04-15 11:54:00,84.9,33.8,30.00,NNE,22,4.9,5.8,16,0.00,,,0.00,VWS V14.01,2013-04-15 15:54:00,
2013-04-15 11:55:00,92.5,25.5,30.03,NNW,338,0.9,1.3,9,0.00,,,0.00,VWS V14.01,2013-04-15 15:55:00,
2013-04-15 11:56:00,84.9,33.8,30.00,ENE,68,5.4,6.0,16,0.00,,,0.00,VWS V14.01,2013-04-15 15:56:00,
2013-04-15 11:57:00,85.5,29.1,30.00,ESE,112,2.9,5.4,13,0.00,,,0.00,VWS V14.01,2013-04-15 15:57:00,
2013-04-15 11:58:00,85.5,29.1,30.03,East,90,2.9,4.9,13,0.00,,,0.00,VWS V14.01,2013-04-15 15:58:00,
2013-04-15 11:59:00,85.3,28.9,30.03,ENE,68,4.7,6.5,13,0.00,,,0.00,VWS V14.01,2013-04-15 15:59:00,
2013-04-15 12:00:00,91.9,25.1,30.03,SW,225,1.6,3.6,9,0.00,,,0.00,VWS V14.01,2013-04-15 16:00:00,
2013-04-15 12:01:00,84.9,28.6,30.03,North,0,4.0,4.0,13,0.00,,,0.00,VWS V14.01,2013-04-15 16:01:00,
2013-04-15 12:03:00,84.9,28.6,30.03,ENE,68,6.0,6.0,13,0.00,,,0.00,VWS V14.01,2013-04-15 16:03:00,
2013-04-15 12:04:00,85.3,28.9,30.03,ENE,68,3.8,6.0,13,0.00,,,0.00,VWS V14.01,2013-04-15 16:04:00,
2013-04-15 12:05:00,91.8,25.0,30.03,SE,135,4.9,6.0,9,0.00,,,0.00,VWS V14.01,2013-04-15 16:05:00,
2013-04-15 12:06:00,85.3,28.9,30.03,ESE,112,2.0,3.4,13,0.00,,,0.00,VWS V14.01,2013-04-15 16:06:00,
2013-04-15 12:07:00,85.3,28.9,30.03,ESE,112,2.0,2.0,13,0.00,,,0.00,VWS V14.01,2013-04-15 16:07:00,
2013-04-15 12:08:00,85.6,29.2,30.03,NNE,22,2.7,2.7,13,0.00,,,0.00,VWS V14.01,2013-04-15 16:08:00,
2013-04-15 12:09:00,85.5,29.1,30.03,NE,45,2.7,2.7,13,0.00,,,0.00,VWS V14.01,2013-04-15 16:09:00,
2013-04-15 12:10:00,91.6,24.8,30.03,SW,225,2.9,2.9,9,0.00,,,0.00,VWS V14.01,2013-04-15 16:10:00,
2013-04-15 12:11:00,85.6,29.2,30.03,ENE,68,5.4,6.0,13,0.00,,,0.00,VWS V14.01,2013-04-15 16:11:00,
2013-04-15 12:12:00,85.6,29.2,30.03,ENE,68,3.8,5.4,13,0.00,,,0.00,VWS V14.01,2013-04-15 16:12:00,
2013-04-15 12:13:00,85.6,29.2,30.03,NNE,22,1.6,4.0,13,0.00,,,0.00,VWS V14.01,2013-04-15 16:13:00,
2013-04-15 12:14:00,85.6,29.2,30.03,ENE,68,1.3,2.5,13,0.00,,,0.00,VWS V14.01,2013-04-15 16:14:00,
2013-04-15 12:15:00,91.4,24.7,30.03,SE,135,5.4,5.4,9,0.00,,,0.00,VWS V14.01,2013-04-15 16:15:00,
2013-04-15 12:16:00,86.0,29.5,30.03,NNE,22,1.3,2.5,13,0.00,,,0.00,VWS V14.01,2013-04-15 16:16:00,
2013-04-15 12:17:00,86.2,29.6,30.03,ENE,68,2.0,2.5,13,0.00,,,0.00,VWS V14.01,2013-04-15 16:17:00,
2013-04-15 12:18:00,86.4,29.8,30.03,ENE,68,2.9,2.9,13,0.00,,,0.00,VWS V14.01,2013-04-15 16:18:00,
2013-04-15 12:19:00,86.4,29.8,30.03,ENE,68,2.9,4.3,13,0.00,,,0.00,VWS V14.01,2013-04-15 16:19:00,
2013-04-15 12:20:00,91.2,27.1,30.03,SSE,158,4.0,4.0,10,0.00,,,0.00,VWS V14.01,2013-04-15 16:20:00,
2013-04-15 12:21:00,86.4,25.7,30.03,ESE,112,2.9,3.6,11,0.00,,,0.00,VWS V14.01,2013-04-15 16:21:00,
2013-04-15 12:22:00,86.4,25.7,30.03,ESE,112,3.4,3.4,11,0.00,,,0.00,VWS V14.01,2013-04-15 16:22:00,
2013-04-15 12:23:00,86.4,25.7,30.03,ESE,112,3.4,3.4,11,0.00,,,0.00,VWS V14.01,2013-04-15 16:23:00,
2013-04-15 12:24:00,86.4,25.7,30.03,ENE,68,3.1,3.4,11,0.00,,,0.00,VWS V14.01,2013-04-15 16:24:00,
2013-04-15 12:25:00,91.2,27.1,30.03,SE,135,6.0,6.0,10,0.00,,,0.00,VWS V14.01,2013-04-15 16:25:00,
2013-04-15 12:26:00,86.4,25.7,30.03,NNE,22,3.4,4.9,11,0.00,,,0.00,VWS V14.01,2013-04-15 16:26:00,
2013-04-15 12:27:00,86.4,25.7,30.03,NNE,22,3.6,4.3,11,0.00,,,0.00,VWS V14.01,2013-04-15 16:27:00,
2013-04-15 12:28:00,86.4,25.7,30.03,ENE,68,4.3,4.3,11,0.00,,,0.00,VWS V14.01,2013-04-15 16:28:00,
2013-04-15 12:29:00,86.7,26.0,30.03,NE,45,4.3,4.3,11,0.00,,,0.00,VWS V14.01,2013-04-15 16:29:00,
2013-04-15 12:30:00,90.5,26.6,30.03,South,180,4.0,4.0,10,0.00,,,0.00,VWS V14.01,2013-04-15 16:30:00,
2013-04-15 12:31:00,87.3,26.4,30.03,North,0,1.1,2.5,11,0.00,,,0.00,VWS V14.01,2013-04-15 16:31:00,
2013-04-15 12:32:00,87.3,26.4,30.03,North,0,1.3,1.3,11,0.00,,,0.00,VWS V14.01,2013-04-15 16:32:00,
2013-04-15 12:33:00,87.3,26.4,30.03,North,0,1.3,1.3,11,0.00,,,0.00,VWS V14.01,2013-04-15 16:33:00,
2013-04-15 12:34:00,87.3,26.4,30.03,NNE,22,2.9,4.0,11,0.00,,,0.00,VWS V14.01,2013-04-15 16:34:00,
2013-04-15 12:35:00,90.7,26.7,30.03,SSW,202,3.4,3.8,10,0.00,,,0.00,VWS V14.01,2013-04-15 16:35:00,
2013-04-15 12:36:00,88.5,25.1,30.03,East,90,2.5,3.1,10,0.00,,,0.00,VWS V14.01,2013-04-15 16:36:00,
2013-04-15 12:37:00,88.7,25.2,30.03,ENE,68,2.2,2.5,10,0.00,,,0.00,VWS V14.01,2013-04-15 16:37:00,
2013-04-15 12:38:00,88.5,25.1,30.03,East,90,3.4,3.4,10,0.00,,,0.00,VWS V14.01,2013-04-15 16:38:00,
2013-04-15 12:39:00,88.5,25.1,30.03,East,90,3.1,4.0,10,0.00,,,0.00,VWS V14.01,2013-04-15 16:39:00,
2013-04-15 12:40:00,90.7,26.7,30.03,South,180,4.7,7.8,10,0.00,,,0.00,VWS V14.01,2013-04-15 16:40:00,
2013-04-15 12:41:00,88.3,24.9,30.03,SE,135,3.8,4.0,10,0.00,,,0.00,VWS V14.01,2013-04-15 16:41:00,
2013-04-15 12:42:00,88.0,24.7,30.03,ESE,112,3.1,3.8,10,0.00,,,0.00,VWS V14.01,2013-04-15 16:42:00,
2013-04-15 12:43:00,87.6,26.7,30.03,East,90,3.4,3.4,11,0.00,,,0.00,VWS V14.01,2013-04-15 16:43:00,
2013-04-15 12:44:00,87.6,26.7,30.03,ENE,68,3.1,3.4,11,0.00,,,0.00,VWS V14.01,2013-04-15 16:44:00,
2013-04-15 12:45:00,89.2,25.6,30.03,ESE,112,6.3,7.6,10,0.00,,,0.00,VWS V14.01,2013-04-15 16:45:00,
2013-04-15 12:46:00,87.8,24.5,30.03,ENE,68,0.9,1.1,10,0.00,,,0.00,VWS V14.01,2013-04-15 16:46:00,
2013-04-15 12:47:00,87.8,24.5,30.03,NNW,338,4.0,4.0,10,0.00,,,0.00,VWS V14.01,2013-04-15 16:47:00,
2013-04-15 12:48:00,87.8,24.5,30.03,NNE,22,3.8,4.0,10,0.00,,,0.00,VWS V14.01,2013-04-15 16:48:00,
2013-04-15 12:49:00,87.8,24.5,30.03,NNE,22,4.0,4.0,10,0.00,,,0.00,VWS V14.01,2013-04-15 16:49:00,
2013-04-15 12:50:00,89.4,25.8,30.03,SSW,202,1.6,5.4,10,0.00,,,0.00,VWS V14.01,2013-04-15 16:50:00,
2013-04-15 12:51:00,87.8,24.5,30.03,ENE,68,0.9,2.2,10,0.00,,,0.00,VWS V14.01,2013-04-15 16:51:00,
2013-04-15 12:52:00,87.8,24.5,30.03,ENE,68,0.9,0.9,10,0.00,,,0.00,VWS V14.01,2013-04-15 16:52:00,
2013-04-15 12:53:00,88.2,24.8,30.03,ESE,112,1.1,2.0,10,0.00,,,0.00,VWS V14.01,2013-04-15 16:53:00,
2013-04-15 12:55:00,90.7,26.7,30.03,SSE,158,6.5,8.7,10,0.00,,,0.00,VWS V14.01,2013-04-15 16:55:00,
2013-04-15 12:56:00,88.2,24.8,30.03,ESE,112,1.1,1.1,10,0.00,,,0.00,VWS V14.01,2013-04-15 16:56:00,
2013-04-15 12:57:00,89.2,25.6,30.03,ENE,68,1.1,1.1,10,0.00,,,0.00,VWS V14.01,2013-04-15 16:57:00,
2013-04-15 12:58:00,89.4,25.8,30.03,NNW,338,1.6,2.0,10,0.00,,,0.00,VWS V14.01,2013-04-15 16:58:00,
2013-04-15 12:59:00,89.6,25.9,30.03,NNE,22,2.7,3.1,10,0.00,,,0.00,VWS V14.01,2013-04-15 16:59:00,
2013-04-15 13:00:00,90.1,26.3,30.03,SE,135,7.6,7.6,10,0.00,,,0.00,VWS V14.01,2013-04-15 17:00:00,
2013-04-15 13:01:00,89.4,25.8,30.03,NNE,22,2.7,3.4,10,0.00,,,0.00,VWS V14.01,2013-04-15 17:01:00,
2013-04-15 13:02:00,89.4,25.8,30.03,NW,315,2.7,4.3,10,0.00,,,0.00,VWS V14.01,2013-04-15 17:02:00,
2013-04-15 13:03:00,89.4,25.8,30.03,NW,315,2.7,2.7,10,0.00,,,0.00,VWS V14.01,2013-04-15 17:03:00,
2013-04-15 13:04:00,89.1,25.5,30.03,ENE,68,3.6,3.8,10,0.00,,,0.00,VWS V14.01,2013-04-15 17:04:00,
2013-04-15 13:05:00,90.3,26.4,30.03,SE,135,3.1,7.4,10,0.00,,,0.00,VWS V14.01,2013-04-15 17:05:00,
2013-04-15 13:06:00,89.1,25.5,30.03,North,0,2.7,4.7,10,0.00,,,0.00,VWS V14.01,2013-04-15 17:06:00,
2013-04-15 13:07:00,89.2,25.6,30.03,NNW,338,3.1,3.4,10,0.00,,,0.00,VWS V14.01,2013-04-15 17:07:00,
2013-04-15 13:08:00,89.4,25.8,30.03,NNW,338,2.0,3.1,10,0.00,,,0.00,VWS V14.01,2013-04-15 17:08:00,
2013-04-15 13:09:00,89.6,25.9,30.03,NNW,338,0.0,2.0,10,0.00,,,0.00,VWS V14.01,2013-04-15 17:09:00,
2013-04-15 13:10:00,90.5,26.6,30.00,South,180,4.9,5.8,10,0.00,,,0.00,VWS V14.01,2013-04-15 17:10:00,
2013-04-15 13:11:00,89.8,26.0,30.03,ENE,68,4.5,4.5,10,0.00,,,0.00,VWS V14.01,2013-04-15 17:11:00,
2013-04-15 13:12:00,89.8,26.0,30.03,ENE,68,2.9,4.5,10,0.00,,,0.00,VWS V14.01,2013-04-15 17:12:00,
2013-04-15 13:13:00,90.1,26.3,30.03,SE,135,2.0,2.9,10,0.00,,,0.00,VWS V14.01,2013-04-15 17:13:00,
2013-04-15 13:14:00,90.3,26.4,30.03,ESE,112,1.6,2.7,10,0.00,,,0.00,VWS V14.01,2013-04-15 17:14:00,
2013-04-15 13:15:00,91.2,27.1,30.00,SE,135,6.5,6.5,10,0.00,,,0.00,VWS V14.01,2013-04-15 17:15:00,
2013-04-15 13:16:00,90.7,26.7,30.03,NNE,22,1.3,3.4,10,0.00,,,0.00,VWS V14.01,2013-04-15 17:16:00,
2013-04-15 13:17:00,90.7,26.7,30.03,NNE,22,1.3,1.3,10,0.00,,,0.00,VWS V14.01,2013-04-15 17:17:00,
2013-04-15 13:18:00,91.4,24.7,30.03,NNW,338,3.1,3.1,9,0.00,,,0.00,VWS V14.01,2013-04-15 17:18:00,
2013-04-15 13:19:00,91.6,24.8,30.03,NNW,338,2.2,3.1,9,0.00,,,0.00,VWS V14.01,2013-04-15 17:19:00,
2013-04-15 13:20:00,91.8,25.0,30.03,North,0,2.2,2.5,9,0.00,,,0.00,VWS V14.01,2013-04-15 17:20:00,
2013-04-15 13:21:00,90.3,26.4,30.00,SSE,158,5.4,5.4,10,0.00,,,0.00,VWS V14.01,2013-04-15 17:21:00,
2013-04-15 13:22:00,91.9,25.1,30.03,NE,45,2.0,2.2,9,0.00,,,0.00,VWS V14.01,2013-04-15 17:22:00,
2013-04-15 13:23:00,91.9,25.1,30.03,NNW,338,1.3,2.0,9,0.00,,,0.00,VWS V14.01,2013-04-15 17:23:00,
2013-04-15 13:24:00,91.9,25.1,30.03,NNW,338,1.6,1.6,9,0.00,,,0.00,VWS V14.01,2013-04-15 17:24:00,
2013-04-15 13:25:00,90.5,26.6,30.03,SSE,158,3.8,3.8,10,0.00,,,0.00,VWS V14.01,2013-04-15 17:25:00,
2013-04-15 13:26:00,92.3,25.4,30.03,NNW,338,2.5,2.5,9,0.00,,,0.00,VWS V14.01,2013-04-15 17:26:00,
2013-04-15 13:27:00,92.5,25.5,30.03,NNW,338,1.1,2.5,9,0.00,,,0.00,VWS V14.01,2013-04-15 17:27:00,
2013-04-15 13:28:00,92.5,25.5,30.03,NNW,338,0.9,1.3,9,0.00,,,0.00,VWS V14.01,2013-04-15 17:28:00,
2013-04-15 13:30:00,91.2,27.1,30.03,ESE,112,2.7,4.0,10,0.00,,,0.00,VWS V14.01,2013-04-15 17:30:00,
2013-04-15 13:31:00,92.5,25.5,30.03,SW,225,3.4,3.4,9,0.00,,,0.00,VWS V14.01,2013-04-15 17:31:00,
2013-04-15 13:32:00,92.5,25.5,30.03,SW,225,3.6,3.6,9,0.00,,,0.00,VWS V14.01,2013-04-15 17:32:00,
2013-04-15 13:33:00,91.9,25.1,30.03,SW,225,1.6,3.6,9,0.00,,,0.00,VWS V14.01,2013-04-15 17:33:00,
2013-04-15 13:34:00,92.1,25.2,30.03,SW,225,1.6,2.0,9,0.00,,,0.00,VWS V14.01,2013-04-15 17:34:00,
2013-04-15 13:35:00,91.6,24.8,30.03,SSE,158,3.4,3.4,9,0.00,,,0.00,VWS V14.01,2013-04-15 17:35:00,
2013-04-15 13:36:00,92.3,25.4,30.03,ESE,112,5.4,5.4,9,0.00,,,0.00,VWS V14.01,2013-04-15 17:36:00,
2013-04-15 13:37:00,92.3,25.4,30.03,South,180,2.0,5.4,9,0.00,,,0.00,VWS V14.01,2013-04-15 17:37:00,
2013-04-15 13:38:00,91.8,25.0,30.03,SSE,158,6.0,6.0,9,0.00,,,0.00,VWS V14.01,2013-04-15 17:38:00,
2013-04-15 13:39:00,91.4,24.7,30.03,SE,135,4.9,6.0,9,0.00,,,0.00,VWS V14.01,2013-04-15 17:39:00,
2013-04-15 13:40:00,91.4,24.7,30.03,SE,135,4.0,4.0,9,0.00,,,0.00,VWS V14.01,2013-04-15 17:40:00,
2013-04-15 13:41:00,91.2,27.1,30.03,SW,225,3.1,3.1,10,0.00,,,0.00,VWS V14.01,2013-04-15 17:41:00,
2013-04-15 13:42:00,91.2,27.1,30.03,SW,225,2.7,3.1,10,0.00,,,0.00,VWS V14.01,2013-04-15 17:42:00,
2013-04-15 13:43:00,91.6,24.8,30.03,SW,225,2.9,2.9,9,0.00,,,0.00,VWS V14.01,2013-04-15 17:43:00,
2013-04-15 13:44:00,91.6,24.8,30.03,ESE,112,6.0,6.9,9,0.00,,,0.00,VWS V14.01,2013-04-15 17:44:00,
2013-04-15 13:45:00,91.4,24.7,30.03,SE,135,3.8,4.9,9,0.00,,,0.00,VWS V14.01,2013-04-15 17:45:00,
2013-04-15 13:46:00,91.6,24.8,30.03,SE,135,4.0,5.8,9,0.00,,,0.00,VWS V14.01,2013-04-15 17:46:00,
2013-04-15 13:47:00,91.4,24.7,30.03,ESE,112,5.4,5.4,9,0.00,,,0.00,VWS V14.01,2013-04-15 17:47:00,
2013-04-15 13:48:00,91.4,24.7,30.03,South,180,4.0,6.3,9,0.00,,,0.00,VWS V14.01,2013-04-15 17:48:00,
2013-04-15 13:49:00,91.4,24.7,30.03,SSE,158,3.8,6.0,9,0.00,,,0.00,VWS V14.01,2013-04-15 17:49:00,
2013-04-15 13:50:00,91.9,25.1,30.03,SSE,158,3.6,3.6,9,0.00,,,0.00,VWS V14.01,2013-04-15 17:50:00,
2013-04-15 13:51:00,91.4,24.7,30.03,SW,225,2.5,4.5,9,0.00,,,0.00,VWS V14.01,2013-04-15 17:51:00,
2013-04-15 13:52:00,91.4,24.7,30.03,SSE,158,4.3,4.9,9,0.00,,,0.00,VWS V14.01,2013-04-15 17:52:00,
2013-04-15 13:53:00,91.2,27.1,30.03,SSE,158,3.6,5.6,10,0.00,,,0.00,VWS V14.01,2013-04-15 17:53:00,
2013-04-15 13:54:00,91.2,27.1,30.03,SSE,158,2.5,4.0,10,0.00,,,0.00,VWS V14.01,2013-04-15 17:54:00,
2013-04-15 13:55:00,91.9,25.1,30.03,South,180,4.7,6.0,9,0.00,,,0.00,VWS V14.01,2013-04-15 17:55:00,
2013-04-15 13:56:00,91.2,27.1,30.03,SSE,158,4.9,4.9,10,0.00,,,0.00,VWS V14.01,2013-04-15 17:56:00,
2013-04-15 13:57:00,91.2,27.1,30.03,SE,135,5.6,6.5,10,0.00,,,0.00,VWS V14.01,2013-04-15 17:57:00,
2013-04-15 13:58:00,91.2,27.1,30.03,SE,135,6.0,6.0,10,0.00,,,0.00,VWS V14.01,2013-04-15 17:58:00,
2013-04-15 13:59:00,91.0,27.0,30.03,SSE,158,6.0,6.0,10,0.00,,,0.00,VWS V14.01,2013-04-15 17:59:00,
2013-04-15 14:00:00,91.0,27.0,30.03,ESE,112,2.7,6.3,10,0.00,,,0.00,VWS V14.01,2013-04-15 18:00:00,
2013-04-15 14:01:00,90.9,26.8,30.03,SE,135,6.0,6.5,10,0.00,,,0.00,VWS V14.01,2013-04-15 18:01:00,
2013-04-15 14:02:00,90.7,26.7,30.03,SSW,202,4.0,9.8,10,0.00,,,0.00,VWS V14.01,2013-04-15 18:02:00,
2013-04-15 14:03:00,90.5,26.6,30.03,SSW,202,2.0,4.0,10,0.00,,,0.00,VWS V14.01,2013-04-15 18:03:00,
2013-04-15 14:04:00,90.5,26.6,30.03,SSE,158,2.9,2.9,10,0.00,,,0.00,VWS V14.01,2013-04-15 18:04:00,
2013-04-15 14:05:00,90.7,26.7,30.03,SSE,158,6.5,6.5,10,0.00,,,0.00,VWS V14.01,2013-04-15 18:05:00,
2013-04-15 14:06:00,90.5,26.6,30.03,South,180,3.1,3.1,10,0.00,,,0.00,VWS V14.01,2013-04-15 18:06:00,
2013-04-15 14:07:00,90.5,26.6,30.03,SSE,158,3.1,3.6,10,0.00,,,0.00,VWS V14.01,2013-04-15 18:07:00,
2013-04-15 14:08:00,90.7,26.7,30.03,South,180,3.4,3.8,10,0.00,,,0.00,VWS V14.01,2013-04-15 18:08:00,
2013-04-15 14:09:00,90.9,26.8,30.03,SE,135,5.8,5.8,10,0.00,,,0.00,VWS V14.01,2013-04-15 18:09:00,
2013-04-15 14:10:00,89.8,26.0,30.03,SSE,158,6.3,6.5,10,0.00,,,0.00,VWS V14.01,2013-04-15 18:10:00,
2013-04-15 14:11:00,90.7,26.7,30.03,East,90,6.0,7.2,10,0.00,,,0.00,VWS V14.01,2013-04-15 18:11:00,
2013-04-15 14:12:00,90.9,26.8,30.03,SSE,158,4.0,6.0,10,0.00,,,0.00,VWS V14.01,2013-04-15 18:12:00,
2013-04-15 14:13:00,90.7,26.7,30.03,SSE,158,4.0,4.0,10,0.00,,,0.00,VWS V14.01,2013-04-15 18:13:00,
2013-04-15 14:14:00,90.7,26.7,30.03,SSE,158,3.8,7.8,10,0.00,,,0.00,VWS V14.01,2013-04-15 18:14:00,
2013-04-15 14:15:00,89.8,26.0,30.03,SSE,158,6.0,6.5,10,0.00,,,0.00,VWS V14.01,2013-04-15 18:15:00,
2013-04-15 14:16:00,90.3,26.4,30.03,South,180,8.5,8.5,10,0.00,,,0.00,VWS V14.01,2013-04-15 18:16:00,
2013-04-15 14:18:00,90.0,26.2,30.03,SSE,158,7.6,8.5,10,0.00,,,0.00,VWS V14.01,2013-04-15 18:18:00,
2013-04-15 14:19:00,89.2,25.6,30.03,SE,135,6.0,7.6,10,0.00,,,0.00,VWS V14.01,2013-04-15 18:19:00,
2013-04-15 14:20:00,90.7,26.7,30.03,SSE,158,3.1,6.5,10,0.00,,,0.00,VWS V14.01,2013-04-15 18:20:00,
2013-04-15 14:21:00,89.1,25.5,30.03,South,180,7.6,7.6,10,0.00,,,0.00,VWS V14.01,2013-04-15 18:21:00,
2013-04-15 14:22:00,88.9,25.3,30.03,SE,135,7.4,7.6,10,0.00,,,0.00,VWS V14.01,2013-04-15 18:22:00,
2013-04-15 14:23:00,89.1,25.5,30.03,South,180,5.4,7.4,10,0.00,,,0.00,VWS V14.01,2013-04-15 18:23:00,
2013-04-15 14:24:00,89.4,25.8,30.03,East,90,3.1,5.4,10,0.00,,,0.00,VWS V14.01,2013-04-15 18:24:00,
2013-04-15 14:25:00,91.4,24.7,30.03,SE,135,4.3,5.4,9,0.00,,,0.00,VWS V14.01,2013-04-15 18:25:00,
2013-04-15 14:26:00,90.1,26.3,30.03,SSE,158,4.0,4.3,10,0.00,,,0.00,VWS V14.01,2013-04-15 18:26:00,
2013-04-15 14:27:00,90.3,26.4,30.03,SSW,202,3.4,4.0,10,0.00,,,0.00,VWS V14.01,2013-04-15 18:27:00,
2013-04-15 14:28:00,90.7,26.7,30.03,SSE,158,2.0,3.8,10,0.00,,,0.00,VWS V14.01,2013-04-15 18:28:00,
2013-04-15 14:29:00,91.4,24.7,30.03,SE,135,7.8,10.1,9,0.00,,,0.00,VWS V14.01,2013-04-15 18:29:00,
2013-04-15 14:30:00,90.3,26.4,30.03,South,180,3.4,5.6,10,0.00,,,0.00,VWS V14.01,2013-04-15 18:30:00,
2013-04-15 14:31:00,90.1,26.3,30.03,SSW,202,3.8,5.4,10,0.00,,,0.00,VWS V14.01,2013-04-15 18:31:00,
2013-04-15 14:33:00,90.1,26.3,30.03,South,180,3.8,5.4,10,0.00,,,0.00,VWS V14.01,2013-04-15 18:33:00,
2013-04-15 14:34:00,91.2,27.1,30.03,SE,135,8.1,8.1,10,0.00,,,0.00,VWS V14.01,2013-04-15 18:34:00,
2013-04-15 14:35:00,90.1,26.3,30.03,SSW,202,3.8,6.5,10,0.00,,,0.00,VWS V14.01,2013-04-15 18:35:00,
2013-04-15 14:36:00,90.3,26.4,30.03,SSW,202,5.4,5.4,10,0.00,,,0.00,VWS V14.01,2013-04-15 18:36:00,
2013-04-15 14:37:00,90.3,26.4,30.03,South,180,6.0,6.0,10,0.00,,,0.00,VWS V14.01,2013-04-15 18:37:00,
2013-04-15 14:38:00,90.5,26.6,30.03,SSE,158,6.3,6.3,10,0.00,,,0.00,VWS V14.01,2013-04-15 18:38:00,
2013-04-15 14:39:00,90.7,26.7,30.03,South,180,5.6,8.5,10,0.00,,,0.00,VWS V14.01,2013-04-15 18:39:00,
2013-04-15 14:40:00,90.3,26.4,30.03,SSE,158,2.7,6.3,10,0.00,,,0.00,VWS V14.01,2013-04-15 18:40:00,
2013-04-15 14:41:00,90.3,26.4,30.03,SSE,158,4.9,5.6,10,0.00,,,0.00,VWS V14.01,2013-04-15 18:41:00,
2013-04-15 14:42:00,90.3,26.4,30.03,SSW,202,2.0,5.6,10,0.00,,,0.00,VWS V14.01,2013-04-15 18:42:00,
2013-04-15 14:43:00,90.5,26.6,30.03,SSW,202,3.8,3.8,10,0.00,,,0.00,VWS V14.01,2013-04-15 18:43:00,
2013-04-15 14:44:00,91.8,25.0,30.03,SSE,158,6.3,6.3,9,0.00,,,0.00,VWS V14.01,2013-04-15 18:44:00,
2013-04-15 14:45:00,90.5,26.6,30.00,SSE,158,2.0,3.8,10,0.00,,,0.00,VWS V14.01,2013-04-15 18:45:00,
2013-04-15 14:46:00,90.9,26.8,30.00,ESE,112,4.7,4.7,10,0.00,,,0.00,VWS V14.01,2013-04-15 18:46:00,
2013-04-15 14:47:00,91.0,27.0,30.00,South,180,6.0,6.0,10,0.00,,,0.00,VWS V14.01,2013-04-15 18:47:00,
2013-04-15 14:48:00,91.2,27.1,30.00,ESE,112,4.0,6.0,10,0.00,,,0.00,VWS V14.01,2013-04-15 18:48:00,
2013-04-15 14:49:00,91.4,24.7,30.03,SE,135,6.0,6.7,9,0.00,,,0.00,VWS V14.01,2013-04-15 18:49:00,
2013-04-15 14:50:00,91.2,27.1,30.00,SSE,158,4.0,5.8,10,0.00,,,0.00,VWS V14.01,2013-04-15 18:50:00,
2013-04-15 14:51:00,91.0,27.0,30.00,SSE,158,2.9,8.7,10,0.00,,,0.00,VWS V14.01,2013-04-15 18:51:00,
2013-04-15 14:52:00,90.5,26.6,30.00,South,180,3.1,3.1,10,0.00,,,0.00,VWS V14.01,2013-04-15 18:52:00,
2013-04-15 14:53:00,90.3,26.4,30.00,ESE,112,3.8,5.4,10,0.00,,,0.00,VWS V14.01,2013-04-15 18:53:00,
2013-04-15 14:54:00,91.9,25.1,30.03,South,180,4.3,4.3,9,0.00,,,0.00,VWS V14.01,2013-04-15 18:54:00,
2013-04-15 14:55:00,90.1,26.3,30.00,South,180,4.5,7.6,10,0.00,,,0.00,VWS V14.01,2013-04-15 18:55:00,
2013-04-15 14:56:00,90.0,26.2,30.00,SSE,158,4.0,4.5,10,0.00,,,0.00,VWS V14.01,2013-04-15 18:56:00,
2013-04-15 14:57:00,90.0,26.2,30.00,SSE,158,3.4,4.0,10,0.00,,,0.00,VWS V14.01,2013-04-15 18:57:00,
2013-04-15 14:58:00,90.5,26.6,30.03,SSE,158,3.8,3.8,10,0.00,,,0.00,VWS V14.01,2013-04-15 18:58:00,
2013-04-15 14:59:00,91.6,24.8,30.03,ESE,112,5.8,5.8,9,0.00,,,0.00,VWS V14.01,2013-04-15 18:59:00,
2013-04-15 15:00:00,90.7,26.7,30.03,SE,135,3.6,4.7,10,0.00,,,0.00,VWS V14.01,2013-04-15 19:00:00,
2013-04-15 15:01:00,90.7,26.7,30.03,SE,135,4.9,6.0,10,0.00,,,0.00,VWS V14.01,2013-04-15 19:01:00,
2013-04-15 15:02:00,91.2,27.1,30.03,SE,135,4.0,4.9,10,0.00,,,0.00,VWS V14.01,2013-04-15 19:02:00,
2013-04-15 15:03:00,91.2,27.1,30.03,South,180,4.0,5.8,10,0.00,,,0.00,VWS V14.01,2013-04-15 19:03:00,
2013-04-15 15:04:00,91.6,24.8,30.03,ESE,112,4.3,5.8,9,0.00,,,0.00,VWS V14.01,2013-04-15 19:04:00,
2013-04-15 15:05:00,91.2,27.1,30.03,South,180,3.6,6.5,10,0.00,,,0.00,VWS V14.01,2013-04-15 19:05:00,
2013-04-15 15:06:00,91.8,25.0,30.03,ESE,112,2.7,3.6,9,0.00,,,0.00,VWS V14.01,2013-04-15 19:06:00,
2013-04-15 15:07:00,91.8,25.0,30.03,South,180,6.9,6.9,9,0.00,,,0.00,VWS V14.01,2013-04-15 19:07:00,
2013-04-15 15:08:00,91.6,24.8,30.03,SSE,158,3.4,7.2,9,0.00,,,0.00,VWS V14.01,2013-04-15 19:08:00,
2013-04-15 15:09:00,92.5,25.5,30.03,South,180,6.7,6.7,9,0.00,,,0.00,VWS V14.01,2013-04-15 19:09:00,
2013-04-15 15:10:00,91.4,24.7,30.03,ESE,112,6.0,6.0,9,0.00,,,0.00,VWS V14.01,2013-04-15 19:10:00,
2013-04-15 15:11:00,91.4,24.7,30.03,SE,135,5.8,6.0,9,0.00,,,0.00,VWS V14.01,2013-04-15 19:11:00,
2013-04-15 15:13:00,91.4,24.7,30.03,SE,135,4.0,6.3,9,0.00,,,0.00,VWS V14.01,2013-04-15 19:13:00,
2013-04-15 15:14:00,92.7,25.6,30.03,SSE,158,5.8,5.8,9,0.00,,,0.00,VWS V14.01,2013-04-15 19:14:00,
2013-04-15 15:15:00,91.4,24.7,30.03,SE,135,5.8,8.7,9,0.00,,,0.00,VWS V14.01,2013-04-15 19:15:00,
2013-04-15 15:16:00,91.4,24.7,30.03,South,180,7.2,7.6,9,0.00,,,0.00,VWS V14.01,2013-04-15 19:16:00,
2013-04-15 15:17:00,91.0,27.0,30.03,ESE,112,3.1,7.2,10,0.00,,,0.00,VWS V14.01,2013-04-15 19:17:00,
2013-04-15 15:18:00,91.4,24.7,30.03,SSE,158,4.9,4.9,9,0.00,,,0.00,VWS V14.01,2013-04-15 19:18:00,
2013-04-15 15:19:00,95.0,27.4,30.03,ENE,68,1.1,1.6,9,0.00,,,0.00,VWS V14.01,2013-04-15 19:19:00,
2013-04-15 15:20:00,91.4,24.7,30.03,South,180,2.0,4.0,9,0.00,,,0.00,VWS V14.01,2013-04-15 19:20:00,
2013-04-15 15:21:00,91.9,25.1,30.03,SE,135,2.7,3.6,9,0.00,,,0.00,VWS V14.01,2013-04-15 19:21:00,
2013-04-15 15:22:00,91.9,25.1,30.03,South,180,4.3,5.6,9,0.00,,,0.00,VWS V14.01,2013-04-15 19:22:00,
2013-04-15 15:23:00,91.9,25.1,30.03,SSE,158,2.7,4.3,9,0.00,,,0.00,VWS V14.01,2013-04-15 19:23:00,
2013-04-15 15:24:00,95.2,27.5,29.97,SSE,158,3.8,4.0,9,0.00,,,0.00,VWS V14.01,2013-04-15 19:24:00,
2013-04-15 15:25:00,92.5,25.5,30.03,ENE,68,6.5,7.4,9,0.00,,,0.00,VWS V14.01,2013-04-15 19:25:00,
2013-04-15 15:26:00,92.3,25.4,30.03,South,180,3.8,7.2,9,0.00,,,0.00,VWS V14.01,2013-04-15 19:26:00,
2013-04-15 15:27:00,92.3,25.4,30.03,SE,135,6.0,6.0,9,0.00,,,0.00,VWS V14.01,2013-04-15 19:27:00,
2013-04-15 15:28:00,91.9,25.1,30.03,SE,135,5.6,6.0,9,0.00,,,0.00,VWS V14.01,2013-04-15 19:28:00,
2013-04-15 15:29:00,91.6,24.8,30.03,SSW,202,3.8,5.6,9,0.00,,,0.00,VWS V14.01,2013-04-15 19:29:00,
2013-04-15 15:30:00,95.9,28.1,29.97,SE,135,2.0,2.0,9,0.00,,,0.00,VWS V14.01,2013-04-15 19:30:00,
2013-04-15 15:31:00,91.6,24.8,30.03,SE,135,7.6,7.6,9,0.00,,,0.00,VWS V14.01,2013-04-15 19:31:00,
2013-04-15 15:32:00,91.2,27.1,30.03,SSE,158,2.5,7.6,10,0.00,,,0.00,VWS V14.01,2013-04-15 19:32:00,
2013-04-15 15:33:00,91.0,27.0,30.03,ESE,112,2.7,6.3,10,0.00,,,0.00,VWS V14.01,2013-04-15 19:33:00,
2013-04-15 15:34:00,91.0,27.0,30.03,SSE,158,4.3,4.3,10,0.00,,,0.00,VWS V14.01,2013-04-15 19:34:00,
2013-04-15 15:35:00,97.0,26.0,29.97,SE,135,2.0,3.1,8,0.00,,,0.00,VWS V14.01,2013-04-15 19:35:00,
2013-04-15 15:36:00,90.9,26.8,30.03,SE,135,3.6,5.8,10,0.00,,,0.00,VWS V14.01,2013-04-15 19:36:00,
2013-04-15 15:37:00,90.7,26.7,30.03,South,180,4.9,7.8,10,0.00,,,0.00,VWS V14.01,2013-04-15 19:37:00,
2013-04-15 15:38:00,90.7,26.7,30.03,South,180,5.8,6.5,10,0.00,,,0.00,VWS V14.01,2013-04-15 19:38:00,
2013-04-15 15:39:00,90.7,26.7,30.03,South,180,5.8,5.8,10,0.00,,,0.00,VWS V14.01,2013-04-15 19:39:00,
2013-04-15 15:40:00,97.2,26.1,29.97,ESE,112,4.9,4.9,8,0.00,,,0.00,VWS V14.01,2013-04-15 19:40:00,
2013-04-15 15:41:00,90.0,26.2,30.03,South,180,8.5,8.5,10,0.00,,,0.00,VWS V14.01,2013-04-15 19:41:00,
2013-04-15 15:42:00,89.8,26.0,30.03,SSE,158,4.7,8.5,10,0.00,,,0.00,VWS V14.01,2013-04-15 19:42:00,
2013-04-15 15:43:00,89.8,26.0,30.03,SSE,158,6.3,6.5,10,0.00,,,0.00,VWS V14.01,2013-04-15 19:43:00,
2013-04-15 15:44:00,89.6,25.9,30.03,South,180,6.5,6.5,10,0.00,,,0.00,VWS V14.01,2013-04-15 19:44:00,
2013-04-15 15:45:00,96.8,25.9,29.97,ESE,112,4.0,4.0,8,0.00,,,0.00,VWS V14.01,2013-04-15 19:45:00,
2013-04-15 15:46:00,89.4,25.8,30.03,South,180,6.0,7.6,10,0.00,,,0.00,VWS V14.01,2013-04-15 19:46:00,
2013-04-15 15:47:00,89.4,25.8,30.03,SSE,158,5.8,8.1,10,0.00,,,0.00,VWS V14.01,2013-04-15 19:47:00,
2013-04-15 15:48:00,89.6,25.9,30.03,SE,135,6.0,6.0,10,0.00,,,0.00,VWS V14.01,2013-04-15 19:48:00,
2013-04-15 15:49:00,89.8,26.0,30.03,SSW,202,2.7,6.5,10,0.00,,,0.00,VWS V14.01,2013-04-15 19:49:00,
2013-04-15 15:50:00,98.1,26.8,29.97,WNW,292,3.4,3.4,8,0.00,,,0.00,VWS V14.01,2013-04-15 19:50:00,
2013-04-15 15:51:00,90.3,26.4,30.03,ESE,112,6.3,6.3,10,0.00,,,0.00,VWS V14.01,2013-04-15 19:51:00,
2013-04-15 15:52:00,90.3,26.4,30.03,ESE,112,6.3,6.3,10,0.00,,,0.00,VWS V14.01,2013-04-15 19:52:00,
2013-04-15 15:53:00,90.7,26.7,30.03,SSE,158,6.5,6.5,10,0.00,,,0.00,VWS V14.01,2013-04-15 19:53:00,
2013-04-15 15:54:00,91.0,27.0,30.03,South,180,3.4,6.5,10,0.00,,,0.00,VWS V14.01,2013-04-15 19:54:00,
2013-04-15 15:55:00,95.5,27.8,29.97,NNW,338,4.7,6.0,9,0.00,,,0.00,VWS V14.01,2013-04-15 19:55:00,
2013-04-15 15:56:00,91.0,27.0,30.03,South,180,5.6,5.6,10,0.00,,,0.00,VWS V14.01,2013-04-15 19:56:00,
2013-04-15 15:57:00,95.2,27.5,29.97,NW,315,5.8,5.8,9,0.00,,,0.00,VWS V14.01,2013-04-15 19:57:00,
2013-04-15 15:58:00,95.2,27.5,29.97,West,270,4.7,5.6,9,0.00,,,0.00,VWS V14.01,2013-04-15 19:58:00,
2013-04-15 15:59:00,91.4,24.7,30.03,SE,135,4.3,5.4,9,0.00,,,0.00,VWS V14.01,2013-04-15 19:59:00,
2013-04-15 16:00:00,91.4,24.7,30.03,SE,135,5.6,5.6,9,0.00,,,0.00,VWS V14.01,2013-04-15 20:00:00,
2013-04-15 16:01:00,95.5,27.8,29.97,SW,225,2.0,4.0,9,0.00,,,0.00,VWS V14.01,2013-04-15 20:01:00,
2013-04-15 16:02:00,95.5,27.8,29.97,West,270,3.1,3.1,9,0.00,,,0.00,VWS V14.01,2013-04-15 20:02:00,
2013-04-15 16:03:00,95.5,27.8,29.97,West,270,3.1,3.1,9,0.00,,,0.00,VWS V14.01,2013-04-15 20:03:00,
2013-04-15 16:04:00,91.0,27.0,30.03,ESE,112,6.0,6.3,10,0.00,,,0.00,VWS V14.01,2013-04-15 20:04:00,
2013-04-15 16:05:00,91.2,27.1,30.03,SSE,158,5.4,6.0,10,0.00,,,0.00,VWS V14.01,2013-04-15 20:05:00,
2013-04-15 16:06:00,91.2,27.1,30.03,South,180,2.7,6.5,10,0.00,,,0.00,VWS V14.01,2013-04-15 20:06:00,
2013-04-15 16:07:00,91.2,27.1,30.03,SSW,202,4.3,6.5,10,0.00,,,0.00,VWS V14.01,2013-04-15 20:07:00,
2013-04-15 16:08:00,94.5,27.0,29.97,South,180,3.8,4.3,9,0.00,,,0.00,VWS V14.01,2013-04-15 20:08:00,
2013-04-15 16:09:00,91.0,27.0,30.03,ESE,112,7.4,8.1,10,0.00,,,0.00,VWS V14.01,2013-04-15 20:09:00,
2013-04-15 16:10:00,91.0,27.0,30.03,SE,135,6.9,8.1,10,0.00,,,0.00,VWS V14.01,2013-04-15 20:10:00,
2013-04-15 16:11:00,91.0,27.0,30.03,SSE,158,6.3,8.7,10,0.00,,,0.00,VWS V14.01,2013-04-15 20:11:00,
2013-04-15 16:12:00,91.0,27.0,30.03,ESE,112,8.5,10.3,10,0.00,,,0.00,VWS V14.01,2013-04-15 20:12:00,
2013-04-15 16:13:00,92.8,25.8,29.97,West,270,7.2,7.6,9,0.00,,,0.00,VWS V14.01,2013-04-15 20:13:00,
2013-04-15 16:14:00,90.7,26.7,30.03,SSE,158,5.8,5.8,10,0.00,,,0.00,VWS V14.01,2013-04-15 20:14:00,
2013-04-15 16:15:00,90.7,26.7,30.03,ESE,112,5.8,5.8,10,0.00,,,0.00,VWS V14.01,2013-04-15 20:15:00,
2013-04-15 16:16:00,91.6,24.8,30.03,SE,135,4.3,5.8,9,0.00,,,0.00,VWS V14.01,2013-04-15 20:16:00,
2013-04-15 16:17:00,91.8,25.0,30.03,ENE,68,5.4,7.4,9,0.00,,,0.00,VWS V14.01,2013-04-15 20:17:00,
2013-04-15 16:18:00,92.1,25.2,29.97,West,270,6.0,6.0,9,0.00,,,0.00,VWS V14.01,2013-04-15 20:18:00,
2013-04-15 16:19:00,91.8,25.0,30.03,SSW,202,5.6,6.5,9,0.00,,,0.00,VWS V14.01,2013-04-15 20:19:00,
2013-04-15 16:20:00,91.8,25.0,30.03,South,180,5.4,5.6,9,0.00,,,0.00,VWS V14.01,2013-04-15 20:20:00,
2013-04-15 16:21:00,91.6,24.8,30.03,SE,135,6.5,6.5,9,0.00,,,0.00,VWS V14.01,2013-04-15 20:21:00,
2013-04-15 16:22:00,91.6,24.8,30.03,SSE,158,6.7,6.7,9,0.00,,,0.00,VWS V14.01,2013-04-15 20:22:00,
2013-04-15 16:23:00,92.5,25.5,29.97,NW,315,3.6,3.6,9,0.00,,,0.00,VWS V14.01,2013-04-15 20:23:00,
2013-04-15 16:24:00,91.4,24.7,30.03,SSE,158,5.4,6.0,9,0.00,,,0.00,VWS V14.01,2013-04-15 20:24:00,
2013-04-15 16:25:00,91.8,25.0,30.03,SSE,158,5.4,5.4,9,0.00,,,0.00,VWS V14.01,2013-04-15 20:25:00,
2013-04-15 16:26:00,91.8,25.0,30.03,SSE,158,5.4,5.4,9,0.00,,,0.00,VWS V14.01,2013-04-15 20:26:00,
2013-04-15 16:27:00,91.9,25.1,30.03,South,180,4.3,6.0,9,0.00,,,0.00,VWS V14.01,2013-04-15 20:27:00,
2013-04-15 16:28:00,93.0,25.9,29.97,WNW,292,3.8,6.7,9,0.00,,,0.00,VWS V14.01,2013-04-15 20:28:00,
2013-04-15 16:29:00,91.8,25.0,30.03,SSE,158,4.9,5.6,9,0.00,,,0.00,VWS V14.01,2013-04-15 20:29:00,
2013-04-15 16:30:00,91.9,25.1,30.03,SE,135,4.0,5.6,9,0.00,,,0.00,VWS V14.01,2013-04-15 20:30:00,
2013-04-15 16:31:00,91.9,25.1,30.03,SE,135,4.0,4.0,9,0.00,,,0.00,VWS V14.01,2013-04-15 20:31:00,
2013-04-15 16:32:00,91.9,25.1,30.03,SE,135,4.0,4.0,9,0.00,,,0.00,VWS V14.01,2013-04-15 20:32:00,
2013-04-15 16:33:00,92.3,25.4,29.97,West,270,5.8,7.6,9,0.00,,,0.00,VWS V14.01,2013-04-15 20:33:00,
2013-04-15 16:34:00,91.4,24.7,30.03,SSE,158,4.9,7.6,9,0.00,,,0.00,VWS V14.01,2013-04-15 20:34:00,
2013-04-15 16:35:00,91.4,24.7,30.03,SSE,158,6.0,6.0,9,0.00,,,0.00,VWS V14.01,2013-04-15 20:35:00,
2013-04-15 16:36:00,91.6,24.8,30.03,SSE,158,5.4,6.0,9,0.00,,,0.00,VWS V14.01,2013-04-15 20:36:00,
2013-04-15 16:38:00,91.8,25.0,29.97,West,270,6.5,6.5,9,0.00,,,0.00,VWS V14.01,2013-04-15 20:38:00,
2013-04-15 16:39:00,91.6,24.8,30.03,SSE,158,3.1,6.0,9,0.00,,,0.00,VWS V14.01,2013-04-15 20:39:00,
2013-04-15 16:40:00,92.1,25.2,30.03,SSE,158,3.8,4.3,9,0.00,,,0.00,VWS V14.01,2013-04-15 20:40:00,
2013-04-15 16:41:00,92.1,25.2,30.03,SSE,158,3.6,3.8,9,0.00,,,0.00,VWS V14.01,2013-04-15 20:41:00,
2013-04-15 16:42:00,92.1,25.2,30.03,South,180,4.3,4.3,9,0.00,,,0.00,VWS V14.01,2013-04-15 20:42:00,
2013-04-15 16:43:00,90.9,26.8,29.97,West,270,6.3,7.8,10,0.00,,,0.00,VWS V14.01,2013-04-15 20:43:00,
2013-04-15 16:44:00,92.3,25.4,30.03,South,180,4.0,7.2,9,0.00,,,0.00,VWS V14.01,2013-04-15 20:44:00,
2013-04-15 16:45:00,92.3,25.4,30.03,SE,135,5.6,6.5,9,0.00,,,0.00,VWS V14.01,2013-04-15 20:45:00,
2013-04-15 16:46:00,92.3,25.4,30.03,SE,135,4.9,5.6,9,0.00,,,0.00,VWS V14.01,2013-04-15 20:46:00,
2013-04-15 16:47:00,92.3,25.4,30.03,South,180,4.9,4.9,9,0.00,,,0.00,VWS V14.01,2013-04-15 20:47:00,
2013-04-15 16:48:00,91.0,27.0,29.97,West,270,3.4,4.3,10,0.00,,,0.00,VWS V14.01,2013-04-15 20:48:00,
2013-04-15 16:49:00,92.7,25.6,30.03,SSE,158,4.3,5.8,9,0.00,,,0.00,VWS V14.01,2013-04-15 20:49:00,
2013-04-15 16:50:00,93.2,26.1,30.03,ESE,112,4.0,4.9,9,0.00,,,0.00,VWS V14.01,2013-04-15 20:50:00,
2013-04-15 16:51:00,93.4,26.2,30.03,South,180,2.7,4.3,9,0.00,,,0.00,VWS V14.01,2013-04-15 20:51:00,
2013-04-15 16:52:00,94.5,27.0,30.03,WSW,248,1.6,2.9,9,0.00,,,0.00,VWS V14.01,2013-04-15 20:52:00,
2013-04-15 16:53:00,91.4,24.7,29.97,WSW,248,3.6,6.9,9,0.00,,,0.00,VWS V14.01,2013-04-15 20:53:00,
2013-04-15 16:54:00,95.0,27.4,30.03,SE,135,1.6,4.0,9,0.00,,,0.00,VWS V14.01,2013-04-15 20:54:00,
2013-04-15 16:55:00,95.4,27.7,30.03,SE,135,4.0,4.0,9,0.00,,,0.00,VWS V14.01,2013-04-15 20:55:00,
2013-04-15 16:56:00,95.2,27.5,30.03,ESE,112,3.6,6.3,9,0.00,,,0.00,VWS V14.01,2013-04-15 20:56:00,
2013-04-15 16:57:00,95.2,27.5,30.03,South,180,2.5,4.9,9,0.00,,,0.00,VWS V14.01,2013-04-15 20:57:00,
2013-04-15 16:58:00,90.7,26.7,29.97,WNW,292,5.8,6.3,10,0.00,,,0.00,VWS V14.01,2013-04-15 20:58:00,
2013-04-15 16:59:00,95.4,27.7,29.97,SE,135,6.3,6.3,9,0.00,,,0.00,VWS V14.01,2013-04-15 20:59:00,
2013-04-15 17:00:00,95.5,27.8,29.97,East,90,4.0,6.3,9,0.00,,,0.00,VWS V14.01,2013-04-15 21:00:00,
2013-04-15 17:02:00,95.9,28.1,29.97,SE,135,2.0,4.0,9,0.00,,,0.00,VWS V14.01,2013-04-15 21:02:00,
2013-04-15 17:03:00,91.0,27.0,29.97,WNW,292,4.0,6.5,10,0.00,,,0.00,VWS V14.01,2013-04-15 21:03:00,
2013-04-15 17:04:00,95.4,27.7,29.97,SE,135,3.6,3.6,9,0.00,,,0.00,VWS V14.01,2013-04-15 21:04:00,
2013-04-15 17:05:00,95.5,27.8,29.97,ESE,112,2.9,3.6,9,0.00,,,0.00,VWS V14.01,2013-04-15 21:05:00,
2013-04-15 17:06:00,95.9,28.1,29.97,SSE,158,2.5,2.9,9,0.00,,,0.00,VWS V14.01,2013-04-15 21:06:00,
2013-04-15 17:07:00,96.4,28.5,29.97,ESE,112,3.1,3.1,9,0.00,,,0.00,VWS V14.01,2013-04-15 21:07:00,
2013-04-15 17:08:00,90.1,26.3,29.97,WNW,292,3.1,5.6,10,0.00,,,0.00,VWS V14.01,2013-04-15 21:08:00,
2013-04-15 17:09:00,97.0,26.0,29.97,ESE,112,4.3,5.6,8,0.00,,,0.00,VWS V14.01,2013-04-15 21:09:00,
2013-04-15 17:10:00,97.0,26.0,29.97,SE,135,2.5,5.6,8,0.00,,,0.00,VWS V14.01,2013-04-15 21:10:00,
2013-04-15 17:11:00,97.0,26.0,29.97,SE,135,3.4,3.4,8,0.00,,,0.00,VWS V14.01,2013-04-15 21:11:00,
2013-04-15 17:12:00,97.2,26.1,29.97,SE,135,2.9,4.0,8,0.00,,,0.00,VWS V14.01,2013-04-15 21:12:00,
2013-04-15 17:13:00,89.8,26.0,29.97,WNW,292,3.8,7.2,10,0.00,,,0.00,VWS V14.01,2013-04-15 21:13:00,
2013-04-15 17:14:00,97.2,26.1,29.97,ESE,112,5.8,5.8,8,0.00,,,0.00,VWS V14.01,2013-04-15 21:14:00,
2013-04-15 17:15:00,97.0,26.0,29.97,ESE,112,5.8,5.8,8,0.00,,,0.00,VWS V14.01,2013-04-15 21:15:00,
2013-04-15 17:16:00,96.8,25.9,29.97,ESE,112,5.6,5.8,8,0.00,,,0.00,VWS V14.01,2013-04-15 21:16:00,
2013-04-15 17:17:00,96.6,28.6,29.97,ESE,112,2.9,6.0,9,0.00,,,0.00,VWS V14.01,2013-04-15 21:17:00,
2013-04-15 17:18:00,89.8,26.0,29.97,WNW,292,5.8,6.3,10,0.00,,,0.00,VWS V14.01,2013-04-15 21:18:00,
2013-04-15 17:19:00,97.0,26.0,29.97,WSW,248,1.3,4.3,8,0.00,,,0.00,VWS V14.01,2013-04-15 21:19:00,
2013-04-15 17:20:00,97.0,26.0,29.97,South,180,1.3,2.5,8,0.00,,,0.00,VWS V14.01,2013-04-15 21:20:00,
2013-04-15 17:21:00,97.0,26.0,29.97,NNW,338,2.5,2.7,8,0.00,,,0.00,VWS V14.01,2013-04-15 21:21:00,
2013-04-15 17:22:00,98.1,26.8,29.97,North,0,2.5,3.1,8,0.00,,,0.00,VWS V14.01,2013-04-15 21:22:00,
2013-04-15 17:23:00,90.0,26.2,29.97,WNW,292,5.4,5.6,10,0.00,,,0.00,VWS V14.01,2013-04-15 21:23:00,
2013-04-15 17:24:00,97.7,26.5,29.97,West,270,7.4,7.4,8,0.00,,,0.00,VWS V14.01,2013-04-15 21:24:00,
2013-04-15 17:25:00,97.2,26.1,29.97,WNW,292,7.4,8.7,8,0.00,,,0.00,VWS V14.01,2013-04-15 21:25:00,
2013-04-15 17:26:00,96.6,28.6,29.97,NW,315,3.6,7.4,9,0.00,,,0.00,VWS V14.01,2013-04-15 21:26:00,
2013-04-15 17:27:00,96.6,28.6,29.97,West,270,4.3,4.3,9,0.00,,,0.00,VWS V14.01,2013-04-15 21:27:00,
2013-04-15 17:28:00,89.6,25.9,29.97,WSW,248,3.8,6.3,10,0.00,,,0.00,VWS V14.01,2013-04-15 21:28:00,
2013-04-15 17:29:00,95.5,27.8,29.97,West,270,5.8,6.0,9,0.00,,,0.00,VWS V14.01,2013-04-15 21:29:00,
2013-04-15 17:30:00,95.2,27.5,29.97,West,270,5.4,7.6,9,0.00,,,0.00,VWS V14.01,2013-04-15 21:30:00,
2013-04-15 17:31:00,95.2,27.5,29.97,NNE,22,5.6,5.8,9,0.00,,,0.00,VWS V14.01,2013-04-15 21:31:00,
2013-04-15 17:32:00,95.2,27.5,29.97,West,270,4.3,5.6,9,0.00,,,0.00,VWS V14.01,2013-04-15 21:32:00,
2013-04-15 17:33:00,89.1,25.5,29.97,West,270,3.6,8.5,10,0.00,,,0.00,VWS V14.01,2013-04-15 21:33:00,
2013-04-15 17:34:00,95.5,27.8,29.97,West,270,2.0,3.4,9,0.00,,,0.00,VWS V14.01,2013-04-15 21:34:00,
2013-04-15 17:35:00,95.5,27.8,29.97,SW,225,1.3,4.0,9,0.00,,,0.00,VWS V14.01,2013-04-15 21:35:00,
2013-04-15 17:36:00,95.5,27.8,29.97,West,270,3.1,3.1,9,0.00,,,0.00,VWS V14.01,2013-04-15 21:36:00,
2013-04-15 17:37:00,95.7,27.9,29.97,West,270,3.4,3.4,9,0.00,,,0.00,VWS V14.01,2013-04-15 21:37:00,
2013-04-15 17:38:00,95.0,27.4,29.97,West,270,6.7,6.7,9,0.00,,,0.00,VWS V14.01,2013-04-15 21:38:00,
2013-04-15 17:39:00,88.7,25.2,29.97,WNW,292,5.8,5.8,10,0.00,,,0.00,VWS V14.01,2013-04-15 21:39:00,
2013-04-15 17:40:00,94.5,27.0,29.97,West,270,4.0,4.7,9,0.00,,,0.00,VWS V14.01,2013-04-15 21:40:00,
2013-04-15 17:41:00,94.3,26.9,29.97,NW,315,4.3,5.6,9,0.00,,,0.00,VWS V14.01,2013-04-15 21:41:00,
2013-04-15 17:42:00,94.5,27.0,29.97,West,270,4.0,4.3,9,0.00,,,0.00,VWS V14.01,2013-04-15 21:42:00,
2013-04-15 17:43:00,94.3,26.9,29.97,WNW,292,4.0,9.0,9,0.00,,,0.00,VWS V14.01,2013-04-15 21:43:00,
2013-04-15 17:44:00,88.2,24.8,29.97,West,270,5.4,7.8,10,0.00,,,0.00,VWS V14.01,2013-04-15 21:44:00,
2013-04-15 17:45:00,93.2,26.1,29.97,NNW,338,9.0,9.0,9,0.00,,,0.00,VWS V14.01,2013-04-15 21:45:00,
2013-04-15 17:46:00,93.2,26.1,29.97,North,0,7.6,9.0,9,0.00,,,0.00,VWS V14.01,2013-04-15 21:46:00,
2013-04-15 17:47:00,92.8,25.8,29.97,West,270,4.3,7.6,9,0.00,,,0.00,VWS V14.01,2013-04-15 21:47:00,
2013-04-15 17:48:00,92.8,25.8,29.97,NW,315,5.6,7.6,9,0.00,,,0.00,VWS V14.01,2013-04-15 21:48:00,
2013-04-15 17:49:00,88.0,24.7,29.97,SSW,202,6.5,6.5,10,0.00,,,0.00,VWS V14.01,2013-04-15 21:49:00,
2013-04-15 17:50:00,92.5,25.5,29.97,WNW,292,5.6,6.3,9,0.00,,,0.00,VWS V14.01,2013-04-15 21:50:00,
2013-04-15 17:52:00,92.3,25.4,29.97,WNW,292,5.8,6.0,9,0.00,,,0.00,VWS V14.01,2013-04-15 21:52:00,
2013-04-15 17:53:00,92.3,25.4,29.97,NNW,338,4.7,8.5,9,0.00,,,0.00,VWS V14.01,2013-04-15 21:53:00,
2013-04-15 17:54:00,87.4,26.5,29.97,WSW,248,5.8,7.6,11,0.00,,,0.00,VWS V14.01,2013-04-15 21:54:00,
2013-04-15 17:55:00,92.5,25.5,29.97,West,270,5.6,6.5,9,0.00,,,0.00,VWS V14.01,2013-04-15 21:55:00,
2013-04-15 17:56:00,92.5,25.5,29.97,NW,315,3.6,5.6,9,0.00,,,0.00,VWS V14.01,2013-04-15 21:56:00,
2013-04-15 17:57:00,92.7,25.6,29.97,WNW,292,4.3,4.3,9,0.00,,,0.00,VWS V14.01,2013-04-15 21:57:00,
2013-04-15 17:58:00,92.7,25.6,29.97,West,270,4.9,4.9,9,0.00,,,0.00,VWS V14.01,2013-04-15 21:58:00,
2013-04-15 17:59:00,87.3,26.4,29.97,West,270,3.4,6.5,11,0.00,,,0.00,VWS V14.01,2013-04-15 21:59:00,
2013-04-15 18:01:00,93.0,25.9,29.97,West,270,6.7,6.7,9,0.00,,,0.00,VWS V14.01,2013-04-15 22:01:00,
2013-04-15 18:02:00,93.0,25.9,29.97,WNW,292,3.8,6.7,9,0.00,,,0.00,VWS V14.01,2013-04-15 22:02:00,
2013-04-15 18:03:00,92.8,25.8,29.97,WNW,292,5.6,6.5,9,0.00,,,0.00,VWS V14.01,2013-04-15 22:03:00,
2013-04-15 18:04:00,87.3,26.4,29.97,WNW,292,5.4,5.4,11,0.00,,,0.00,VWS V14.01,2013-04-15 22:04:00,
2013-04-15 18:05:00,92.5,25.5,29.97,West,270,4.9,6.3,9,0.00,,,0.00,VWS V14.01,2013-04-15 22:05:00,
2013-04-15 18:06:00,92.5,25.5,29.97,West,270,4.9,4.9,9,0.00,,,0.00,VWS V14.01,2013-04-15 22:06:00,
2013-04-15 18:07:00,92.3,25.4,29.97,West,270,5.8,7.6,9,0.00,,,0.00,VWS V14.01,2013-04-15 22:07:00,
2013-04-15 18:08:00,92.1,25.2,29.97,West,270,3.6,7.2,9,0.00,,,0.00,VWS V14.01,2013-04-15 22:08:00,
2013-04-15 18:09:00,86.7,26.0,29.97,NW,315,4.0,7.8,11,0.00,,,0.00,VWS V14.01,2013-04-15 22:09:00,
2013-04-15 18:10:00,92.1,25.2,29.97,West,270,3.6,5.6,9,0.00,,,0.00,VWS V14.01,2013-04-15 22:10:00,
2013-04-15 18:11:00,92.1,25.2,29.97,WNW,292,5.6,5.6,9,0.00,,,0.00,VWS V14.01,2013-04-15 22:11:00,
2013-04-15 18:13:00,91.8,25.0,29.97,West,270,6.5,6.5,9,0.00,,,0.00,VWS V14.01,2013-04-15 22:13:00,
2013-04-15 18:14:00,86.9,26.1,29.97,WSW,248,6.5,6.5,11,0.00,,,0.00,VWS V14.01,2013-04-15 22:14:00,
2013-04-15 18:15:00,91.0,27.0,29.97,West,270,5.6,5.6,10,0.00,,,0.00,VWS V14.01,2013-04-15 22:15:00,
2013-04-15 18:16:00,90.9,26.8,29.97,West,270,6.0,7.6,10,0.00,,,0.00,VWS V14.01,2013-04-15 22:16:00,
2013-04-15 18:17:00,90.9,26.8,29.97,ESE,112,5.4,7.8,10,0.00,,,0.00,VWS V14.01,2013-04-15 22:17:00,
2013-04-15 18:18:00,91.0,27.0,29.97,ESE,112,5.4,5.4,10,0.00,,,0.00,VWS V14.01,2013-04-15 22:18:00,
2013-04-15 18:19:00,86.5,25.9,29.97,NNE,22,5.4,5.4,11,0.00,,,0.00,VWS V14.01,2013-04-15 22:19:00,
2013-04-15 18:20:00,91.0,27.0,29.97,West,270,5.4,6.3,10,0.00,,,0.00,VWS V14.01,2013-04-15 22:20:00,
2013-04-15 18:21:00,91.0,27.0,29.97,West,270,4.3,5.4,10,0.00,,,0.00,VWS V14.01,2013-04-15 22:21:00,
2013-04-15 18:22:00,91.0,27.0,29.97,West,270,3.4,4.3,10,0.00,,,0.00,VWS V14.01,2013-04-15 22:22:00,
2013-04-15 18:23:00,91.6,24.8,29.97,WSW,248,5.6,5.8,9,0.00,,,0.00,VWS V14.01,2013-04-15 22:23:00,
2013-04-15 18:24:00,86.5,25.9,29.97,West,270,3.4,6.0,11,0.00,,,0.00,VWS V14.01,2013-04-15 22:24:00,
2013-04-15 18:25:00,91.8,25.0,29.97,WNW,292,3.6,7.2,9,0.00,,,0.00,VWS V14.01,2013-04-15 22:25:00,
2013-04-15 18:26:00,91.6,24.8,29.97,West,270,6.9,7.6,9,0.00,,,0.00,VWS V14.01,2013-04-15 22:26:00,
2013-04-15 18:27:00,91.4,24.7,29.97,WSW,248,3.6,6.9,9,0.00,,,0.00,VWS V14.01,2013-04-15 22:27:00,
2013-04-15 18:28:00,91.6,24.8,29.97,West,270,4.7,4.7,9,0.00,,,0.00,VWS V14.01,2013-04-15 22:28:00,
2013-04-15 18:29:00,86.0,25.4,30.00,North,0,4.0,4.0,11,0.00,,,0.00,VWS V14.01,2013-04-15 22:29:00,
2013-04-15 18:30:00,91.6,24.8,29.97,WNW,292,5.4,8.1,9,0.00,,,0.00,VWS V14.01,2013-04-15 22:30:00,
2013-04-15 18:31:00,90.9,26.8,29.97,West,270,6.3,6.3,10,0.00,,,0.00,VWS V14.01,2013-04-15 22:31:00,
2013-04-15 18:32:00,90.7,26.7,29.97,WNW,292,5.8,6.3,10,0.00,,,0.00,VWS V14.01,2013-04-15 22:32:00,
2013-04-15 18:34:00,85.5,25.0,30.00,WNW,292,3.6,3.6,11,0.00,,,0.00,VWS V14.01,2013-04-15 22:34:00,
2013-04-15 18:35:00,90.9,26.8,29.97,West,270,3.1,6.0,10,0.00,,,0.00,VWS V14.01,2013-04-15 22:35:00,
2013-04-15 18:36:00,91.0,27.0,29.97,WSW,248,6.5,6.5,10,0.00,,,0.00,VWS V14.01,2013-04-15 22:36:00,
2013-04-15 18:37:00,91.0,27.0,29.97,WNW,292,4.0,6.5,10,0.00,,,0.00,VWS V14.01,2013-04-15 22:37:00,
2013-04-15 18:38:00,91.4,24.7,29.97,West,270,6.0,6.0,9,0.00,,,0.00,VWS V14.01,2013-04-15 22:38:00,
2013-04-15 18:39:00,85.3,24.9,30.00,West,270,6.3,7.6,11,0.00,,,0.00,VWS V14.01,2013-04-15 22:39:00,
2013-04-15 18:40:00,91.4,24.7,29.97,WNW,292,4.9,5.6,9,0.00,,,0.00,VWS V14.01,2013-04-15 22:40:00,
2013-04-15 18:41:00,90.3,26.4,29.97,NNW,338,3.6,4.9,10,0.00,,,0.00,VWS V14.01,2013-04-15 22:41:00,
2013-04-15 18:42:00,90.1,26.3,29.97,WNW,292,3.1,5.6,10,0.00,,,0.00,VWS V14.01,2013-04-15 22:42:00,
2013-04-15 18:43:00,90.1,26.3,29.97,WNW,292,3.1,3.1,10,0.00,,,0.00,VWS V14.01,2013-04-15 22:43:00,
2013-04-15 18:44:00,84.7,24.5,30.00,WNW,292,3.8,5.4,11,0.00,,,0.00,VWS V14.01,2013-04-15 22:44:00,
2013-04-15 18:45:00,90.1,26.3,29.97,WNW,292,6.5,6.5,10,0.00,,,0.00,VWS V14.01,2013-04-15 22:45:00,
2013-04-15 18:46:00,89.8,26.0,29.97,WSW,248,4.5,6.5,10,0.00,,,0.00,VWS V14.01,2013-04-15 22:46:00,
2013-04-15 18:47:00,89.8,26.0,29.97,WNW,292,3.8,7.2,10,0.00,,,0.00,VWS V14.01,2013-04-15 22:47:00,
2013-04-15 18:48:00,89.6,25.9,29.97,West,270,5.8,8.7,10,0.00,,,0.00,VWS V14.01,2013-04-15 22:48:00,
2013-04-15 18:49:00,84.6,24.3,30.00,West,270,4.7,4.7,11,0.00,,,0.00,VWS V14.01,2013-04-15 22:49:00,
2013-04-15 18:50:00,90.0,26.2,29.97,WNW,292,6.3,6.3,10,0.00,,,0.00,VWS V14.01,2013-04-15 22:50:00,
2013-04-15 18:51:00,90.0,26.2,29.97,WSW,248,5.8,6.3,10,0.00,,,0.00,VWS V14.01,2013-04-15 22:51:00,
2013-04-15 18:52:00,89.8,26.0,29.97,WNW,292,5.8,6.3,10,0.00,,,0.00,VWS V14.01,2013-04-15 22:52:00,
2013-04-15 18:53:00,90.0,26.2,29.97,North,0,4.9,6.0,10,0.00,,,0.00,VWS V14.01,2013-04-15 22:53:00,
2013-04-15 18:54:00,84.4,24.2,30.00,NW,315,7.6,7.6,11,0.00,,,0.00,VWS V14.01,2013-04-15 22:54:00,
2013-04-15 18:55:00,90.0,26.2,29.97,West,270,5.8,6.0,10,0.00,,,0.00,VWS V14.01,2013-04-15 22:55:00,
2013-04-15 18:56:00,89.8,26.0,29.97,WSW,248,2.7,5.8,10,0.00,,,0.00,VWS V14.01,2013-04-15 22:56:00,
2013-04-15 18:57:00,90.0,26.2,29.97,WNW,292,5.4,5.6,10,0.00,,,0.00,VWS V14.01,2013-04-15 22:57:00,
2013-04-15 18:58:00,90.1,26.3,29.97,West,270,4.7,5.4,10,0.00,,,0.00,VWS V14.01,2013-04-15 22:58:00,
2013-04-15 18:59:00,83.5,23.5,30.00,East,90,5.6,5.6,11,0.00,,,0.00,VWS V14.01,2013-04-15 22:59:00,
2013-04-15 19:00:00,89.8,26.0,29.97,West,270,2.7,5.8,10,0.00,,,0.00,VWS V14.01,2013-04-15 23:00:00,
2013-04-15 19:01:00,89.8,26.0,29.97,West,270,4.9,5.8,10,0.00,,,0.00,VWS V14.01,2013-04-15 23:01:00,
2013-04-15 19:02:00,89.6,25.9,29.97,WSW,248,3.8,6.3,10,0.00,,,0.00,VWS V14.01,2013-04-15 23:02:00,
2013-04-15 19:03:00,89.6,25.9,29.97,West,270,7.6,7.6,10,0.00,,,0.00,VWS V14.01,2013-04-15 23:03:00,
2013-04-15 19:04:00,82.4,28.5,30.00,West,270,4.3,4.7,14,0.00,,,0.00,VWS V14.01,2013-04-15 23:04:00,
2013-04-15 19:05:00,89.2,25.6,29.97,West,270,6.3,6.5,10,0.00,,,0.00,VWS V14.01,2013-04-15 23:05:00,
2013-04-15 19:06:00,89.2,25.6,29.97,WSW,248,8.5,8.5,10,0.00,,,0.00,VWS V14.01,2013-04-15 23:06:00,
2013-04-15 19:07:00,89.1,25.5,29.97,West,270,3.6,8.5,10,0.00,,,0.00,VWS V14.01,2013-04-15 23:07:00,
2013-04-15 19:08:00,88.9,25.3,29.97,ENE,68,5.8,5.8,10,0.00,,,0.00,VWS V14.01,2013-04-15 23:08:00,
2013-04-15 19:09:00,82.0,28.2,30.00,WNW,292,3.8,3.8,14,0.00,,,0.00,VWS V14.01,2013-04-15 23:09:00,
2013-04-15 19:10:00,88.7,25.2,29.97,WSW,248,5.8,6.5,10,0.00,,,0.00,VWS V14.01,2013-04-15 23:10:00,
2013-04-15 19:11:00,88.7,25.2,29.97,SW,225,5.6,5.8,10,0.00,,,0.00,VWS V14.01,2013-04-15 23:11:00,
2013-04-15 19:12:00,88.7,25.2,29.97,WNW,292,5.8,5.8,10,0.00,,,0.00,VWS V14.01,2013-04-15 23:12:00,
2013-04-15 19:13:00,88.7,25.2,29.97,WSW,248,6.0,6.0,10,0.00,,,0.00,VWS V14.01,2013-04-15 23:13:00,
2013-04-15 19:14:00,81.7,27.9,30.00,West,270,2.0,3.8,14,0.00,,,0.00,VWS V14.01,2013-04-15 23:14:00,
2013-04-15 19:15:00,88.7,25.2,29.97,West,270,5.4,9.4,10,0.00,,,0.00,VWS V14.01,2013-04-15 23:15:00,
2013-04-15 19:16:00,88.3,24.9,29.97,WNW,292,5.6,6.7,10,0.00,,,0.00,VWS V14.01,2013-04-15 23:16:00,
2013-04-15 19:17:00,88.2,24.8,29.97,West,270,5.4,7.8,10,0.00,,,0.00,VWS V14.01,2013-04-15 23:17:00,
2013-04-15 19:18:00,88.0,24.7,29.97,West,270,6.3,6.5,10,0.00,,,0.00,VWS V14.01,2013-04-15 23:18:00,
2013-04-15 19:19:00,81.7,27.9,30.00,SW,225,3.6,4.9,14,0.00,,,0.00,VWS V14.01,2013-04-15 23:19:00,
2013-04-15 19:20:00,88.0,24.7,29.97,West,270,6.0,6.0,10,0.00,,,0.00,VWS V14.01,2013-04-15 23:20:00,
2013-04-15 19:21:00,88.0,24.7,29.97,SSW,202,6.5,6.5,10,0.00,,,0.00,VWS V14.01,2013-04-15 23:21:00,
2013-04-15 19:22:00,88.0,24.7,29.97,West,270,6.0,6.5,10,0.00,,,0.00,VWS V14.01,2013-04-15 23:22:00,
2013-04-15 19:23:00,88.0,24.7,29.97,West,270,6.0,6.0,10,0.00,,,0.00,VWS V14.01,2013-04-15 23:23:00,
2013-04-15 19:24:00,81.1,32.2,30.03,West,270,4.3,4.3,17,0.00,,,0.00,VWS V14.01,2013-04-15 23:24:00,
2013-04-15 19:25:00,87.6,26.7,29.97,WSW,248,5.6,6.3,11,0.00,,,0.00,VWS V14.01,2013-04-15 23:25:00,
2013-04-15 19:26:00,87.6,26.7,29.97,West,270,3.4,7.4,11,0.00,,,0.00,VWS V14.01,2013-04-15 23:26:00,
2013-04-15 19:27:00,87.4,26.5,29.97,WSW,248,5.8,7.6,11,0.00,,,0.00,VWS V14.01,2013-04-15 23:27:00,
2013-04-15 19:28:00,87.4,26.5,29.97,West,270,4.9,5.8,11,0.00,,,0.00,VWS V14.01,2013-04-15 23:28:00,
2013-04-15 19:29:00,80.4,31.7,30.03,WNW,292,2.7,3.4,17,0.00,,,0.00,VWS V14.01,2013-04-15 23:29:00,
2013-04-15 19:30:00,87.4,26.5,29.97,NNW,338,3.6,5.4,11,0.00,,,0.00,VWS V14.01,2013-04-15 23:30:00,
2013-04-15 19:31:00,87.3,26.4,29.97,WSW,248,6.0,6.0,11,0.00,,,0.00,VWS V14.01,2013-04-15 23:31:00,
2013-04-15 19:32:00,87.3,26.4,29.97,West,270,3.4,6.5,11,0.00,,,0.00,VWS V14.01,2013-04-15 23:32:00,
2013-04-15 19:33:00,87.4,26.5,29.97,WSW,248,5.6,6.3,11,0.00,,,0.00,VWS V14.01,2013-04-15 23:33:00,
2013-04-15 19:34:00,80.1,35.4,30.03,WSW,248,2.7,2.9,20,0.00,,,0.00,VWS V14.01,2013-04-15 23:34:00,
2013-04-15 19:35:00,87.3,26.4,29.97,West,270,4.3,6.5,11,0.00,,,0.00,VWS V14.01,2013-04-15 23:35:00,
2013-04-15 19:36:00,87.3,26.4,29.97,SW,225,5.6,5.6,11,0.00,,,0.00,VWS V14.01,2013-04-15 23:36:00,
2013-04-15 19:37:00,87.3,26.4,29.97,West,270,4.9,5.6,11,0.00,,,0.00,VWS V14.01,2013-04-15 23:37:00,
2013-04-15 19:38:00,87.1,26.3,29.97,West,270,3.4,5.8,11,0.00,,,0.00,VWS V14.01,2013-04-15 23:38:00,
2013-04-15 19:39:00,79.7,31.1,30.03,NNW,338,5.6,5.6,17,0.00,,,0.00,VWS V14.01,2013-04-15 23:39:00,
2013-04-15 19:40:00,87.1,26.3,29.97,West,270,4.7,5.6,11,0.00,,,0.00,VWS V14.01,2013-04-15 23:40:00,
2013-04-15 19:41:00,86.9,26.1,29.97,West,270,7.8,7.8,11,0.00,,,0.00,VWS V14.01,2013-04-15 23:41:00,
2013-04-15 19:42:00,86.7,26.0,29.97,NW,315,4.0,7.8,11,0.00,,,0.00,VWS V14.01,2013-04-15 23:42:00,
2013-04-15 19:43:00,86.9,26.1,29.97,West,270,5.4,6.5,11,0.00,,,0.00,VWS V14.01,2013-04-15 23:43:00,
2013-04-15 19:44:00,79.2,34.7,30.03,West,270,3.6,5.8,20,0.00,,,0.00,VWS V14.01,2013-04-15 23:44:00,
2013-04-15 19:45:00,86.5,25.9,29.97,WSW,248,2.5,5.8,11,0.00,,,0.00,VWS V14.01,2013-04-15 23:45:00,
2013-04-15 19:46:00,86.9,26.1,29.97,South,180,2.7,2.9,11,0.00,,,0.00,VWS V14.01,2013-04-15 23:46:00,
2013-04-15 19:47:00,86.9,26.1,29.97,West,270,3.6,3.6,11,0.00,,,0.00,VWS V14.01,2013-04-15 23:47:00,
2013-04-15 19:48:00,86.9,26.1,29.97,SSW,202,4.9,6.5,11,0.00,,,0.00,VWS V14.01,2013-04-15 23:48:00,
2013-04-15 19:49:00,79.0,34.5,30.03,WNW,292,4.3,4.3,20,0.00,,,0.00,VWS V14.01,2013-04-15 23:49:00,
2013-04-15 19:50:00,86.7,26.0,29.97,WSW,248,4.0,5.8,11,0.00,,,0.00,VWS V14.01,2013-04-15 23:50:00,
2013-04-15 19:51:00,86.7,26.0,29.97,East,90,2.7,802.0,11,0.00,,,0.00,VWS V14.01,2013-04-15 23:51:00,
2013-04-15 19:52:00,86.7,26.0,29.97,NNE,22,5.4,802.0,11,0.00,,,0.00,VWS V14.01,2013-04-15 23:52:00,
2013-04-15 19:53:00,86.5,25.9,29.97,WNW,292,2.7,5.4,11,0.00,,,0.00,VWS V14.01,2013-04-15 23:53:00,
2013-04-15 19:54:00,78.6,34.2,30.03,West,270,4.3,4.3,20,0.00,,,0.00,VWS V14.01,2013-04-15 23:54:00,
2013-04-15 19:55:00,86.5,25.9,29.97,WNW,292,4.9,5.6,11,0.00,,,0.00,VWS V14.01,2013-04-15 23:55:00,
2013-04-15 19:56:00,86.5,25.9,29.97,ENE,68,3.6,4.9,11,0.00,,,0.00,VWS V14.01,2013-04-15 23:56:00,
2013-04-15 19:57:00,86.5,25.9,29.97,SW,225,6.0,6.0,11,0.00,,,0.00,VWS V14.01,2013-04-15 23:57:00,
2013-04-15 19:58:00,86.2,25.6,30.00,WNW,292,3.1,6.0,11,0.00,,,0.00,VWS V14.01,2013-04-15 23:58:00,
2013-04-15 19:59:00,78.3,33.9,30.03,NW,315,2.9,5.8,20,0.00,,,0.00,VWS V14.01,2013-04-15 23:59:00,
2013-04-15 20:00:00,86.2,25.6,30.00,WNW,292,5.4,5.4,11,0.00,,,0.00,VWS V14.01,2013-04-16 00:00:00,
2013-04-15 20:01:00,86.0,25.4,30.00,NNE,22,5.6,5.6,11,0.00,,,0.00,VWS V14.01,2013-04-16 00:01:00,
2013-04-15 20:02:00,86.0,25.4,30.00,North,0,4.0,5.6,11,0.00,,,0.00,VWS V14.01,2013-04-16 00:02:00,
2013-04-15 20:03:00,86.0,25.4,30.00,West,270,2.9,4.0,11,0.00,,,0.00,VWS V14.01,2013-04-16 00:03:00,
2013-04-15 20:04:00,78.1,33.8,30.03,NNE,22,4.0,4.3,20,0.00,,,0.00,VWS V14.01,2013-04-16 00:04:00,
2013-04-15 20:06:00,85.8,25.3,30.00,WSW,248,4.3,6.5,11,0.00,,,0.00,VWS V14.01,2013-04-16 00:06:00,
2013-04-15 20:07:00,85.5,25.0,30.00,WNW,292,3.6,5.8,11,0.00,,,0.00,VWS V14.01,2013-04-16 00:07:00,
2013-04-15 20:08:00,85.5,25.0,30.00,West,270,4.9,6.0,11,0.00,,,0.00,VWS V14.01,2013-04-16 00:08:00,
2013-04-15 20:09:00,77.7,33.5,30.03,West,270,1.1,3.1,20,0.00,,,0.00,VWS V14.01,2013-04-16 00:09:00,
2013-04-15 20:10:00,85.3,24.9,30.00,West,270,3.4,5.4,11,0.00,,,0.00,VWS V14.01,2013-04-16 00:10:00,
2013-04-15 20:11:00,85.3,24.9,30.00,West,270,6.3,6.3,11,0.00,,,0.00,VWS V14.01,2013-04-16 00:11:00,
2013-04-15 20:12:00,84.9,24.6,30.00,WNW,292,5.4,7.6,11,0.00,,,0.00,VWS V14.01,2013-04-16 00:12:00,
2013-04-15 20:13:00,84.9,24.6,30.00,SSW,202,3.4,5.4,11,0.00,,,0.00,VWS V14.01,2013-04-16 00:13:00,
2013-04-15 20:14:00,77.5,34.6,30.03,West,270,2.9,2.9,21,0.00,,,0.00,VWS V14.01,2013-04-16 00:14:00,
2013-04-15 20:15:00,84.9,24.6,30.00,West,270,2.7,3.8,11,0.00,,,0.00,VWS V14.01,2013-04-16 00:15:00,
2013-04-15 20:16:00,84.9,24.6,30.00,WSW,248,3.4,4.0,11,0.00,,,0.00,VWS V14.01,2013-04-16 00:16:00,
2013-04-15 20:17:00,84.7,24.5,30.00,WSW,248,5.4,5.4,11,0.00,,,0.00,VWS V14.01,2013-04-16 00:17:00,
2013-04-15 20:18:00,84.7,24.5,30.00,West,270,4.9,6.3,11,0.00,,,0.00,VWS V14.01,2013-04-16 00:18:00,
2013-04-15 20:19:00,77.4,34.4,30.03,WNW,292,1.3,2.7,21,0.00,,,0.00,VWS V14.01,2013-04-16 00:19:00,
2013-04-15 20:20:00,84.7,24.5,30.00,WNW,292,4.3,5.8,11,0.00,,,0.00,VWS V14.01,2013-04-16 00:20:00,
2013-04-15 20:21:00,84.7,24.5,30.00,WNW,292,4.3,4.3,11,0.00,,,0.00,VWS V14.01,2013-04-16 00:21:00,
2013-04-15 20:22:00,84.7,24.5,30.00,WNW,292,4.3,4.3,11,0.00,,,0.00,VWS V14.01,2013-04-16 00:22:00,
2013-04-15 20:23:00,84.6,24.3,30.00,ESE,112,2.9,4.7,11,0.00,,,0.00,VWS V14.01,2013-04-16 00:23:00,
2013-04-15 20:24:00,77.2,34.3,30.03,WNW,292,2.9,2.9,21,0.00,,,0.00,VWS V14.01,2013-04-16 00:24:00,
2013-04-15 20:25:00,84.6,24.3,30.00,West,270,4.0,4.3,11,0.00,,,0.00,VWS V14.01,2013-04-16 00:25:00,
2013-04-15 20:26:00,84.4,24.2,30.00,WSW,248,4.5,5.8,11,0.00,,,0.00,VWS V14.01,2013-04-16 00:26:00,
2013-04-15 20:27:00,84.4,24.2,30.00,West,270,7.4,7.4,11,0.00,,,0.00,VWS V14.01,2013-04-16 00:27:00,
2013-04-15 20:28:00,84.0,23.9,30.00,West,270,6.0,7.6,11,0.00,,,0.00,VWS V14.01,2013-04-16 00:28:00,
2013-04-15 20:29:00,77.0,34.1,30.03,West,270,2.9,2.9,21,0.00,,,0.00,VWS V14.01,2013-04-16 00:29:00,
2013-04-15 20:30:00,83.8,23.8,30.00,West,270,5.8,5.8,11,0.00,,,0.00,VWS V14.01,2013-04-16 00:30:00,
2013-04-15 20:31:00,83.7,23.6,30.00,West,270,2.5,5.8,11,0.00,,,0.00,VWS V14.01,2013-04-16 00:31:00,
2013-04-15 20:32:00,83.5,23.5,30.00,WNW,292,2.9,4.3,11,0.00,,,0.00,VWS V14.01,2013-04-16 00:32:00,
2013-04-15 20:33:00,83.3,23.4,30.00,WNW,292,5.6,5.6,11,0.00,,,0.00,VWS V14.01,2013-04-16 00:33:00,
2013-04-15 20:34:00,76.8,35.1,30.03,West,270,2.5,2.7,22,0.00,,,0.00,VWS V14.01,2013-04-16 00:34:00,
2013-04-15 20:35:00,83.1,29.0,30.00,West,270,3.8,3.8,14,0.00,,,0.00,VWS V14.01,2013-04-16 00:35:00,
2013-04-15 20:36:00,82.8,28.8,30.00,ESE,112,3.4,4.9,14,0.00,,,0.00,VWS V14.01,2013-04-16 00:36:00,
2013-04-15 20:37:00,82.6,28.6,30.00,SW,225,4.3,4.3,14,0.00,,,0.00,VWS V14.01,2013-04-16 00:37:00,
2013-04-15 20:38:00,82.4,28.5,30.00,West,270,4.0,4.7,14,0.00,,,0.00,VWS V14.01,2013-04-16 00:38:00,
2013-04-15 20:39:00,76.6,35.0,30.03,West,270,2.9,3.1,22,0.00,,,0.00,VWS V14.01,2013-04-16 00:39:00,
2013-04-15 20:40:00,82.0,28.2,30.00,WSW,248,4.0,4.0,14,0.00,,,0.00,VWS V14.01,2013-04-16 00:40:00,
2013-04-15 20:41:00,82.0,28.2,30.00,WNW,292,4.0,4.0,14,0.00,,,0.00,VWS V14.01,2013-04-16 00:41:00,
2013-04-15 20:42:00,82.0,28.2,30.00,NW,315,3.4,4.0,14,0.00,,,0.00,VWS V14.01,2013-04-16 00:42:00,
2013-04-15 20:43:00,82.0,28.2,30.00,WNW,292,3.8,3.8,14,0.00,,,0.00,VWS V14.01,2013-04-16 00:43:00,
2013-04-15 20:44:00,76.5,34.8,30.03,NNW,338,2.7,2.9,22,0.00,,,0.00,VWS V14.01,2013-04-16 00:44:00,
2013-04-15 20:45:00,81.9,28.0,30.00,SSW,202,3.4,4.0,14,0.00,,,0.00,VWS V14.01,2013-04-16 00:45:00,
2013-04-15 20:46:00,81.9,28.0,30.00,WSW,248,2.7,3.4,14,0.00,,,0.00,VWS V14.01,2013-04-16 00:46:00,
2013-04-15 20:47:00,81.7,27.9,30.00,WNW,292,2.5,2.7,14,0.00,,,0.00,VWS V14.01,2013-04-16 00:47:00,
2013-04-15 20:49:00,76.3,34.7,30.03,WNW,292,3.1,3.1,22,0.00,,,0.00,VWS V14.01,2013-04-16 00:49:00,
2013-04-15 20:50:00,81.7,27.9,30.00,WSW,248,2.9,3.6,14,0.00,,,0.00,VWS V14.01,2013-04-16 00:50:00,
2013-04-15 20:51:00,81.7,27.9,30.00,WNW,292,4.9,4.9,14,0.00,,,0.00,VWS V14.01,2013-04-16 00:51:00,
2013-04-15 20:53:00,81.5,32.5,30.00,West,270,3.8,4.9,17,0.00,,,0.00,VWS V14.01,2013-04-16 00:53:00,
2013-04-15 20:54:00,76.3,35.8,30.06,WSW,248,2.7,2.7,23,0.00,,,0.00,VWS V14.01,2013-04-16 00:54:00,
2013-04-15 20:55:00,81.5,32.5,30.00,West,270,2.2,3.1,17,0.00,,,0.00,VWS V14.01,2013-04-16 00:55:00,
2013-04-15 20:56:00,81.3,32.4,30.00,WSW,248,4.3,4.3,17,0.00,,,0.00,VWS V14.01,2013-04-16 00:56:00,
2013-04-15 20:57:00,81.1,32.2,30.00,West,270,2.9,4.9,17,0.00,,,0.00,VWS V14.01,2013-04-16 00:57:00,
2013-04-15 20:58:00,81.0,32.1,30.03,WNW,292,2.7,4.3,17,0.00,,,0.00,VWS V14.01,2013-04-16 00:58:00,
2013-04-15 20:59:00,76.1,34.5,30.06,North,0,2.5,2.5,22,0.00,,,0.00,VWS V14.01,2013-04-16 00:59:00,
2013-04-15 21:00:00,81.0,32.1,30.03,NNW,338,4.9,6.0,17,0.00,,,0.00,VWS V14.01,2013-04-16 01:00:00,
2013-04-15 21:01:00,80.8,32.0,30.03,West,270,2.9,4.9,17,0.00,,,0.00,VWS V14.01,2013-04-16 01:01:00,
2013-04-15 21:02:00,80.4,31.7,30.03,WNW,292,3.4,4.0,17,0.00,,,0.00,VWS V14.01,2013-04-16 01:02:00,
2013-04-15 21:03:00,80.4,31.7,30.03,North,0,2.7,3.4,17,0.00,,,0.00,VWS V14.01,2013-04-16 01:03:00,
2013-04-15 21:04:00,75.9,34.4,30.06,North,0,1.6,2.2,22,0.00,,,0.00,VWS V14.01,2013-04-16 01:04:00,
2013-04-15 21:05:00,80.2,31.5,30.03,WNW,292,2.5,4.3,17,0.00,,,0.00,VWS V14.01,2013-04-16 01:05:00,
2013-04-15 21:06:00,80.2,31.5,30.03,WNW,292,3.4,4.9,17,0.00,,,0.00,VWS V14.01,2013-04-16 01:06:00,
2013-04-15 21:07:00,80.2,31.5,30.03,West,270,2.0,4.0,17,0.00,,,0.00,VWS V14.01,2013-04-16 01:07:00,
2013-04-15 21:08:00,80.1,35.4,30.03,WNW,292,3.4,3.6,20,0.00,,,0.00,VWS V14.01,2013-04-16 01:08:00,
2013-04-15 21:09:00,75.9,34.4,30.06,NW,315,1.3,2.2,22,0.00,,,0.00,VWS V14.01,2013-04-16 01:09:00,
2013-04-15 21:11:00,79.9,31.2,30.03,WSW,248,3.4,4.3,17,0.00,,,0.00,VWS V14.01,2013-04-16 01:11:00,
2013-04-15 21:12:00,79.7,31.1,30.03,West,270,4.3,5.8,17,0.00,,,0.00,VWS V14.01,2013-04-16 01:12:00,
2013-04-15 21:13:00,79.5,35.0,30.03,WNW,292,4.9,5.6,20,0.00,,,0.00,VWS V14.01,2013-04-16 01:13:00,
2013-04-15 21:14:00,75.7,34.2,30.06,WNW,292,2.2,3.4,22,0.00,,,0.00,VWS V14.01,2013-04-16 01:14:00,
2013-04-15 21:15:00,79.3,30.8,30.03,WNW,292,3.6,5.4,17,0.00,,,0.00,VWS V14.01,2013-04-16 01:15:00,
2013-04-15 21:16:00,79.3,34.8,30.03,West,270,4.0,5.6,20,0.00,,,0.00,VWS V14.01,2013-04-16 01:16:00,
2013-04-15 21:17:00,79.2,34.7,30.03,WNW,292,4.3,4.9,20,0.00,,,0.00,VWS V14.01,2013-04-16 01:17:00,
2013-04-15 21:18:00,79.2,34.7,30.03,SSE,158,3.1,5.8,20,0.00,,,0.00,VWS V14.01,2013-04-16 01:18:00,
2013-04-15 21:19:00,75.6,34.1,30.06,NW,315,1.1,1.3,22,0.00,,,0.00,VWS V14.01,2013-04-16 01:19:00,
2013-04-15 21:20:00,79.2,34.7,30.03,West,270,4.3,5.8,20,0.00,,,0.00,VWS V14.01,2013-04-16 01:20:00,
2013-04-15 21:21:00,79.2,34.7,30.03,West,270,3.8,5.8,20,0.00,,,0.00,VWS V14.01,2013-04-16 01:21:00,
2013-04-15 21:22:00,79.0,34.5,30.03,West,270,4.3,5.6,20,0.00,,,0.00,VWS V14.01,2013-04-16 01:22:00,
2013-04-15 21:23:00,79.0,34.5,30.03,WNW,292,4.3,4.3,20,0.00,,,0.00,VWS V14.01,2013-04-16 01:23:00,
2013-04-15 21:24:00,75.4,33.9,30.06,WNW,292,1.1,1.3,22,0.00,,,0.00,VWS V14.01,2013-04-16 01:24:00,
2013-04-15 21:25:00,78.8,34.4,30.03,West,270,2.9,3.8,20,0.00,,,0.00,VWS V14.01,2013-04-16 01:25:00,
2013-04-15 21:26:00,78.6,34.2,30.03,WNW,292,3.6,3.6,20,0.00,,,0.00,VWS V14.01,2013-04-16 01:26:00,
2013-04-15 21:27:00,78.6,34.2,30.03,West,270,2.0,4.9,20,0.00,,,0.00,VWS V14.01,2013-04-16 01:27:00,
2013-04-15 21:28:00,78.6,34.2,30.03,WNW,292,1.6,4.3,20,0.00,,,0.00,VWS V14.01,2013-04-16 01:28:00,
2013-04-15 21:29:00,75.2,34.9,30.06,NNW,338,2.7,2.7,23,0.00,,,0.00,VWS V14.01,2013-04-16 01:29:00,
2013-04-15 21:30:00,78.6,34.2,30.03,WNW,292,2.0,3.8,20,0.00,,,0.00,VWS V14.01,2013-04-16 01:30:00,
2013-04-15 21:31:00,78.4,34.1,30.03,NNW,338,3.4,3.4,20,0.00,,,0.00,VWS V14.01,2013-04-16 01:31:00,
2013-04-15 21:32:00,78.3,33.9,30.03,NW,315,3.8,4.0,20,0.00,,,0.00,VWS V14.01,2013-04-16 01:32:00,
2013-04-15 21:33:00,78.3,33.9,30.03,West,270,2.7,5.8,20,0.00,,,0.00,VWS V14.01,2013-04-16 01:33:00,
2013-04-15 21:34:00,75.0,34.7,30.06,WNW,292,2.0,2.0,23,0.00,,,0.00,VWS V14.01,2013-04-16 01:34:00,
2013-04-15 21:35:00,78.3,33.9,30.03,WNW,292,4.5,6.3,20,0.00,,,0.00,VWS V14.01,2013-04-16 01:35:00,
2013-04-15 21:37:00,78.1,33.8,30.03,WNW,292,2.7,5.8,20,0.00,,,0.00,VWS V14.01,2013-04-16 01:37:00,
2013-04-15 21:38:00,78.1,33.8,30.03,West,270,3.8,4.3,20,0.00,,,0.00,VWS V14.01,2013-04-16 01:38:00,
2013-04-15 21:39:00,74.8,35.7,30.06,West,270,2.0,2.0,24,0.00,,,0.00,VWS V14.01,2013-04-16 01:39:00,
2013-04-15 21:40:00,77.9,33.6,30.03,West,270,2.9,2.9,20,0.00,,,0.00,VWS V14.01,2013-04-16 01:40:00,
2013-04-15 21:41:00,77.7,33.5,30.03,WSW,248,3.1,3.1,20,0.00,,,0.00,VWS V14.01,2013-04-16 01:41:00,
2013-04-15 21:42:00,77.7,33.5,30.03,WNW,292,3.4,3.4,20,0.00,,,0.00,VWS V14.01,2013-04-16 01:42:00,
2013-04-15 21:43:00,77.7,33.5,30.03,WNW,292,3.4,3.4,20,0.00,,,0.00,VWS V14.01,2013-04-16 01:43:00,
2013-04-15 21:44:00,74.8,36.7,30.06,ENE,68,1.3,1.6,25,0.00,,,0.00,VWS V14.01,2013-04-16 01:44:00,
2013-04-15 21:45:00,77.7,34.7,30.03,NNE,22,3.1,4.0,21,0.00,,,0.00,VWS V14.01,2013-04-16 01:45:00,
2013-04-15 21:46:00,77.7,34.7,30.03,West,270,2.5,3.6,21,0.00,,,0.00,VWS V14.01,2013-04-16 01:46:00,
2013-04-15 21:47:00,77.5,34.6,30.03,NNW,338,2.9,3.1,21,0.00,,,0.00,VWS V14.01,2013-04-16 01:47:00,
2013-04-15 21:48:00,77.5,34.6,30.03,WNW,292,2.5,4.3,21,0.00,,,0.00,VWS V14.01,2013-04-16 01:48:00,
2013-04-15 21:49:00,74.7,37.5,30.06,West,270,1.6,2.9,26,0.00,,,0.00,VWS V14.01,2013-04-16 01:49:00,
2013-04-15 21:50:00,77.5,34.6,30.03,West,270,3.1,3.4,21,0.00,,,0.00,VWS V14.01,2013-04-16 01:50:00,
2013-04-15 21:51:00,77.5,34.6,30.03,West,270,4.3,4.3,21,0.00,,,0.00,VWS V14.01,2013-04-16 01:51:00,
2013-04-15 21:52:00,77.4,34.4,30.03,WSW,248,2.7,4.7,21,0.00,,,0.00,VWS V14.01,2013-04-16 01:52:00,
2013-04-15 21:53:00,77.4,34.4,30.03,WNW,292,2.2,2.7,21,0.00,,,0.00,VWS V14.01,2013-04-16 01:53:00,
2013-04-15 21:54:00,74.7,37.5,30.06,WNW,292,1.6,2.5,26,0.00,,,0.00,VWS V14.01,2013-04-16 01:54:00,
2013-04-15 21:55:00,77.2,34.3,30.03,West,270,4.0,4.0,21,0.00,,,0.00,VWS V14.01,2013-04-16 01:55:00,
2013-04-15 21:56:00,77.2,34.3,30.03,West,270,3.6,4.0,21,0.00,,,0.00,VWS V14.01,2013-04-16 01:56:00,
2013-04-15 21:57:00,77.2,34.3,30.03,West,270,2.9,3.6,21,0.00,,,0.00,VWS V14.01,2013-04-16 01:57:00,
2013-04-15 21:58:00,77.2,34.3,30.03,WNW,292,3.1,3.4,21,0.00,,,0.00,VWS V14.01,2013-04-16 01:58:00,
2013-04-15 21:59:00,74.5,37.4,30.06,WNW,292,0.9,2.5,26,0.00,,,0.00,VWS V14.01,2013-04-16 01:59:00,
2013-04-15 22:00:00,77.2,34.3,30.03,WNW,292,2.7,2.7,21,0.00,,,0.00,VWS V14.01,2013-04-16 02:00:00,
2013-04-15 22:01:00,77.0,34.1,30.03,WNW,292,2.9,3.4,21,0.00,,,0.00,VWS V14.01,2013-04-16 02:01:00,
2013-04-15 22:02:00,77.0,34.1,30.03,WNW,292,2.9,2.9,21,0.00,,,0.00,VWS V14.01,2013-04-16 02:02:00,
2013-04-15 22:03:00,77.0,34.1,30.03,West,270,2.7,2.9,21,0.00,,,0.00,VWS V14.01,2013-04-16 02:03:00,
2013-04-15 22:04:00,74.3,37.2,30.06,NW,315,0.0,0.9,26,0.00,,,0.00,VWS V14.01,2013-04-16 02:04:00,
2013-04-15 22:05:00,76.8,35.1,30.03,North,0,2.0,2.2,22,0.00,,,0.00,VWS V14.01,2013-04-16 02:05:00,
2013-04-15 22:06:00,76.8,35.1,30.03,NNW,338,2.5,3.1,22,0.00,,,0.00,VWS V14.01,2013-04-16 02:06:00,
2013-04-15 22:07:00,76.8,35.1,30.03,NW,315,2.5,4.3,22,0.00,,,0.00,VWS V14.01,2013-04-16 02:07:00,
2013-04-15 22:08:00,76.8,35.1,30.03,NW,315,2.7,2.7,22,0.00,,,0.00,VWS V14.01,2013-04-16 02:08:00,
2013-04-15 22:09:00,74.1,38.0,30.09,WNW,292,1.1,1.1,27,0.00,,,0.00,VWS V14.01,2013-04-16 02:09:00,
2013-04-15 22:10:00,76.6,35.0,30.03,WSW,248,3.8,3.8,22,0.00,,,0.00,VWS V14.01,2013-04-16 02:10:00,
2013-04-15 22:11:00,76.6,35.0,30.03,WNW,292,2.7,3.8,22,0.00,,,0.00,VWS V14.01,2013-04-16 02:11:00,
2013-04-15 22:12:00,76.6,35.0,30.03,West,270,3.1,3.1,22,0.00,,,0.00,VWS V14.01,2013-04-16 02:12:00,
2013-04-15 22:13:00,76.6,35.0,30.03,WNW,292,3.6,3.6,22,0.00,,,0.00,VWS V14.01,2013-04-16 02:13:00,
2013-04-15 22:14:00,74.1,38.0,30.09,NNW,338,1.3,1.6,27,0.00,,,0.00,VWS V14.01,2013-04-16 02:14:00,
2013-04-15 22:15:00,76.5,34.8,30.03,West,270,3.1,4.0,22,0.00,,,0.00,VWS V14.01,2013-04-16 02:15:00,
2013-04-15 22:16:00,76.5,34.8,30.03,West,270,2.0,3.1,22,0.00,,,0.00,VWS V14.01,2013-04-16 02:16:00,
2013-04-15 22:17:00,76.5,34.8,30.03,WNW,292,2.7,2.7,22,0.00,,,0.00,VWS V14.01,2013-04-16 02:17:00,
2013-04-15 22:18:00,76.5,34.8,30.03,NNW,338,2.7,2.9,22,0.00,,,0.00,VWS V14.01,2013-04-16 02:18:00,
2013-04-15 22:19:00,73.8,37.7,30.09,NW,315,0.0,0.0,27,0.00,,,0.00,VWS V14.01,2013-04-16 02:19:00,
2013-04-15 22:20:00,76.5,36.0,30.03,WNW,292,2.5,3.6,23,0.00,,,0.00,VWS V14.01,2013-04-16 02:20:00,
2013-04-15 22:22:00,76.5,34.8,30.03,WNW,292,1.6,3.1,22,0.00,,,0.00,VWS V14.01,2013-04-16 02:22:00,
2013-04-15 22:23:00,76.3,34.7,30.03,West,270,2.5,3.6,22,0.00,,,0.00,VWS V14.01,2013-04-16 02:23:00,
2013-04-15 22:24:00,73.8,38.7,30.09,NNW,338,0.0,0.9,28,0.00,,,0.00,VWS V14.01,2013-04-16 02:24:00,
2013-04-15 22:25:00,76.3,35.8,30.03,WNW,292,2.5,2.7,23,0.00,,,0.00,VWS V14.01,2013-04-16 02:25:00,
2013-04-15 22:26:00,76.3,35.8,30.03,WNW,292,1.3,2.7,23,0.00,,,0.00,VWS V14.01,2013-04-16 02:26:00,
2013-04-15 22:27:00,76.3,35.8,30.03,WNW,292,2.5,2.5,23,0.00,,,0.00,VWS V14.01,2013-04-16 02:27:00,
2013-04-15 22:28:00,76.3,35.8,30.06,NNW,338,2.0,2.7,23,0.00,,,0.00,VWS V14.01,2013-04-16 02:28:00,
2013-04-15 22:29:00,73.8,39.5,30.09,NNE,22,0.0,1.3,29,0.00,,,0.00,VWS V14.01,2013-04-16 02:29:00,
2013-04-15 22:30:00,76.1,34.5,30.06,West,270,1.6,2.2,22,0.00,,,0.00,VWS V14.01,2013-04-16 02:30:00,
2013-04-15 22:31:00,76.1,34.5,30.06,West,270,1.6,1.6,22,0.00,,,0.00,VWS V14.01,2013-04-16 02:31:00,
2013-04-15 22:32:00,76.1,34.5,30.06,NNW,338,2.0,2.2,22,0.00,,,0.00,VWS V14.01,2013-04-16 02:32:00,
2013-04-15 22:33:00,76.1,34.5,30.06,North,0,2.0,2.5,22,0.00,,,0.00,VWS V14.01,2013-04-16 02:33:00,
2013-04-15 22:34:00,73.8,40.4,30.09,NW,315,0.0,1.6,30,0.00,,,0.00,VWS V14.01,2013-04-16 02:34:00,
2013-04-15 22:35:00,76.1,34.5,30.06,WNW,292,1.3,2.0,22,0.00,,,0.00,VWS V14.01,2013-04-16 02:35:00,
2013-04-15 22:36:00,75.9,34.4,30.06,WNW,292,1.3,1.6,22,0.00,,,0.00,VWS V14.01,2013-04-16 02:36:00,
2013-04-15 22:38:00,75.9,34.4,30.06,North,0,1.6,2.2,22,0.00,,,0.00,VWS V14.01,2013-04-16 02:38:00,
2013-04-15 22:39:00,73.6,41.1,30.09,West,270,1.6,1.6,31,0.00,,,0.00,VWS V14.01,2013-04-16 02:39:00,
2013-04-15 22:40:00,75.9,34.4,30.06,West,270,1.6,2.5,22,0.00,,,0.00,VWS V14.01,2013-04-16 02:40:00,
2013-04-15 22:41:00,75.9,34.4,30.06,WNW,292,3.1,3.4,22,0.00,,,0.00,VWS V14.01,2013-04-16 02:41:00,
2013-04-15 22:42:00,75.9,34.4,30.06,West,270,2.2,3.1,22,0.00,,,0.00,VWS V14.01,2013-04-16 02:42:00,
2013-04-15 22:43:00,75.9,34.4,30.06,NNW,338,4.0,4.0,22,0.00,,,0.00,VWS V14.01,2013-04-16 02:43:00,
2013-04-15 22:44:00,73.4,41.0,30.09,West,270,0.0,0.0,31,0.00,,,0.00,VWS V14.01,2013-04-16 02:44:00,
2013-04-15 22:45:00,75.9,34.4,30.06,WNW,292,1.6,2.0,22,0.00,,,0.00,VWS V14.01,2013-04-16 02:45:00,
2013-04-15 22:46:00,75.9,34.4,30.06,NW,315,3.1,3.1,22,0.00,,,0.00,VWS V14.01,2013-04-16 02:46:00,
2013-04-15 22:47:00,75.9,34.4,30.06,NNW,338,2.7,3.4,22,0.00,,,0.00,VWS V14.01,2013-04-16 02:47:00,
2013-04-15 22:48:00,75.7,34.2,30.06,North,0,2.7,3.4,22,0.00,,,0.00,VWS V14.01,2013-04-16 02:48:00,
2013-04-15 22:49:00,75.7,34.2,30.06,NNW,338,1.6,2.7,22,0.00,,,0.00,VWS V14.01,2013-04-16 02:49:00,
2013-04-15 22:50:00,73.2,40.8,30.09,NW,315,0.0,0.0,31,0.00,,,0.00,VWS V14.01,2013-04-16 02:50:00,
2013-04-15 22:51:00,75.7,34.2,30.06,WSW,248,1.1,2.7,22,0.00,,,0.00,VWS V14.01,2013-04-16 02:51:00,
2013-04-15 22:52:00,75.7,34.2,30.06,NNW,338,1.3,2.0,22,0.00,,,0.00,VWS V14.01,2013-04-16 02:52:00,
2013-04-15 22:53:00,75.6,34.1,30.06,NW,315,1.1,1.3,22,0.00,,,0.00,VWS V14.01,2013-04-16 02:53:00,
2013-04-15 22:54:00,75.6,34.1,30.06,NNW,338,1.6,1.6,22,0.00,,,0.00,VWS V14.01,2013-04-16 02:54:00,
2013-04-15 22:55:00,73.2,40.8,30.12,West,270,1.1,1.1,31,0.00,,,0.00,VWS V14.01,2013-04-16 02:55:00,
2013-04-15 22:56:00,75.4,33.9,30.06,NNW,338,1.3,1.6,22,0.00,,,0.00,VWS V14.01,2013-04-16 02:56:00,
2013-04-15 22:57:00,75.4,33.9,30.06,WNW,292,1.3,1.6,22,0.00,,,0.00,VWS V14.01,2013-04-16 02:57:00,
2013-04-15 22:58:00,75.4,33.9,30.06,NW,315,1.1,1.3,22,0.00,,,0.00,VWS V14.01,2013-04-16 02:58:00,
2013-04-15 22:59:00,75.4,33.9,30.06,WNW,292,2.5,2.5,22,0.00,,,0.00,VWS V14.01,2013-04-16 02:59:00,
2013-04-15 23:00:00,73.2,41.6,30.12,NNW,338,0.9,0.9,32,0.00,,,0.00,VWS V14.01,2013-04-16 03:00:00,
2013-04-15 23:01:00,75.4,33.9,30.06,NNW,338,1.3,3.1,22,0.00,,,0.00,VWS V14.01,2013-04-16 03:01:00,
2013-04-15 23:02:00,75.4,33.9,30.06,NNW,338,1.3,1.6,22,0.00,,,0.00,VWS V14.01,2013-04-16 03:02:00,
2013-04-15 23:03:00,75.2,34.9,30.06,NNW,338,2.7,2.7,23,0.00,,,0.00,VWS V14.01,2013-04-16 03:03:00,
2013-04-15 23:04:00,75.2,34.9,30.06,West,270,2.7,2.7,23,0.00,,,0.00,VWS V14.01,2013-04-16 03:04:00,
2013-04-15 23:05:00,73.0,41.5,30.12,NE,45,2.5,2.5,32,0.00,,,0.00,VWS V14.01,2013-04-16 03:05:00,
2013-04-15 23:06:00,75.0,34.7,30.06,NNW,338,2.5,2.9,23,0.00,,,0.00,VWS V14.01,2013-04-16 03:06:00,
2013-04-15 23:07:00,75.0,34.7,30.06,NNW,338,1.3,2.5,23,0.00,,,0.00,VWS V14.01,2013-04-16 03:07:00,
2013-04-15 23:08:00,75.0,34.7,30.06,West,270,2.0,2.0,23,0.00,,,0.00,VWS V14.01,2013-04-16 03:08:00,
2013-04-15 23:09:00,75.0,34.7,30.06,West,270,2.0,2.0,23,0.00,,,0.00,VWS V14.01,2013-04-16 03:09:00,
2013-04-15 23:10:00,72.9,42.1,30.09,ENE,68,3.6,3.6,33,0.00,,,0.00,VWS V14.01,2013-04-16 03:10:00,
2013-04-15 23:11:00,74.8,35.7,30.06,NNE,22,1.6,2.0,24,0.00,,,0.00,VWS V14.01,2013-04-16 03:11:00,
2013-04-15 23:12:00,74.8,35.7,30.06,WNW,292,1.1,1.6,24,0.00,,,0.00,VWS V14.01,2013-04-16 03:12:00,
2013-04-15 23:13:00,74.8,35.7,30.06,WNW,292,2.9,2.9,24,0.00,,,0.00,VWS V14.01,2013-04-16 03:13:00,
2013-04-15 23:14:00,74.8,35.7,30.06,West,270,1.3,2.9,24,0.00,,,0.00,VWS V14.01,2013-04-16 03:14:00,
2013-04-15 23:15:00,72.9,42.1,30.09,NE,45,3.1,3.1,33,0.00,,,0.00,VWS V14.01,2013-04-16 03:15:00,
2013-04-15 23:17:00,74.8,36.7,30.06,West,270,1.6,1.6,25,0.00,,,0.00,VWS V14.01,2013-04-16 03:17:00,
2013-04-15 23:18:00,74.8,36.7,30.06,ENE,68,1.3,1.6,25,0.00,,,0.00,VWS V14.01,2013-04-16 03:18:00,
2013-04-15 23:20:00,73.4,42.6,30.09,NNE,22,3.4,3.4,33,0.00,,,0.00,VWS V14.01,2013-04-16 03:20:00,
2013-04-15 23:21:00,74.7,36.5,30.06,West,270,1.3,1.3,25,0.00,,,0.00,VWS V14.01,2013-04-16 03:21:00,
2013-04-15 23:22:00,74.7,36.5,30.06,WNW,292,2.9,2.9,25,0.00,,,0.00,VWS V14.01,2013-04-16 03:22:00,
2013-04-15 23:23:00,74.7,37.5,30.06,NW,315,0.9,2.9,26,0.00,,,0.00,VWS V14.01,2013-04-16 03:23:00,
2013-04-15 23:24:00,74.7,37.5,30.06,West,270,1.3,1.3,26,0.00,,,0.00,VWS V14.01,2013-04-16 03:24:00,
2013-04-15 23:25:00,73.4,41.8,30.09,NNW,338,2.5,3.1,32,0.00,,,0.00,VWS V14.01,2013-04-16 03:25:00,
2013-04-15 23:26:00,74.7,37.5,30.06,West,270,1.1,1.6,26,0.00,,,0.00,VWS V14.01,2013-04-16 03:26:00,
2013-04-15 23:27:00,74.7,37.5,30.06,WNW,292,1.6,2.5,26,0.00,,,0.00,VWS V14.01,2013-04-16 03:27:00,
2013-04-15 23:28:00,74.7,37.5,30.06,WNW,292,1.6,1.6,26,0.00,,,0.00,VWS V14.01,2013-04-16 03:28:00,
2013-04-15 23:29:00,74.7,37.5,30.06,NNW,338,0.0,2.0,26,0.00,,,0.00,VWS V14.01,2013-04-16 03:29:00,
2013-04-15 23:30:00,73.0,41.5,30.09,NW,315,0.0,0.0,32,0.00,,,0.00,VWS V14.01,2013-04-16 03:30:00,
2013-04-15 23:31:00,74.7,37.5,30.06,North,0,0.0,1.3,26,0.00,,,0.00,VWS V14.01,2013-04-16 03:31:00,
2013-04-15 23:32:00,74.5,37.4,30.06,WNW,292,1.1,1.3,26,0.00,,,0.00,VWS V14.01,2013-04-16 03:32:00,
2013-04-15 23:33:00,74.5,37.4,30.06,WNW,292,2.2,2.5,26,0.00,,,0.00,VWS V14.01,2013-04-16 03:33:00,
2013-04-15 23:34:00,74.5,38.3,30.06,WNW,292,2.0,2.2,27,0.00,,,0.00,VWS V14.01,2013-04-16 03:34:00,
2013-04-15 23:35:00,72.7,41.2,30.09,East,90,1.6,2.0,32,0.00,,,0.00,VWS V14.01,2013-04-16 03:35:00,
2013-04-15 23:36:00,74.3,38.2,30.06,WNW,292,0.9,1.6,27,0.00,,,0.00,VWS V14.01,2013-04-16 03:36:00,
2013-04-15 23:37:00,74.3,38.2,30.06,NW,315,0.9,0.9,27,0.00,,,0.00,VWS V14.01,2013-04-16 03:37:00,
2013-04-15 23:38:00,74.3,37.2,30.06,NW,315,0.0,0.9,26,0.00,,,0.00,VWS V14.01,2013-04-16 03:38:00,
2013-04-15 23:39:00,74.3,37.2,30.06,North,0,1.6,1.6,26,0.00,,,0.00,VWS V14.01,2013-04-16 03:39:00,
2013-04-15 23:40:00,72.3,41.6,30.09,ENE,68,2.9,2.9,33,0.00,,,0.00,VWS V14.01,2013-04-16 03:40:00,
2013-04-15 23:41:00,74.1,37.1,30.06,WNW,292,0.9,1.6,26,0.00,,,0.00,VWS V14.01,2013-04-16 03:41:00,
2013-04-15 23:42:00,74.1,38.0,30.06,NW,315,0.9,1.6,27,0.00,,,0.00,VWS V14.01,2013-04-16 03:42:00,
2013-04-15 23:43:00,74.1,38.0,30.09,WNW,292,1.1,1.1,27,0.00,,,0.00,VWS V14.01,2013-04-16 03:43:00,
2013-04-15 23:44:00,74.1,38.0,30.09,NNE,22,1.6,2.0,27,0.00,,,0.00,VWS V14.01,2013-04-16 03:44:00,
2013-04-15 23:45:00,72.1,41.5,30.09,NE,45,1.1,1.1,33,0.00,,,0.00,VWS V14.01,2013-04-16 03:45:00,
2013-04-15 23:46:00,74.1,38.0,30.09,NNW,338,1.1,1.3,27,0.00,,,0.00,VWS V14.01,2013-04-16 03:46:00,
2013-04-15 23:47:00,74.1,38.0,30.09,NNW,338,1.6,1.6,27,0.00,,,0.00,VWS V14.01,2013-04-16 03:47:00,
2013-04-15 23:48:00,74.1,38.0,30.09,NNW,338,1.3,1.6,27,0.00,,,0.00,VWS V14.01,2013-04-16 03:48:00,
2013-04-15 23:49:00,73.9,37.9,30.09,NNW,338,0.0,1.6,27,0.00,,,0.00,VWS V14.01,2013-04-16 03:49:00,
2013-04-15 23:50:00,72.0,41.3,30.09,NE,45,1.6,1.6,33,0.00,,,0.00,VWS V14.01,2013-04-16 03:50:00,
2013-04-15 23:51:00,73.9,37.9,30.09,NW,315,0.0,0.0,27,0.00,,,0.00,VWS V14.01,2013-04-16 03:51:00,
2013-04-15 23:52:00,73.9,37.9,30.09,NW,315,0.0,0.0,27,0.00,,,0.00,VWS V14.01,2013-04-16 03:52:00,
2013-04-15 23:53:00,73.8,37.7,30.09,NW,315,0.0,0.0,27,0.00,,,0.00,VWS V14.01,2013-04-16 03:53:00,
2013-04-15 23:54:00,73.8,37.7,30.09,NW,315,0.0,0.0,27,0.00,,,0.00,VWS V14.01,2013-04-16 03:54:00,
2013-04-15 23:55:00,72.0,41.3,30.06,NNE,22,0.0,0.0,33,0.00,,,0.00,VWS V14.01,2013-04-16 03:55:00,
2013-04-15 23:56:00,73.8,37.7,30.09,NW,315,0.0,0.0,27,0.00,,,0.00,VWS V14.01,2013-04-16 03:56:00,
2013-04-15 23:57:00,73.8,38.7,30.09,NNW,338,0.9,1.3,28,0.00,,,0.00,VWS V14.01,2013-04-16 03:57:00,
2013-04-15 23:58:00,73.8,38.7,30.09,NNW,338,0.0,0.9,28,0.00,,,0.00,VWS V14.01,2013-04-16 03:58:00,
2013-04-15 23:59:00,73.6,38.5,30.09,WNW,292,1.3,1.3,28,0.00,,,0.00,VWS V14.01,2013-04-16 03:59:00,